snow_conditions_reporting_by_weatherlink 2020-08-25T16:31:42+00:00

Toba Valley Lodge

# Date
Time
Ta 24hr
Ta Max
24hr
Ta Min
RH HS HS
Sig
Qual
Precip
Gauge
Total
Hour
Precip
mm
24hr
Sum
Precip
72hr
Sum
Precip
28day
Sum
Precip
Wind
Speed
kph
Wind
Dir
deg
Vel
3sec
Gust
Dir
3sec
Gust
Time
3sec
Gust
Batt
Volts
Logger
Intrnl
Temp
1. 2020-07-29 16:14 34.8 34.8 34.8 28 ~ ~ 885 ~ ~ ~ ~ 0 337 5 ~ ~ ~ ~
2. 2020-07-29 17:14 34.1 34.8 34.1 44 ~ ~ 885 0.00 ~ ~ 0 0 176 2 ~ ~ ~ ~
3. 2020-07-29 18:14 27.6 34.8 27.6 50 ~ ~ 885 0.00 ~ ~ 0 0 176 0 ~ ~ ~ ~
4. 2020-07-29 19:14 22.9 34.8 22.9 60 ~ ~ 885 0.00 ~ ~ 0 0 176 0 ~ ~ ~ ~
5. 2020-07-29 20:14 20.3 34.8 20.3 68 ~ ~ 885 0.00 ~ ~ 0 0 176 0 ~ ~ ~ ~
6. 2020-07-29 21:14 18.7 34.8 18.7 73 ~ ~ 885 0.00 ~ ~ 0 0 176 0 ~ ~ ~ ~
7. 2020-07-29 22:14 17.3 34.8 17.3 77 ~ ~ 885 0.00 ~ ~ 0 0 176 0 ~ ~ ~ ~
8. 2020-07-29 23:14 16.4 34.8 16.4 79 ~ ~ 885 0.00 ~ ~ 0 0 176 0 ~ ~ ~ ~
9. 2020-07-30 00:15 15.6 34.8 15.6 81 ~ ~ 885 0.00 ~ ~ 0 0 176 0 ~ ~ ~ ~
10. 2020-07-30 01:14 14.9 34.8 14.9 83 ~ ~ 885 0.00 ~ ~ 0 0 176 0 ~ ~ ~ ~
11. 2020-07-30 02:14 14.2 34.8 14.2 84 ~ ~ 885 0.00 ~ ~ 0 0 176 0 ~ ~ ~ ~
12. 2020-07-30 03:14 13.7 34.8 13.7 85 ~ ~ 885 0.00 ~ ~ 0 0 176 0 ~ ~ ~ ~
13. 2020-07-30 04:14 13.2 34.8 13.2 86 ~ ~ 885 0.00 ~ ~ 0 0 176 0 ~ ~ ~ ~
14. 2020-07-30 05:14 12.8 34.8 12.8 88 ~ ~ 885 0.00 ~ ~ 0 0 176 0 ~ ~ ~ ~
15. 2020-07-30 06:14 12.4 34.8 12.4 88 ~ ~ 885 0.00 ~ ~ 0 0 176 0 ~ ~ ~ ~
16. 2020-07-30 07:14 12.2 34.8 12.2 90 ~ ~ 885 0.00 ~ ~ 0 0 176 0 ~ ~ ~ ~
17. 2020-07-30 08:14 12.2 12.2 12.2 92 ~ ~ 885 0.00 ~ ~ 0 0 176 0 ~ ~ ~ ~
18. 2020-07-30 09:15 16.6 16.6 12.2 85 ~ ~ 885 0.00 ~ ~ 0 0 176 0 ~ ~ ~ ~
19. 2020-07-30 10:14 22.3 22.3 12.2 64 ~ ~ 885 0.00 ~ ~ 0 0 176 0 ~ ~ ~ ~
20. 2020-07-30 11:14 27.1 27.1 12.2 48 ~ ~ 885 0.00 ~ ~ 0 0 176 2 ~ ~ ~ ~
21. 2020-07-30 12:14 30.7 30.7 12.2 39 ~ ~ 885 0.00 ~ ~ 0 0 328 2 ~ ~ ~ ~
22. 2020-07-30 13:14 33.7 33.7 12.2 30 ~ ~ 885 0.00 ~ ~ 0 2 273 2 ~ ~ ~ ~
23. 2020-07-30 14:14 36.4 36.4 12.2 25 ~ ~ 885 0.00 ~ ~ 0 2 288 3 ~ ~ ~ ~
24. 2020-07-30 15:14 37.1 37.1 12.2 27 ~ ~ 885 0.00 ~ ~ 0 5 317 5 ~ ~ ~ ~
25. 2020-07-30 16:14 36.1 37.1 12.2 39 ~ ~ 885 0.00 0 ~ 0 0 333 5 ~ ~ ~ ~
26. 2020-07-30 17:14 34.3 37.1 12.2 36 ~ ~ 885 0.00 0 ~ 0 0 326 5 ~ ~ ~ ~
27. 2020-07-30 18:14 29.6 37.1 12.2 42 ~ ~ 885 0.00 0 ~ 0 0 326 0 ~ ~ ~ ~
28. 2020-07-30 19:14 24.7 37.1 12.2 58 ~ ~ 885 0.00 0 ~ 0 0 326 0 ~ ~ ~ ~
29. 2020-07-30 20:14 21.6 37.1 12.2 65 ~ ~ 885 0.00 0 ~ 0 0 326 0 ~ ~ ~ ~
30. 2020-07-30 21:14 19.8 37.1 12.2 69 ~ ~ 885 0.00 0 ~ 0 0 326 0 ~ ~ ~ ~
31. 2020-07-30 22:15 18.6 37.1 12.2 70 ~ ~ 885 0.00 0 ~ 0 0 326 0 ~ ~ ~ ~
32. 2020-07-30 23:15 17.4 37.1 12.2 73 ~ ~ 885 0.00 0 ~ 0 0 326 0 ~ ~ ~ ~
33. 2020-07-31 00:14 16.7 37.1 12.2 76 ~ ~ 885 0.00 0 ~ 0 0 326 0 ~ ~ ~ ~
34. 2020-07-31 01:14 15.7 37.1 12.2 79 ~ ~ 885 0.00 0 ~ 0 0 326 2 ~ ~ ~ ~
35. 2020-07-31 02:14 15.6 37.1 12.2 81 ~ ~ 885 0.00 0 ~ 0 0 326 0 ~ ~ ~ ~
36. 2020-07-31 03:14 15.1 37.1 12.2 80 ~ ~ 885 0.00 0 ~ 0 0 326 2 ~ ~ ~ ~
37. 2020-07-31 04:14 14.7 37.1 12.2 85 ~ ~ 885 0.00 0 ~ 0 0 326 0 ~ ~ ~ ~
38. 2020-07-31 05:14 19.5 37.1 12.2 61 ~ ~ 885 0.00 0 ~ 0 6 141 21 ~ ~ ~ ~
39. 2020-07-31 06:14 19.7 37.1 12.2 72 ~ ~ 885 0.00 0 ~ 0 0 209 5 ~ ~ ~ ~
40. 2020-07-31 07:15 17.6 37.1 12.2 92 ~ ~ 885 0.25 0 ~ 0 0 152 8 ~ ~ ~ ~
41. 2020-07-31 08:14 18.2 18.2 17.6 94 ~ ~ 885 0.00 0 ~ 0 0 156 2 ~ ~ ~ ~
42. 2020-07-31 09:14 19.9 19.9 17.6 90 ~ ~ 885 0.00 0 ~ 0 0 144 0 ~ ~ ~ ~
43. 2020-07-31 10:14 22.1 22.1 17.6 80 ~ ~ 885 0.00 0 ~ 0 0 305 3 ~ ~ ~ ~
44. 2020-07-31 11:14 22.8 22.8 17.6 86 ~ ~ 885 0.00 0 ~ 0 0 106 2 ~ ~ ~ ~
45. 2020-07-31 12:14 24.2 24.2 17.6 76 ~ ~ 885 0.00 0 ~ 0 0 209 0 ~ ~ ~ ~
46. 2020-07-31 13:14 25.2 25.2 17.6 70 ~ ~ 885 0.00 0 ~ 0 0 210 2 ~ ~ ~ ~
47. 2020-07-31 14:14 25.2 25.2 17.6 71 ~ ~ 885 0.00 0 ~ 0 0 165 3 ~ ~ ~ ~
48. 2020-07-31 15:14 23.4 25.2 17.6 82 ~ ~ 885 0.00 0 ~ 0 0 138 0 ~ ~ ~ ~
49. 2020-07-31 16:14 24.5 25.2 17.6 79 ~ ~ 885 0.00 0 ~ 0 0 298 3 ~ ~ ~ ~
50. 2020-07-31 17:14 27.2 27.2 17.6 65 ~ ~ 885 0.00 0 ~ 0 0 284 3 ~ ~ ~ ~
51. 2020-07-31 18:14 26.0 27.2 17.6 68 ~ ~ 885 0.00 0 ~ 0 3 153 6 ~ ~ ~ ~
52. 2020-07-31 19:14 24.0 27.2 17.6 78 ~ ~ 885 0.00 0 ~ 0 0 136 0 ~ ~ ~ ~
53. 2020-07-31 20:14 21.5 27.2 17.6 77 ~ ~ 885 0.00 0 ~ 0 0 136 0 ~ ~ ~ ~
54. 2020-07-31 21:14 19.5 27.2 17.6 81 ~ ~ 885 0.00 0 ~ 0 0 136 0 ~ ~ ~ ~
55. 2020-07-31 22:14 18.1 27.2 17.6 85 ~ ~ 885 0.00 0 ~ 0 0 136 0 ~ ~ ~ ~
56. 2020-07-31 23:14 16.9 27.2 16.9 86 ~ ~ 885 0.00 0 ~ 0 0 136 0 ~ ~ ~ ~
57. 2020-08-01 00:14 16.0 27.2 16.0 88 ~ ~ 885 0.00 0 ~ 0 0 136 0 ~ ~ ~ ~
58. 2020-08-01 01:14 15.2 27.2 15.2 89 ~ ~ 885 0.00 0 ~ 0 0 136 0 ~ ~ ~ ~
59. 2020-08-01 02:14 14.5 27.2 14.5 90 ~ ~ 885 0.00 0 ~ 0 0 136 0 ~ ~ ~ ~
60. 2020-08-01 03:14 14.1 27.2 14.1 91 ~ ~ 885 0.00 0 ~ 0 0 136 0 ~ ~ ~ ~
61. 2020-08-01 04:14 13.6 27.2 13.6 91 ~ ~ 885 0.00 0 ~ 0 0 136 0 ~ ~ ~ ~
62. 2020-08-01 05:14 13.7 27.2 13.6 93 ~ ~ 885 0.00 0 ~ 0 0 136 0 ~ ~ ~ ~
63. 2020-08-01 06:14 13.8 27.2 13.6 92 ~ ~ 885 0.00 0 ~ 0 0 136 0 ~ ~ ~ ~
64. 2020-08-01 07:14 13.8 27.2 13.6 92 ~ ~ 885 0.00 0 ~ 0 0 136 0 ~ ~ ~ ~
65. 2020-08-01 08:14 13.9 13.9 13.8 93 ~ ~ 885 0.00 0 ~ 0 0 136 0 ~ ~ ~ ~
66. 2020-08-01 09:14 16.7 16.7 13.8 96 ~ ~ 885 0.00 0 ~ 0 0 136 0 ~ ~ ~ ~
67. 2020-08-01 10:14 21.6 21.6 13.8 75 ~ ~ 885 0.00 0 ~ 0 0 136 0 ~ ~ ~ ~
68. 2020-08-01 11:14 25.6 25.6 13.8 63 ~ ~ 885 0.00 0 ~ 0 0 136 0 ~ ~ ~ ~
69. 2020-08-01 12:14 28.4 28.4 13.8 54 ~ ~ 885 0.00 0 ~ 0 0 147 3 ~ ~ ~ ~
70. 2020-08-01 13:14 29.9 29.9 13.8 52 ~ ~ 885 0.00 0 ~ 0 0 188 3 ~ ~ ~ ~
71. 2020-08-01 14:14 31.6 31.6 13.8 44 ~ ~ 885 0.00 0 ~ 0 3 232 8 ~ ~ ~ ~
72. 2020-08-01 15:14 31.8 31.8 13.8 37 ~ ~ 885 0.00 0 ~ 0 2 238 8 ~ ~ ~ ~
73. 2020-08-01 16:14 33.1 33.1 13.8 33 ~ ~ 885 0.00 0 0 0 5 327 6 ~ ~ ~ ~
74. 2020-08-01 17:14 32.8 33.1 13.8 35 ~ ~ 885 0.00 0 0 0 0 202 3 ~ ~ ~ ~
75. 2020-08-01 18:14 27.4 33.1 13.8 53 ~ ~ 885 0.00 0 0 0 0 146 2 ~ ~ ~ ~
76. 2020-08-01 19:14 23.1 33.1 13.8 65 ~ ~ 885 0.00 0 0 0 0 146 0 ~ ~ ~ ~
77. 2020-08-01 20:14 20.7 33.1 13.8 71 ~ ~ 885 0.00 0 0 0 0 146 0 ~ ~ ~ ~
78. 2020-08-01 21:14 18.7 33.1 13.8 76 ~ ~ 885 0.00 0 0 0 0 146 0 ~ ~ ~ ~
79. 2020-08-01 22:14 17.4 33.1 13.8 79 ~ ~ 885 0.00 0 0 0 0 146 0 ~ ~ ~ ~
80. 2020-08-01 23:14 16.6 33.1 13.8 81 ~ ~ 885 0.00 0 0 0 0 146 0 ~ ~ ~ ~
81. 2020-08-02 00:14 15.8 33.1 13.8 84 ~ ~ 885 0.00 0 0 0 0 146 0 ~ ~ ~ ~
82. 2020-08-02 01:14 15.1 33.1 13.8 84 ~ ~ 885 0.00 0 0 0 0 146 0 ~ ~ ~ ~
83. 2020-08-02 02:14 14.3 33.1 13.8 86 ~ ~ 885 0.00 0 0 0 0 146 0 ~ ~ ~ ~
84. 2020-08-02 03:14 13.9 33.1 13.8 88 ~ ~ 885 0.00 0 0 0 0 146 0 ~ ~ ~ ~
85. 2020-08-02 04:14 13.4 33.1 13.4 88 ~ ~ 885 0.00 0 0 0 0 146 0 ~ ~ ~ ~
86. 2020-08-02 05:14 12.8 33.1 12.8 90 ~ ~ 885 0.00 0 0 0 0 146 0 ~ ~ ~ ~
87. 2020-08-02 06:14 12.3 33.1 12.3 91 ~ ~ 885 0.00 0 0 0 0 146 0 ~ ~ ~ ~
88. 2020-08-02 07:14 12.2 33.1 12.2 91 ~ ~ 885 0.00 0 0 0 0 146 0 ~ ~ ~ ~
89. 2020-08-02 08:15 12.4 12.4 12.2 93 ~ ~ 885 0.00 0 0 0 0 146 0 ~ ~ ~ ~
90. 2020-08-02 09:14 15.4 15.4 12.2 94 ~ ~ 885 0.00 0 0 0 0 146 2 ~ ~ ~ ~
91. 2020-08-02 10:14 20.8 20.8 12.2 70 ~ ~ 885 0.00 0 0 0 0 171 2 ~ ~ ~ ~
92. 2020-08-02 11:14 24.5 24.5 12.2 58 ~ ~ 885 0.00 0 0 0 2 265 5 ~ ~ ~ ~
93. 2020-08-02 12:15 27.1 27.1 12.2 50 ~ ~ 885 0.00 0 0 0 3 145 6 ~ ~ ~ ~
94. 2020-08-02 13:14 26.3 27.1 12.2 53 ~ ~ 885 0.00 0 0 0 0 165 5 ~ ~ ~ ~
95. 2020-08-02 14:14 24.1 27.1 12.2 61 ~ ~ 885 0.00 0 0 0 0 138 8 ~ ~ ~ ~
96. 2020-08-02 15:14 22.3 27.1 12.2 74 ~ ~ 885 0.00 0 0 0 0 167 5 ~ ~ ~ ~
97. 2020-08-02 16:14 20.0 27.1 12.2 86 ~ ~ 886 0.51 1 1 1 0 150 6 ~ ~ ~ ~
98. 2020-08-02 17:14 19.2 27.1 12.2 91 ~ ~ 886 0.25 1 1 1 0 150 0 ~ ~ ~ ~
99. 2020-08-02 18:14 18.8 27.1 12.2 93 ~ ~ 887 0.51 1 2 2 0 150 0 ~ ~ ~ ~
100. 2020-08-02 19:14 18.3 27.1 12.2 92 ~ ~ 887 0.00 1 2 2 0 150 0 ~ ~ ~ ~
101. 2020-08-02 20:14 17.6 27.1 12.2 92 ~ ~ 887 0.00 1 2 2 0 150 0 ~ ~ ~ ~
102. 2020-08-02 21:14 16.9 27.1 12.2 93 ~ ~ 887 0.00 1 2 2 0 150 0 ~ ~ ~ ~
103. 2020-08-02 22:14 17.2 27.1 12.2 95 ~ ~ 887 0.25 2 2 2 6 151 6 ~ ~ ~ ~
104. 2020-08-02 23:14 16.9 27.1 12.2 94 ~ ~ 887 0.00 2 2 2 0 145 0 ~ ~ ~ ~
105. 2020-08-03 00:14 16.1 27.1 12.2 94 ~ ~ 887 0.00 2 2 2 0 144 0 ~ ~ ~ ~
106. 2020-08-03 01:14 15.7 27.1 12.2 94 ~ ~ 887 0.00 2 2 2 0 144 0 ~ ~ ~ ~
107. 2020-08-03 02:14 15.3 27.1 12.2 94 ~ ~ 887 0.00 2 2 2 0 144 0 ~ ~ ~ ~
108. 2020-08-03 03:14 14.9 27.1 12.2 95 ~ ~ 887 0.00 2 2 2 0 144 0 ~ ~ ~ ~
109. 2020-08-03 04:14 14.6 27.1 12.2 95 ~ ~ 887 0.00 2 2 2 0 144 0 ~ ~ ~ ~
110. 2020-08-03 05:14 14.3 27.1 12.2 95 ~ ~ 887 0.00 2 2 2 0 144 0 ~ ~ ~ ~
111. 2020-08-03 06:14 14.2 27.1 12.2 95 ~ ~ 887 0.00 2 2 2 0 144 0 ~ ~ ~ ~
112. 2020-08-03 07:14 14.2 27.1 12.2 96 ~ ~ 887 0.00 2 2 2 0 144 0 ~ ~ ~ ~
113. 2020-08-03 08:14 14.6 14.6 14.2 96 ~ ~ 887 0.00 2 2 2 0 144 0 ~ ~ ~ ~
114. 2020-08-03 09:14 15.3 15.3 14.2 97 ~ ~ 887 0.00 2 2 2 0 144 0 ~ ~ ~ ~
115. 2020-08-03 10:14 16.3 16.3 14.2 97 ~ ~ 887 0.00 2 2 2 0 144 0 ~ ~ ~ ~
116. 2020-08-03 11:14 17.7 17.7 14.2 96 ~ ~ 887 0.00 2 2 2 0 144 0 ~ ~ ~ ~
117. 2020-08-03 12:14 19.5 19.5 14.2 89 ~ ~ 887 0.00 2 2 2 0 144 0 ~ ~ ~ ~
118. 2020-08-03 13:14 20.6 20.6 14.2 87 ~ ~ 887 0.00 2 2 2 0 144 0 ~ ~ ~ ~
119. 2020-08-03 14:14 21.2 21.2 14.2 85 ~ ~ 887 0.00 2 2 2 0 144 0 ~ ~ ~ ~
120. 2020-08-03 15:14 21.7 21.7 14.2 83 ~ ~ 887 0.00 2 2 2 0 144 0 ~ ~ ~ ~
121. 2020-08-03 16:14 21.8 21.8 14.2 82 ~ ~ 887 0.00 1 2 2 0 144 0 ~ ~ ~ ~
122. 2020-08-03 17:14 21.6 21.8 14.2 85 ~ ~ 887 0.00 1 2 2 0 144 0 ~ ~ ~ ~
123. 2020-08-03 18:14 19.2 21.8 14.2 89 ~ ~ 887 0.25 1 2 2 0 173 5 ~ ~ ~ ~
124. 2020-08-03 19:14 19.2 21.8 14.2 91 ~ ~ 887 0.00 1 2 2 0 173 0 ~ ~ ~ ~
125. 2020-08-03 20:14 18.3 21.8 14.2 91 ~ ~ 887 0.00 1 2 2 0 173 0 ~ ~ ~ ~
126. 2020-08-03 21:14 17.4 21.8 14.2 90 ~ ~ 887 0.00 1 2 2 0 173 0 ~ ~ ~ ~
127. 2020-08-03 22:14 16.3 21.8 14.2 92 ~ ~ 887 0.00 0 2 2 0 173 0 ~ ~ ~ ~
128. 2020-08-03 23:14 15.1 21.8 14.2 92 ~ ~ 887 0.00 0 2 2 0 173 0 ~ ~ ~ ~
129. 2020-08-04 00:14 14.3 21.8 14.2 93 ~ ~ 887 0.00 0 2 2 0 173 0 ~ ~ ~ ~
130. 2020-08-04 01:14 13.7 21.8 13.7 94 ~ ~ 887 0.00 0 2 2 0 173 0 ~ ~ ~ ~
131. 2020-08-04 02:14 13.6 21.8 13.6 94 ~ ~ 887 0.00 0 2 2 0 173 0 ~ ~ ~ ~
132. 2020-08-04 03:15 13.4 21.8 13.4 95 ~ ~ 887 0.00 0 2 2 0 173 0 ~ ~ ~ ~
133. 2020-08-04 04:14 13.4 21.8 13.4 95 ~ ~ 887 0.00 0 2 2 0 173 0 ~ ~ ~ ~
134. 2020-08-04 05:14 13.4 21.8 13.4 95 ~ ~ 887 0.00 0 2 2 0 173 0 ~ ~ ~ ~
135. 2020-08-04 06:14 12.9 21.8 12.9 94 ~ ~ 887 0.00 0 2 2 0 173 0 ~ ~ ~ ~
136. 2020-08-04 07:14 12.5 21.8 12.5 95 ~ ~ 887 0.00 0 2 2 0 173 0 ~ ~ ~ ~
137. 2020-08-04 08:14 12.3 12.5 12.3 95 ~ ~ 887 0.00 0 2 2 0 173 0 ~ ~ ~ ~
138. 2020-08-04 09:14 15.3 15.3 12.3 97 ~ ~ 887 0.00 0 2 2 0 173 0 ~ ~ ~ ~
139. 2020-08-04 10:14 19.3 19.3 12.3 83 ~ ~ 887 0.00 0 2 2 0 173 2 ~ ~ ~ ~
140. 2020-08-04 11:14 23.3 23.3 12.3 61 ~ ~ 887 0.00 0 2 2 0 323 2 ~ ~ ~ ~
141. 2020-08-04 12:14 26.8 26.8 12.3 50 ~ ~ 887 0.00 0 2 2 0 284 2 ~ ~ ~ ~
142. 2020-08-04 13:14 29.6 29.6 12.3 44 ~ ~ 887 0.00 0 2 2 0 232 3 ~ ~ ~ ~
143. 2020-08-04 14:14 30.9 30.9 12.3 33 ~ ~ 887 0.00 0 2 2 0 153 3 ~ ~ ~ ~
144. 2020-08-04 15:14 32.9 32.9 12.3 34 ~ ~ 887 0.00 0 2 2 0 315 5 ~ ~ ~ ~
145. 2020-08-04 16:14 33.6 33.6 12.3 34 ~ ~ 887 0.00 0 2 2 0 292 5 ~ ~ ~ ~
146. 2020-08-04 17:14 32.3 33.6 12.3 49 ~ ~ 887 0.00 0 2 2 0 282 2 ~ ~ ~ ~
147. 2020-08-04 18:14 25.8 33.6 12.3 58 ~ ~ 887 0.00 0 2 2 0 282 0 ~ ~ ~ ~
148. 2020-08-04 19:14 21.9 33.6 12.3 67 ~ ~ 887 0.00 0 2 2 0 282 0 ~ ~ ~ ~
149. 2020-08-04 20:14 19.6 33.6 12.3 75 ~ ~ 887 0.00 0 2 2 0 282 0 ~ ~ ~ ~
150. 2020-08-04 21:14 18.1 33.6 12.3 80 ~ ~ 887 0.00 0 2 2 0 282 0 ~ ~ ~ ~
151. 2020-08-04 22:14 16.9 33.6 12.3 83 ~ ~ 887 0.00 0 2 2 0 282 0 ~ ~ ~ ~
152. 2020-08-04 23:14 16.0 33.6 12.3 85 ~ ~ 887 0.00 0 2 2 0 282 0 ~ ~ ~ ~
153. 2020-08-05 00:14 15.2 33.6 12.3 86 ~ ~ 887 0.00 0 2 2 0 282 0 ~ ~ ~ ~
154. 2020-08-05 01:14 14.6 33.6 12.3 87 ~ ~ 887 0.00 0 2 2 0 282 0 ~ ~ ~ ~
155. 2020-08-05 02:15 13.9 33.6 12.3 89 ~ ~ 887 0.00 0 2 2 0 282 0 ~ ~ ~ ~
156. 2020-08-05 03:14 13.4 33.6 12.3 90 ~ ~ 887 0.00 0 2 2 0 282 0 ~ ~ ~ ~
157. 2020-08-05 04:14 13.2 33.6 12.3 91 ~ ~ 887 0.00 0 2 2 0 282 0 ~ ~ ~ ~
158. 2020-08-05 05:14 12.6 33.6 12.3 92 ~ ~ 887 0.00 0 2 2 0 282 0 ~ ~ ~ ~
159. 2020-08-05 06:14 12.1 33.6 12.1 92 ~ ~ 887 0.00 0 2 2 0 282 0 ~ ~ ~ ~
160. 2020-08-05 07:14 12.2 33.6 12.1 93 ~ ~ 887 0.00 0 2 2 0 282 0 ~ ~ ~ ~
161. 2020-08-05 08:14 12.6 12.6 12.2 94 ~ ~ 887 0.00 0 2 2 0 282 0 ~ ~ ~ ~
162. 2020-08-05 09:14 15.9 15.9 12.2 93 ~ ~ 887 0.00 0 2 2 0 282 0 ~ ~ ~ ~
163. 2020-08-05 10:14 20.8 20.8 12.2 68 ~ ~ 887 0.00 0 2 2 0 282 3 ~ ~ ~ ~
164. 2020-08-05 11:14 25.1 25.1 12.2 58 ~ ~ 887 0.00 0 2 2 0 291 5 ~ ~ ~ ~
165. 2020-08-05 12:13 28.2 28.2 12.2 45 ~ ~ 887 0.00 0 2 2 0 146 5 ~ ~ ~ ~
166. 2020-08-05 13:14 30.9 30.9 12.2 46 ~ ~ 887 0.00 0 2 2 0 223 3 ~ ~ ~ ~
167. 2020-08-05 14:14 31.6 31.6 12.2 39 ~ ~ 887 0.00 0 2 2 3 290 6 ~ ~ ~ ~
168. 2020-08-05 15:14 33.3 33.3 12.2 35 ~ ~ 887 0.00 0 2 2 2 294 8 ~ ~ ~ ~
169. 2020-08-05 16:14 31.6 33.3 12.2 40 ~ ~ 887 0.00 0 1 2 0 309 5 ~ ~ ~ ~
170. 2020-08-05 17:14 31.1 33.3 12.2 50 ~ ~ 887 0.00 0 1 2 0 22 3 ~ ~ ~ ~
171. 2020-08-05 18:14 27.9 33.3 12.2 59 ~ ~ 887 0.00 0 1 2 0 157 0 ~ ~ ~ ~
172. 2020-08-05 19:14 24.9 33.3 12.2 62 ~ ~ 887 0.00 0 1 2 0 77 0 ~ ~ ~ ~
173. 2020-08-05 20:14 22.3 33.3 12.2 68 ~ ~ 887 0.00 0 1 2 0 121 0 ~ ~ ~ ~
174. 2020-08-05 21:14 20.3 33.3 12.2 76 ~ ~ 887 0.00 0 1 2 0 121 0 ~ ~ ~ ~
175. 2020-08-05 22:14 19.0 33.3 12.2 78 ~ ~ 887 0.00 0 0 2 0 121 0 ~ ~ ~ ~
176. 2020-08-05 23:14 18.4 33.3 12.2 80 ~ ~ 887 0.00 0 0 2 0 121 0 ~ ~ ~ ~
177. 2020-08-06 00:14 17.4 33.3 12.2 82 ~ ~ 887 0.00 0 0 2 0 121 0 ~ ~ ~ ~
178. 2020-08-06 01:15 16.7 33.3 12.2 83 ~ ~ 887 0.00 0 0 2 0 121 0 ~ ~ ~ ~
179. 2020-08-06 02:14 16.3 33.3 12.2 83 ~ ~ 887 0.00 0 0 2 0 121 0 ~ ~ ~ ~
180. 2020-08-06 03:14 16.2 33.3 12.2 86 ~ ~ 887 0.00 0 0 2 0 146 6 ~ ~ ~ ~
181. 2020-08-06 04:14 16.4 33.3 12.2 92 ~ ~ 887 0.25 0 1 2 0 160 6 ~ ~ ~ ~
182. 2020-08-06 05:14 15.8 33.3 12.2 93 ~ ~ 890 2.54 3 3 5 0 190 0 ~ ~ ~ ~
183. 2020-08-06 06:14 15.3 33.3 12.2 94 ~ ~ 891 0.76 4 4 6 0 154 0 ~ ~ ~ ~
184. 2020-08-06 07:14 15.4 33.3 12.2 96 ~ ~ 891 0.00 4 4 6 0 154 0 ~ ~ ~ ~
185. 2020-08-06 08:14 15.3 15.4 15.3 95 ~ ~ 891 0.00 4 4 6 0 154 0 ~ ~ ~ ~
186. 2020-08-06 09:14 15.3 15.4 15.3 95 ~ ~ 891 0.00 4 4 6 2 155 6 ~ ~ ~ ~
187. 2020-08-06 10:14 15.7 15.7 15.3 93 ~ ~ 891 0.00 4 4 6 0 217 2 ~ ~ ~ ~
188. 2020-08-06 11:14 18.4 18.4 15.3 83 ~ ~ 891 0.00 4 4 6 0 217 5 ~ ~ ~ ~
189. 2020-08-06 12:14 20.4 20.4 15.3 81 ~ ~ 891 0.00 4 4 6 0 167 5 ~ ~ ~ ~
190. 2020-08-06 13:14 18.8 20.4 15.3 84 ~ ~ 891 0.51 4 4 6 0 147 5 ~ ~ ~ ~
191. 2020-08-06 14:14 18.8 20.4 15.3 87 ~ ~ 891 0.00 4 4 6 0 148 0 ~ ~ ~ ~
192. 2020-08-06 15:14 20.2 20.4 15.3 84 ~ ~ 891 0.00 4 4 6 0 288 5 ~ ~ ~ ~
193. 2020-08-06 16:14 22.8 22.8 15.3 51 ~ ~ 891 0.00 4 4 6 6 239 19 ~ ~ ~ ~
194. 2020-08-06 17:14 21.4 22.8 15.3 71 ~ ~ 891 0.00 4 4 6 0 286 2 ~ ~ ~ ~
195. 2020-08-06 18:14 19.3 22.8 15.3 64 ~ ~ 891 0.00 4 4 6 0 155 13 ~ ~ ~ ~
196. 2020-08-06 19:14 19.7 22.8 15.3 59 ~ ~ 891 0.00 4 4 6 0 190 14 ~ ~ ~ ~
197. 2020-08-06 20:15 17.4 22.8 15.3 81 ~ ~ 891 0.00 4 4 6 0 140 6 ~ ~ ~ ~
198. 2020-08-06 21:14 15.8 22.8 15.3 86 ~ ~ 891 0.00 4 4 6 0 146 0 ~ ~ ~ ~
199. 2020-08-06 22:14 14.9 22.8 14.9 90 ~ ~ 891 0.00 4 4 6 0 146 0 ~ ~ ~ ~
200. 2020-08-06 23:14 14.3 22.8 14.3 91 ~ ~ 891 0.00 4 4 6 0 146 0 ~ ~ ~ ~
201. 2020-08-07 00:14 13.8 22.8 13.8 92 ~ ~ 891 0.00 4 4 6 0 146 0 ~ ~ ~ ~
202. 2020-08-07 01:14 13.3 22.8 13.3 94 ~ ~ 891 0.00 4 4 6 0 146 2 ~ ~ ~ ~
203. 2020-08-07 02:14 13.1 22.8 13.1 94 ~ ~ 891 0.00 4 4 6 0 146 0 ~ ~ ~ ~
204. 2020-08-07 03:14 12.7 22.8 12.7 94 ~ ~ 891 0.00 4 4 6 0 146 0 ~ ~ ~ ~
205. 2020-08-07 04:14 12.4 22.8 12.4 94 ~ ~ 891 0.00 4 4 6 0 146 0 ~ ~ ~ ~
206. 2020-08-07 05:14 12.4 22.8 12.4 94 ~ ~ 891 0.00 1 4 6 0 146 0 ~ ~ ~ ~
207. 2020-08-07 06:14 12.3 22.8 12.3 94 ~ ~ 891 0.00 1 4 6 0 146 0 ~ ~ ~ ~
208. 2020-08-07 07:14 12.3 22.8 12.3 95 ~ ~ 891 0.00 1 4 6 0 146 0 ~ ~ ~ ~
209. 2020-08-07 08:14 12.5 12.5 12.3 95 ~ ~ 891 0.00 1 4 6 0 146 0 ~ ~ ~ ~
210. 2020-08-07 09:14 13.3 13.3 12.3 96 ~ ~ 891 0.00 1 4 6 0 146 0 ~ ~ ~ ~
211. 2020-08-07 10:14 15.0 15.0 12.3 96 ~ ~ 891 0.00 1 4 6 0 146 0 ~ ~ ~ ~
212. 2020-08-07 11:14 16.4 16.4 12.3 94 ~ ~ 891 0.00 1 4 6 0 146 0 ~ ~ ~ ~
213. 2020-08-07 12:14 17.4 17.4 12.3 85 ~ ~ 891 0.00 1 4 6 0 146 0 ~ ~ ~ ~
214. 2020-08-07 13:14 18.3 18.3 12.3 87 ~ ~ 891 0.00 0 4 6 0 146 0 ~ ~ ~ ~
215. 2020-08-07 14:14 18.1 18.3 12.3 82 ~ ~ 891 0.00 0 4 6 0 283 2 ~ ~ ~ ~
216. 2020-08-07 15:14 17.4 18.3 12.3 83 ~ ~ 891 0.00 0 4 6 0 283 2 ~ ~ ~ ~
217. 2020-08-07 16:14 16.5 18.3 12.3 89 ~ ~ 892 0.51 1 5 7 0 148 0 ~ ~ ~ ~
218. 2020-08-07 17:14 16.0 18.3 12.3 92 ~ ~ 892 0.00 1 5 7 0 148 0 ~ ~ ~ ~
219. 2020-08-07 18:14 15.6 18.3 12.3 93 ~ ~ 892 0.25 1 5 7 0 148 0 ~ ~ ~ ~
220. 2020-08-07 19:14 15.3 18.3 12.3 93 ~ ~ 892 0.25 1 5 7 0 148 0 ~ ~ ~ ~
221. 2020-08-07 20:14 14.9 18.3 12.3 94 ~ ~ 892 0.00 1 5 7 0 148 0 ~ ~ ~ ~
222. 2020-08-07 21:14 14.2 18.3 12.3 93 ~ ~ 892 0.00 1 5 7 0 148 0 ~ ~ ~ ~
223. 2020-08-07 22:14 13.8 18.3 12.3 95 ~ ~ 893 0.25 1 5 7 0 148 0 ~ ~ ~ ~
224. 2020-08-07 23:14 13.5 18.3 12.3 95 ~ ~ 893 0.25 2 6 8 0 148 0 ~ ~ ~ ~
225. 2020-08-08 00:14 13.6 18.3 12.3 96 ~ ~ 893 0.51 2 6 8 0 148 3 ~ ~ ~ ~
226. 2020-08-08 01:14 13.2 18.3 12.3 96 ~ ~ 894 0.51 3 7 9 0 148 0 ~ ~ ~ ~
227. 2020-08-08 02:14 12.9 18.3 12.3 96 ~ ~ 894 0.00 3 7 9 0 148 0 ~ ~ ~ ~
228. 2020-08-08 03:14 12.8 18.3 12.3 96 ~ ~ 894 0.00 3 7 9 0 148 0 ~ ~ ~ ~
229. 2020-08-08 04:14 12.7 18.3 12.3 96 ~ ~ 894 0.00 3 7 9 0 148 0 ~ ~ ~ ~
230. 2020-08-08 05:14 12.6 18.3 12.3 96 ~ ~ 894 0.00 3 7 9 0 148 0 ~ ~ ~ ~
231. 2020-08-08 06:14 12.4 18.3 12.3 96 ~ ~ 894 0.00 3 7 9 0 148 0 ~ ~ ~ ~
232. 2020-08-08 07:14 12.4 18.3 12.3 96 ~ ~ 894 0.00 3 7 9 0 148 0 ~ ~ ~ ~
233. 2020-08-08 08:14 12.9 12.9 12.4 97 ~ ~ 894 0.00 3 7 9 0 148 0 ~ ~ ~ ~
234. 2020-08-08 09:14 14.4 14.4 12.4 97 ~ ~ 894 0.00 3 7 9 0 148 0 ~ ~ ~ ~
235. 2020-08-08 10:14 15.7 15.7 12.4 97 ~ ~ 894 0.00 3 7 9 0 148 0 ~ ~ ~ ~
236. 2020-08-08 11:14 18.5 18.5 12.4 81 ~ ~ 894 0.00 3 7 9 0 262 2 ~ ~ ~ ~
237. 2020-08-08 12:15 20.4 20.4 12.4 73 ~ ~ 894 0.00 3 7 9 0 318 2 ~ ~ ~ ~
238. 2020-08-08 13:14 22.8 22.8 12.4 68 ~ ~ 894 0.00 3 7 9 0 315 2 ~ ~ ~ ~
239. 2020-08-08 14:14 25.2 25.2 12.4 56 ~ ~ 894 0.00 3 7 9 0 145 5 ~ ~ ~ ~
240. 2020-08-08 15:14 25.3 25.3 12.4 61 ~ ~ 894 0.00 3 7 9 0 329 2 ~ ~ ~ ~
241. 2020-08-08 16:14 23.2 25.3 12.4 70 ~ ~ 894 0.00 2 7 9 0 19 0 ~ ~ ~ ~
242. 2020-08-08 17:14 21.0 25.3 12.4 78 ~ ~ 894 0.00 2 7 9 0 19 0 ~ ~ ~ ~
243. 2020-08-08 18:14 19.7 25.3 12.4 80 ~ ~ 894 0.00 2 7 9 0 19 0 ~ ~ ~ ~
244. 2020-08-08 19:14 18.1 25.3 12.4 83 ~ ~ 894 0.00 2 7 9 0 155 0 ~ ~ ~ ~
245. 2020-08-08 20:14 16.4 25.3 12.4 85 ~ ~ 894 0.00 2 7 9 0 155 0 ~ ~ ~ ~
246. 2020-08-08 21:14 14.7 25.3 12.4 88 ~ ~ 894 0.00 2 7 9 0 155 2 ~ ~ ~ ~
247. 2020-08-08 22:14 13.6 25.3 12.4 91 ~ ~ 894 0.00 1 7 9 0 155 0 ~ ~ ~ ~
248. 2020-08-08 23:14 13.1 25.3 12.4 91 ~ ~ 894 0.00 1 7 9 0 155 0 ~ ~ ~ ~
249. 2020-08-09 00:14 12.4 25.3 12.4 91 ~ ~ 894 0.00 1 7 9 0 155 0 ~ ~ ~ ~
250. 2020-08-09 01:14 11.8 25.3 11.8 93 ~ ~ 894 0.00 0 7 9 0 155 0 ~ ~ ~ ~
251. 2020-08-09 02:14 11.1 25.3 11.1 93 ~ ~ 894 0.00 0 7 9 0 155 0 ~ ~ ~ ~
252. 2020-08-09 03:14 10.7 25.3 10.7 94 ~ ~ 894 0.00 0 7 9 0 155 0 ~ ~ ~ ~
253. 2020-08-09 04:14 10.3 25.3 10.3 94 ~ ~ 894 0.00 0 6 9 0 155 0 ~ ~ ~ ~
254. 2020-08-09 05:14 9.8 25.3 9.8 94 ~ ~ 894 0.00 0 4 9 0 155 0 ~ ~ ~ ~
255. 2020-08-09 06:14 9.4 25.3 9.4 95 ~ ~ 894 0.00 0 3 9 0 155 0 ~ ~ ~ ~
256. 2020-08-09 07:14 9.2 25.3 9.2 95 ~ ~ 894 0.00 0 3 9 0 155 0 ~ ~ ~ ~
257. 2020-08-09 08:14 9.3 9.3 9.2 96 ~ ~ 894 0.00 0 3 9 0 155 0 ~ ~ ~ ~
258. 2020-08-09 09:15 12.2 12.2 9.2 97 ~ ~ 894 0.00 0 3 9 0 155 2 ~ ~ ~ ~
259. 2020-08-09 10:14 16.6 16.6 9.2 78 ~ ~ 894 0.00 0 3 9 0 279 3 ~ ~ ~ ~
260. 2020-08-09 11:14 19.9 19.9 9.2 64 ~ ~ 894 0.00 0 3 9 0 279 5 ~ ~ ~ ~
261. 2020-08-09 12:14 23.6 23.6 9.2 55 ~ ~ 894 0.00 0 3 9 2 327 3 ~ ~ ~ ~
262. 2020-08-09 13:14 26.1 26.1 9.2 46 ~ ~ 894 0.00 0 3 9 5 24 5 ~ ~ ~ ~
263. 2020-08-09 14:14 27.6 27.6 9.2 39 ~ ~ 894 0.00 0 3 9 0 192 5 ~ ~ ~ ~
264. 2020-08-09 15:14 28.9 28.9 9.2 38 ~ ~ 894 0.00 0 3 9 0 179 5 ~ ~ ~ ~
265. 2020-08-09 16:14 28.6 28.9 9.2 41 ~ ~ 894 0.00 0 3 9 0 165 2 ~ ~ ~ ~
266. 2020-08-09 17:14 25.9 28.9 9.2 58 ~ ~ 894 0.00 0 3 9 0 256 2 ~ ~ ~ ~
267. 2020-08-09 18:14 23.2 28.9 9.2 70 ~ ~ 894 0.00 0 3 9 0 256 0 ~ ~ ~ ~
268. 2020-08-09 19:14 21.2 28.9 9.2 77 ~ ~ 894 0.00 0 3 9 0 256 0 ~ ~ ~ ~
269. 2020-08-09 20:14 19.7 28.9 9.2 81 ~ ~ 894 0.00 0 3 9 0 256 0 ~ ~ ~ ~
270. 2020-08-09 21:14 18.4 28.9 9.2 82 ~ ~ 894 0.00 0 3 9 0 256 0 ~ ~ ~ ~
271. 2020-08-09 22:14 17.4 28.9 9.2 84 ~ ~ 894 0.00 0 3 9 0 256 0 ~ ~ ~ ~
272. 2020-08-09 23:14 16.8 28.9 9.2 84 ~ ~ 894 0.00 0 3 9 0 256 0 ~ ~ ~ ~
273. 2020-08-10 00:14 16.2 28.9 9.2 87 ~ ~ 894 0.00 0 3 9 0 256 0 ~ ~ ~ ~
274. 2020-08-10 01:14 15.9 28.9 9.2 89 ~ ~ 894 0.00 0 3 9 0 256 0 ~ ~ ~ ~
275. 2020-08-10 02:14 15.6 28.9 9.2 89 ~ ~ 894 0.00 0 3 9 0 256 0 ~ ~ ~ ~
276. 2020-08-10 03:14 15.2 28.9 9.2 89 ~ ~ 894 0.00 0 3 9 0 256 0 ~ ~ ~ ~
277. 2020-08-10 04:14 15.0 28.9 9.2 90 ~ ~ 894 0.00 0 3 9 0 256 0 ~ ~ ~ ~
278. 2020-08-10 05:14 14.8 28.9 9.2 90 ~ ~ 894 0.00 0 3 9 0 256 0 ~ ~ ~ ~
279. 2020-08-10 06:14 14.3 28.9 9.2 90 ~ ~ 894 0.00 0 3 9 0 256 0 ~ ~ ~ ~
280. 2020-08-10 07:14 14.2 28.9 9.2 91 ~ ~ 894 0.00 0 3 9 0 256 0 ~ ~ ~ ~
281. 2020-08-10 08:14 14.8 14.8 14.2 92 ~ ~ 894 0.00 0 3 9 0 256 0 ~ ~ ~ ~
282. 2020-08-10 09:14 17.4 17.4 14.2 88 ~ ~ 894 0.00 0 3 9 0 256 0 ~ ~ ~ ~
283. 2020-08-10 10:14 20.1 20.1 14.2 75 ~ ~ 894 0.00 0 3 9 0 138 5 ~ ~ ~ ~
284. 2020-08-10 11:14 23.4 23.4 14.2 64 ~ ~ 894 0.00 0 3 9 0 291 2 ~ ~ ~ ~
285. 2020-08-10 12:14 25.7 25.7 14.2 57 ~ ~ 894 0.00 0 3 9 2 161 5 ~ ~ ~ ~
286. 2020-08-10 13:15 28.0 28.0 14.2 49 ~ ~ 894 0.00 0 3 9 2 221 8 ~ ~ ~ ~
287. 2020-08-10 14:14 29.6 29.6 14.2 43 ~ ~ 894 0.00 0 3 9 0 233 6 ~ ~ ~ ~
288. 2020-08-10 15:14 29.7 29.7 14.2 39 ~ ~ 894 0.00 0 3 9 0 217 8 ~ ~ ~ ~
289. 2020-08-10 16:14 30.1 30.1 14.2 38 ~ ~ 894 0.00 0 2 9 11 163 11 ~ ~ ~ ~
290. 2020-08-10 17:14 28.0 30.1 14.2 43 ~ ~ 894 0.00 0 2 9 0 246 5 ~ ~ ~ ~
291. 2020-08-10 18:14 23.6 30.1 14.2 65 ~ ~ 894 0.00 0 2 9 0 277 0 ~ ~ ~ ~
292. 2020-08-10 19:14 20.7 30.1 14.2 72 ~ ~ 894 0.00 0 2 9 0 277 0 ~ ~ ~ ~
293. 2020-08-10 20:14 18.7 30.1 14.2 78 ~ ~ 894 0.00 0 2 9 0 277 0 ~ ~ ~ ~
294. 2020-08-10 21:14 16.8 30.1 14.2 82 ~ ~ 894 0.00 0 2 9 0 277 0 ~ ~ ~ ~
295. 2020-08-10 22:14 15.6 30.1 14.2 85 ~ ~ 894 0.00 0 1 9 0 277 0 ~ ~ ~ ~
296. 2020-08-10 23:14 14.5 30.1 14.2 86 ~ ~ 894 0.00 0 1 9 0 277 0 ~ ~ ~ ~
297. 2020-08-11 00:14 13.7 30.1 13.7 89 ~ ~ 894 0.00 0 1 9 0 277 0 ~ ~ ~ ~
298. 2020-08-11 01:15 13.2 30.1 13.2 89 ~ ~ 894 0.00 0 0 9 0 277 0 ~ ~ ~ ~
299. 2020-08-11 02:14 12.6 30.1 12.6 90 ~ ~ 894 0.00 0 0 9 0 277 0 ~ ~ ~ ~
300. 2020-08-11 03:14 12.0 30.1 12.0 91 ~ ~ 894 0.00 0 0 9 0 277 0 ~ ~ ~ ~
301. 2020-08-11 04:14 11.4 30.1 11.4 92 ~ ~ 894 0.00 0 0 9 0 277 0 ~ ~ ~ ~
302. 2020-08-11 05:14 10.9 30.1 10.9 92 ~ ~ 894 0.00 0 0 9 0 277 0 ~ ~ ~ ~
303. 2020-08-11 06:14 10.6 30.1 10.6 93 ~ ~ 894 0.00 0 0 9 0 277 0 ~ ~ ~ ~
304. 2020-08-11 07:14 11.1 30.1 10.6 95 ~ ~ 894 0.00 0 0 9 0 277 0 ~ ~ ~ ~
305. 2020-08-11 08:14 12.1 12.1 11.1 95 ~ ~ 894 0.00 0 0 9 0 277 0 ~ ~ ~ ~
306. 2020-08-11 09:14 13.7 13.7 11.1 95 ~ ~ 894 0.00 0 0 9 0 277 0 ~ ~ ~ ~
307. 2020-08-11 10:14 15.8 15.8 11.1 87 ~ ~ 894 0.00 0 0 9 0 277 2 ~ ~ ~ ~
308. 2020-08-11 11:14 19.5 19.5 11.1 76 ~ ~ 894 0.00 0 0 9 0 225 5 ~ ~ ~ ~
309. 2020-08-11 12:14 22.4 22.4 11.1 64 ~ ~ 894 0.00 0 0 9 0 255 5 ~ ~ ~ ~
310. 2020-08-11 13:14 23.4 23.4 11.1 60 ~ ~ 894 0.00 0 0 9 0 268 8 ~ ~ ~ ~
311. 2020-08-11 14:14 22.8 23.4 11.1 54 ~ ~ 894 0.00 0 0 9 3 160 8 ~ ~ ~ ~
312. 2020-08-11 15:14 25.3 25.3 11.1 41 ~ ~ 894 0.00 0 0 9 0 332 11 ~ ~ ~ ~
313. 2020-08-11 16:14 24.9 25.3 11.1 26 ~ ~ 894 0.00 0 0 9 10 163 23 ~ ~ ~ ~
314. 2020-08-11 17:14 24.8 25.3 11.1 25 ~ ~ 894 0.00 0 0 9 2 175 13 ~ ~ ~ ~
315. 2020-08-11 18:14 22.1 25.3 11.1 31 ~ ~ 894 0.00 0 0 9 0 140 8 ~ ~ ~ ~
316. 2020-08-11 19:14 17.7 25.3 11.1 64 ~ ~ 894 0.00 0 0 9 0 140 3 ~ ~ ~ ~
317. 2020-08-11 20:14 15.4 25.3 11.1 68 ~ ~ 894 0.00 0 0 9 0 141 6 ~ ~ ~ ~
318. 2020-08-11 21:14 14.1 25.3 11.1 74 ~ ~ 894 0.00 0 0 9 0 141 0 ~ ~ ~ ~
319. 2020-08-11 22:14 12.7 25.3 11.1 79 ~ ~ 894 0.00 0 0 9 0 141 0 ~ ~ ~ ~
320. 2020-08-11 23:14 11.7 25.3 11.1 83 ~ ~ 894 0.00 0 0 9 0 141 0 ~ ~ ~ ~
321. 2020-08-12 00:14 11.1 25.3 11.1 85 ~ ~ 894 0.00 0 0 9 0 141 0 ~ ~ ~ ~
322. 2020-08-12 01:14 10.4 25.3 10.4 87 ~ ~ 894 0.00 0 0 9 0 141 0 ~ ~ ~ ~
323. 2020-08-12 02:14 9.9 25.3 9.9 88 ~ ~ 894 0.00 0 0 9 0 141 0 ~ ~ ~ ~
324. 2020-08-12 03:14 9.4 25.3 9.4 89 ~ ~ 894 0.00 0 0 9 0 141 0 ~ ~ ~ ~
325. 2020-08-12 04:14 8.9 25.3 8.9 90 ~ ~ 894 0.00 0 0 9 0 141 0 ~ ~ ~ ~
326. 2020-08-12 05:15 8.6 25.3 8.6 91 ~ ~ 894 0.00 0 0 9 0 141 0 ~ ~ ~ ~
327. 2020-08-12 06:14 8.2 25.3 8.2 92 ~ ~ 894 0.00 0 0 9 0 141 0 ~ ~ ~ ~
328. 2020-08-12 07:14 8.2 25.3 8.2 93 ~ ~ 894 0.00 0 0 9 0 141 0 ~ ~ ~ ~
329. 2020-08-12 08:14 8.3 8.3 8.2 94 ~ ~ 894 0.00 0 0 9 0 141 0 ~ ~ ~ ~
330. 2020-08-12 09:14 10.6 10.6 8.2 90 ~ ~ 894 0.00 0 0 9 0 141 2 ~ ~ ~ ~
331. 2020-08-12 10:14 15.2 15.2 8.2 69 ~ ~ 894 0.00 0 0 9 0 211 3 ~ ~ ~ ~
332. 2020-08-12 11:14 18.7 18.7 8.2 59 ~ ~ 894 0.00 0 0 9 3 302 5 ~ ~ ~ ~
333. 2020-08-12 12:14 21.1 21.1 8.2 54 ~ ~ 894 0.00 0 0 9 0 306 3 ~ ~ ~ ~
334. 2020-08-12 13:14 21.9 21.9 8.2 49 ~ ~ 894 0.00 0 0 9 0 182 2 ~ ~ ~ ~
335. 2020-08-12 14:14 22.0 22.0 8.2 44 ~ ~ 894 0.00 0 0 9 0 295 10 ~ ~ ~ ~
336. 2020-08-12 15:14 22.7 22.7 8.2 40 ~ ~ 894 0.00 0 0 9 5 148 10 ~ ~ ~ ~
337. 2020-08-12 16:14 22.2 22.7 8.2 39 ~ ~ 894 0.00 0 0 9 0 162 13 ~ ~ ~ ~
338. 2020-08-12 17:14 22.3 22.7 8.2 39 ~ ~ 894 0.00 0 0 9 6 187 8 ~ ~ ~ ~
339. 2020-08-12 18:14 21.5 22.7 8.2 39 ~ ~ 894 0.00 0 0 9 0 196 11 ~ ~ ~ ~
340. 2020-08-12 19:14 19.6 22.7 8.2 53 ~ ~ 894 0.00 0 0 9 0 301 11 ~ ~ ~ ~
341. 2020-08-12 20:14 18.6 22.7 8.2 59 ~ ~ 894 0.00 0 0 9 0 155 5 ~ ~ ~ ~
342. 2020-08-12 21:14 15.9 22.7 8.2 71 ~ ~ 894 0.00 0 0 9 0 325 5 ~ ~ ~ ~
343. 2020-08-12 22:14 14.7 22.7 8.2 76 ~ ~ 894 0.00 0 0 9 0 325 0 ~ ~ ~ ~
344. 2020-08-12 23:14 13.7 22.7 8.2 79 ~ ~ 894 0.00 0 0 9 0 325 0 ~ ~ ~ ~
345. 2020-08-13 00:14 12.9 22.7 8.2 81 ~ ~ 894 0.00 0 0 9 0 325 0 ~ ~ ~ ~
346. 2020-08-13 01:14 12.1 22.7 8.2 83 ~ ~ 894 0.00 0 0 9 0 325 0 ~ ~ ~ ~
347. 2020-08-13 02:14 11.2 22.7 8.2 86 ~ ~ 894 0.00 0 0 9 0 325 0 ~ ~ ~ ~
348. 2020-08-13 03:14 10.6 22.7 8.2 87 ~ ~ 894 0.00 0 0 9 0 325 0 ~ ~ ~ ~
349. 2020-08-13 04:14 10.3 22.7 8.2 89 ~ ~ 894 0.00 0 0 9 0 325 0 ~ ~ ~ ~
350. 2020-08-13 05:14 10.3 22.7 8.2 89 ~ ~ 894 0.00 0 0 9 0 325 0 ~ ~ ~ ~
351. 2020-08-13 06:14 10.2 22.7 8.2 89 ~ ~ 894 0.00 0 0 9 0 325 0 ~ ~ ~ ~
352. 2020-08-13 07:15 10.2 22.7 8.2 91 ~ ~ 894 0.00 0 0 9 0 325 0 ~ ~ ~ ~
353. 2020-08-13 08:14 11.3 11.3 10.2 92 ~ ~ 894 0.00 0 0 9 0 325 0 ~ ~ ~ ~
354. 2020-08-13 09:14 13.6 13.6 10.2 86 ~ ~ 894 0.00 0 0 9 0 325 0 ~ ~ ~ ~
355. 2020-08-13 10:14 16.6 16.6 10.2 69 ~ ~ 894 0.00 0 0 9 0 325 2 ~ ~ ~ ~
356. 2020-08-13 11:14 18.6 18.6 10.2 59 ~ ~ 894 0.00 0 0 9 0 325 2 ~ ~ ~ ~
357. 2020-08-13 12:15 21.7 21.7 10.2 49 ~ ~ 894 0.00 0 0 9 0 155 5 ~ ~ ~ ~
358. 2020-08-13 13:14 25.6 25.6 10.2 44 ~ ~ 894 0.00 0 0 9 0 319 2 ~ ~ ~ ~
359. 2020-08-13 14:14 25.7 25.7 10.2 40 ~ ~ 894 0.00 0 0 9 0 157 2 ~ ~ ~ ~
360. 2020-08-13 15:14 25.9 25.9 10.2 38 ~ ~ 894 0.00 0 0 9 0 219 5 ~ ~ ~ ~
361. 2020-08-13 16:14 24.6 25.9 10.2 36 ~ ~ 894 0.00 0 0 9 0 142 6 ~ ~ ~ ~
362. 2020-08-13 17:14 26.4 26.4 10.2 33 ~ ~ 894 0.00 0 0 9 2 182 5 ~ ~ ~ ~
363. 2020-08-13 18:14 23.7 26.4 10.2 56 ~ ~ 894 0.00 0 0 9 0 163 0 ~ ~ ~ ~
364. 2020-08-13 19:14 20.7 26.4 10.2 67 ~ ~ 894 0.00 0 0 9 0 154 0 ~ ~ ~ ~
365. 2020-08-13 20:14 18.9 26.4 10.2 72 ~ ~ 894 0.00 0 0 9 0 153 0 ~ ~ ~ ~
366. 2020-08-13 21:14 17.3 26.4 10.2 78 ~ ~ 894 0.00 0 0 9 0 66 0 ~ ~ ~ ~
367. 2020-08-13 22:14 16.1 26.4 10.2 79 ~ ~ 894 0.00 0 0 9 0 66 0 ~ ~ ~ ~
368. 2020-08-13 23:14 15.4 26.4 10.2 80 ~ ~ 894 0.00 0 0 9 0 66 0 ~ ~ ~ ~
369. 2020-08-14 00:15 15.1 26.4 10.2 81 ~ ~ 894 0.00 0 0 9 0 66 0 ~ ~ ~ ~
370. 2020-08-14 01:14 14.9 26.4 10.2 82 ~ ~ 894 0.00 0 0 9 0 66 0 ~ ~ ~ ~
371. 2020-08-14 02:14 14.6 26.4 10.2 83 ~ ~ 894 0.00 0 0 9 0 66 0 ~ ~ ~ ~
372. 2020-08-14 03:14 14.3 26.4 10.2 84 ~ ~ 894 0.00 0 0 9 0 66 0 ~ ~ ~ ~
373. 2020-08-14 04:14 13.8 26.4 10.2 84 ~ ~ 894 0.00 0 0 9 0 65 2 ~ ~ ~ ~
374. 2020-08-14 05:14 13.4 26.4 10.2 87 ~ ~ 894 0.00 0 0 9 0 66 0 ~ ~ ~ ~
375. 2020-08-14 06:14 13.1 26.4 10.2 88 ~ ~ 894 0.00 0 0 9 0 65 0 ~ ~ ~ ~
376. 2020-08-14 07:14 12.8 26.4 10.2 89 ~ ~ 894 0.00 0 0 9 0 66 0 ~ ~ ~ ~
377. 2020-08-14 08:14 13.3 13.3 12.8 89 ~ ~ 894 0.00 0 0 9 0 66 0 ~ ~ ~ ~
378. 2020-08-14 09:14 14.5 14.5 12.8 89 ~ ~ 894 0.00 0 0 9 0 65 0 ~ ~ ~ ~
379. 2020-08-14 10:15 16.4 16.4 12.8 85 ~ ~ 894 0.00 0 0 9 0 65 0 ~ ~ ~ ~
380. 2020-08-14 11:14 17.8 17.8 12.8 82 ~ ~ 894 0.00 0 0 9 0 65 0 ~ ~ ~ ~
381. 2020-08-14 12:14 21.6 21.6 12.8 59 ~ ~ 894 0.00 0 0 9 0 51 2 ~ ~ ~ ~
382. 2020-08-14 13:14 23.0 23.0 12.8 60 ~ ~ 894 0.00 0 0 9 0 305 2 ~ ~ ~ ~
383. 2020-08-14 14:14 23.4 23.4 12.8 53 ~ ~ 894 0.00 0 0 9 0 305 0 ~ ~ ~ ~
384. 2020-08-14 15:14 23.7 23.7 12.8 56 ~ ~ 894 0.00 0 0 9 0 305 2 ~ ~ ~ ~
385. 2020-08-14 16:14 24.7 24.7 12.8 51 ~ ~ 894 0.00 0 0 9 0 305 0 ~ ~ ~ ~
386. 2020-08-14 17:14 24.4 24.7 12.8 62 ~ ~ 894 0.00 0 0 9 0 305 0 ~ ~ ~ ~
387. 2020-08-14 18:15 23.2 24.7 12.8 67 ~ ~ 894 0.00 0 0 9 0 305 0 ~ ~ ~ ~
388. 2020-08-14 19:14 21.8 24.7 12.8 64 ~ ~ 894 0.00 0 0 9 0 305 2 ~ ~ ~ ~
389. 2020-08-14 20:14 20.4 24.7 12.8 75 ~ ~ 894 0.00 0 0 9 0 305 0 ~ ~ ~ ~
390. 2020-08-14 21:14 18.7 24.7 12.8 79 ~ ~ 894 0.00 0 0 9 0 305 0 ~ ~ ~ ~
391. 2020-08-14 22:14 17.6 24.7 12.8 81 ~ ~ 894 0.00 0 0 9 0 305 0 ~ ~ ~ ~
392. 2020-08-14 23:14 16.4 24.7 12.8 83 ~ ~ 894 0.00 0 0 9 0 305 0 ~ ~ ~ ~
393. 2020-08-15 00:14 15.7 24.7 12.8 86 ~ ~ 894 0.00 0 0 9 0 305 0 ~ ~ ~ ~
394. 2020-08-15 01:14 15.1 24.7 12.8 87 ~ ~ 894 0.00 0 0 9 0 305 0 ~ ~ ~ ~
395. 2020-08-15 02:14 14.8 24.7 12.8 88 ~ ~ 894 0.00 0 0 9 0 305 0 ~ ~ ~ ~
396. 2020-08-15 03:15 14.1 24.7 12.8 89 ~ ~ 894 0.00 0 0 9 0 305 0 ~ ~ ~ ~
397. 2020-08-15 04:14 13.2 24.7 12.8 90 ~ ~ 894 0.00 0 0 9 0 305 0 ~ ~ ~ ~
398. 2020-08-15 05:14 12.7 24.7 12.7 93 ~ ~ 894 0.00 0 0 9 0 305 0 ~ ~ ~ ~
399. 2020-08-15 06:14 12.4 24.7 12.4 93 ~ ~ 894 0.00 0 0 9 0 305 0 ~ ~ ~ ~
400. 2020-08-15 07:14 12.2 24.7 12.2 93 ~ ~ 894 0.00 0 0 9 0 305 0 ~ ~ ~ ~
401. 2020-08-15 08:14 11.9 12.2 11.9 93 ~ ~ 894 0.00 0 0 9 0 305 0 ~ ~ ~ ~
402. 2020-08-15 09:14 14.4 14.4 11.9 94 ~ ~ 894 0.00 0 0 9 0 305 0 ~ ~ ~ ~
403. 2020-08-15 10:14 18.8 18.8 11.9 76 ~ ~ 894 0.00 0 0 9 0 305 0 ~ ~ ~ ~
404. 2020-08-15 11:14 23.4 23.4 11.9 61 ~ ~ 894 0.00 0 0 9 0 305 0 ~ ~ ~ ~
405. 2020-08-15 12:14 27.7 27.7 11.9 47 ~ ~ 894 0.00 0 0 9 0 302 3 ~ ~ ~ ~
406. 2020-08-15 13:14 30.3 30.3 11.9 38 ~ ~ 894 0.00 0 0 9 0 223 2 ~ ~ ~ ~
407. 2020-08-15 14:14 33.1 33.1 11.9 35 ~ ~ 894 0.00 0 0 9 0 269 5 ~ ~ ~ ~
408. 2020-08-15 15:14 34.6 34.6 11.9 30 ~ ~ 894 0.00 0 0 9 0 284 5 ~ ~ ~ ~
409. 2020-08-15 16:14 35.4 35.4 11.9 34 ~ ~ 894 0.00 0 0 9 0 277 2 ~ ~ ~ ~
410. 2020-08-15 17:14 31.5 35.4 11.9 45 ~ ~ 894 0.00 0 0 9 0 51 0 ~ ~ ~ ~
411. 2020-08-15 18:14 25.3 35.4 11.9 58 ~ ~ 894 0.00 0 0 9 0 51 0 ~ ~ ~ ~
412. 2020-08-15 19:14 22.2 35.4 11.9 67 ~ ~ 894 0.00 0 0 9 0 51 0 ~ ~ ~ ~
413. 2020-08-15 20:14 20.2 35.4 11.9 73 ~ ~ 894 0.00 0 0 9 0 51 0 ~ ~ ~ ~
414. 2020-08-15 21:14 18.7 35.4 11.9 77 ~ ~ 894 0.00 0 0 9 0 51 0 ~ ~ ~ ~
415. 2020-08-15 22:14 17.6 35.4 11.9 79 ~ ~ 894 0.00 0 0 9 0 51 0 ~ ~ ~ ~
416. 2020-08-15 23:14 16.7 35.4 11.9 80 ~ ~ 894 0.00 0 0 9 0 51 0 ~ ~ ~ ~
417. 2020-08-16 00:14 15.8 35.4 11.9 82 ~ ~ 894 0.00 0 0 9 0 51 0 ~ ~ ~ ~
418. 2020-08-16 01:14 15.3 35.4 11.9 83 ~ ~ 894 0.00 0 0 9 0 51 0 ~ ~ ~ ~
419. 2020-08-16 02:15 14.8 35.4 11.9 86 ~ ~ 894 0.00 0 0 9 0 51 0 ~ ~ ~ ~
420. 2020-08-16 03:14 14.4 35.4 11.9 85 ~ ~ 894 0.00 0 0 9 0 51 0 ~ ~ ~ ~
421. 2020-08-16 04:14 13.8 35.4 11.9 86 ~ ~ 894 0.00 0 0 9 0 51 0 ~ ~ ~ ~
422. 2020-08-16 05:14 13.6 35.4 11.9 86 ~ ~ 894 0.00 0 0 9 0 51 0 ~ ~ ~ ~
423. 2020-08-16 06:14 13.2 35.4 11.9 86 ~ ~ 894 0.00 0 0 9 0 51 0 ~ ~ ~ ~
424. 2020-08-16 07:14 12.9 35.4 11.9 87 ~ ~ 894 0.00 0 0 9 0 51 0 ~ ~ ~ ~
425. 2020-08-16 08:14 12.9 12.9 12.9 90 ~ ~ 894 0.00 0 0 9 0 51 0 ~ ~ ~ ~
426. 2020-08-16 09:14 15.4 15.4 12.9 85 ~ ~ 894 0.00 0 0 9 0 51 0 ~ ~ ~ ~
427. 2020-08-16 10:14 20.4 20.4 12.9 71 ~ ~ 894 0.00 0 0 9 0 50 2 ~ ~ ~ ~
428. 2020-08-16 11:14 25.4 25.4 12.9 47 ~ ~ 894 0.00 0 0 9 2 50 2 ~ ~ ~ ~
429. 2020-08-16 12:14 27.1 27.1 12.9 55 ~ ~ 894 0.00 0 0 9 0 348 2 ~ ~ ~ ~
430. 2020-08-16 13:14 31.6 31.6 12.9 36 ~ ~ 894 0.00 0 0 9 0 286 2 ~ ~ ~ ~
431. 2020-08-16 14:15 35.4 35.4 12.9 27 ~ ~ 894 0.00 0 0 9 0 288 2 ~ ~ ~ ~
432. 2020-08-16 15:14 38.2 38.2 12.9 28 ~ ~ 894 0.00 0 0 9 2 288 3 ~ ~ ~ ~
433. 2020-08-16 16:14 38.1 38.2 12.9 31 ~ ~ 894 0.00 0 0 9 0 288 0 ~ ~ ~ ~
434. 2020-08-16 17:14 34.3 38.2 12.9 38 ~ ~ 894 0.00 0 0 9 0 288 2 ~ ~ ~ ~
435. 2020-08-16 18:14 27.3 38.2 12.9 50 ~ ~ 894 0.00 0 0 9 0 288 0 ~ ~ ~ ~
436. 2020-08-16 19:14 24.0 38.2 12.9 61 ~ ~ 894 0.00 0 0 9 0 182 0 ~ ~ ~ ~
437. 2020-08-16 20:14 21.8 38.2 12.9 66 ~ ~ 894 0.00 0 0 9 0 153 0 ~ ~ ~ ~
438. 2020-08-16 21:14 19.5 38.2 12.9 73 ~ ~ 894 0.00 0 0 9 0 182 0 ~ ~ ~ ~
439. 2020-08-16 22:14 18.6 38.2 12.9 73 ~ ~ 894 0.00 0 0 9 0 190 2 ~ ~ ~ ~
440. 2020-08-16 23:14 17.9 38.2 12.9 77 ~ ~ 894 0.00 0 0 9 0 190 2 ~ ~ ~ ~
441. 2020-08-17 00:14 17.8 38.2 12.9 78 ~ ~ 894 0.00 0 0 9 0 190 0 ~ ~ ~ ~
442. 2020-08-17 01:14 17.4 38.2 12.9 83 ~ ~ 894 0.00 0 0 9 0 144 10 ~ ~ ~ ~
443. 2020-08-17 02:14 17.3 38.2 12.9 81 ~ ~ 894 0.00 0 0 9 0 146 0 ~ ~ ~ ~
444. 2020-08-17 03:15 17.1 38.2 12.9 83 ~ ~ 894 0.00 0 0 9 0 248 0 ~ ~ ~ ~
445. 2020-08-17 04:14 16.5 38.2 12.9 84 ~ ~ 894 0.00 0 0 9 0 248 0 ~ ~ ~ ~
446. 2020-08-17 05:14 16.1 38.2 12.9 85 ~ ~ 894 0.00 0 0 9 0 146 0 ~ ~ ~ ~
447. 2020-08-17 06:14 15.8 38.2 12.9 86 ~ ~ 894 0.00 0 0 9 0 146 0 ~ ~ ~ ~
448. 2020-08-17 07:14 15.7 38.2 12.9 87 ~ ~ 894 0.00 0 0 9 0 146 0 ~ ~ ~ ~
449. 2020-08-17 08:14 16.3 16.3 15.7 87 ~ ~ 894 0.00 0 0 9 0 146 0 ~ ~ ~ ~
450. 2020-08-17 09:14 17.9 17.9 15.7 86 ~ ~ 894 0.00 0 0 9 0 146 0 ~ ~ ~ ~
451. 2020-08-17 10:14 21.3 21.3 15.7 76 ~ ~ 894 0.00 0 0 9 0 146 2 ~ ~ ~ ~
452. 2020-08-17 11:14 23.4 23.4 15.7 73 ~ ~ 894 0.00 0 0 9 0 146 0 ~ ~ ~ ~
453. 2020-08-17 12:14 28.8 28.8 15.7 51 ~ ~ 894 0.00 0 0 9 0 313 3 ~ ~ ~ ~
454. 2020-08-17 13:14 32.3 32.3 15.7 41 ~ ~ 894 0.00 0 0 9 0 223 3 ~ ~ ~ ~
455. 2020-08-17 14:14 32.7 32.7 15.7 43 ~ ~ 894 0.00 0 0 9 0 290 5 ~ ~ ~ ~
456. 2020-08-17 15:14 35.9 35.9 15.7 28 ~ ~ 894 0.00 0 0 9 2 97 3 ~ ~ ~ ~
457. 2020-08-17 16:14 37.4 37.4 15.7 24 ~ ~ 894 0.00 0 0 9 0 138 5 ~ ~ ~ ~
458. 2020-08-17 17:14 34.1 37.4 15.7 36 ~ ~ 894 0.00 0 0 9 0 261 2 ~ ~ ~ ~
459. 2020-08-17 18:14 26.4 37.4 15.7 55 ~ ~ 894 0.00 0 0 9 0 76 0 ~ ~ ~ ~
460. 2020-08-17 19:14 23.2 37.4 15.7 63 ~ ~ 894 0.00 0 0 9 0 76 0 ~ ~ ~ ~
461. 2020-08-17 20:14 21.3 37.4 15.7 71 ~ ~ 894 0.00 0 0 9 0 76 0 ~ ~ ~ ~
462. 2020-08-17 21:14 19.9 37.4 15.7 72 ~ ~ 894 0.00 0 0 9 0 76 0 ~ ~ ~ ~
463. 2020-08-17 22:14 18.7 37.4 15.7 72 ~ ~ 894 0.00 0 0 9 0 76 0 ~ ~ ~ ~
464. 2020-08-17 23:14 17.7 37.4 15.7 76 ~ ~ 894 0.00 0 0 9 0 76 0 ~ ~ ~ ~
465. 2020-08-18 00:14 17.0 37.4 15.7 78 ~ ~ 894 0.00 0 0 9 0 76 0 ~ ~ ~ ~
466. 2020-08-18 01:14 16.2 37.4 15.7 80 ~ ~ 894 0.00 0 0 9 0 76 0 ~ ~ ~ ~
467. 2020-08-18 02:14 15.7 37.4 15.7 82 ~ ~ 894 0.00 0 0 9 0 76 0 ~ ~ ~ ~
468. 2020-08-18 03:14 15.1 37.4 15.1 83 ~ ~ 894 0.00 0 0 9 0 76 2 ~ ~ ~ ~
469. 2020-08-18 04:14 14.6 37.4 14.6 85 ~ ~ 894 0.00 0 0 9 0 76 0 ~ ~ ~ ~
470. 2020-08-18 05:14 14.1 37.4 14.1 87 ~ ~ 894 0.00 0 0 9 0 76 0 ~ ~ ~ ~
471. 2020-08-18 06:14 14.1 37.4 14.1 86 ~ ~ 894 0.00 0 0 9 0 71 2 ~ ~ ~ ~
472. 2020-08-18 07:14 14.4 37.4 14.1 86 ~ ~ 894 0.00 0 0 9 0 71 0 ~ ~ ~ ~
473. 2020-08-18 08:14 15.3 15.3 14.4 88 ~ ~ 894 0.00 0 0 9 0 71 0 ~ ~ ~ ~
474. 2020-08-18 09:14 16.9 16.9 14.4 85 ~ ~ 894 0.00 0 0 9 0 71 0 ~ ~ ~ ~
475. 2020-08-18 10:14 21.1 21.1 14.4 68 ~ ~ 894 0.00 0 0 9 0 301 3 ~ ~ ~ ~
476. 2020-08-18 11:15 23.9 23.9 14.4 58 ~ ~ 894 0.00 0 0 9 0 308 3 ~ ~ ~ ~
477. 2020-08-18 12:14 25.2 25.2 14.4 60 ~ ~ 894 0.00 0 0 9 0 134 2 ~ ~ ~ ~
478. 2020-08-18 13:14 26.2 26.2 14.4 60 ~ ~ 894 0.00 0 0 9 0 253 2 ~ ~ ~ ~
479. 2020-08-18 14:14 29.4 29.4 14.4 51 ~ ~ 894 0.00 0 0 9 0 277 5 ~ ~ ~ ~
480. 2020-08-18 15:14 29.2 29.4 14.4 48 ~ ~ 894 0.00 0 0 9 0 173 5 ~ ~ ~ ~
481. 2020-08-18 16:14 29.4 29.4 14.4 47 ~ ~ 894 0.00 0 0 9 2 226 5 ~ ~ ~ ~
482. 2020-08-18 17:14 28.8 29.4 14.4 45 ~ ~ 894 0.00 0 0 9 0 151 10 ~ ~ ~ ~
483. 2020-08-18 18:14 26.4 29.4 14.4 60 ~ ~ 894 0.00 0 0 9 0 219 0 ~ ~ ~ ~
484. 2020-08-18 19:14 24.1 29.4 14.4 66 ~ ~ 894 0.00 0 0 9 0 219 2 ~ ~ ~ ~
485. 2020-08-18 20:14 21.9 29.4 14.4 70 ~ ~ 894 0.00 0 0 9 0 157 2 ~ ~ ~ ~
486. 2020-08-18 21:14 19.7 29.4 14.4 76 ~ ~ 894 0.00 0 0 9 0 157 0 ~ ~ ~ ~
487. 2020-08-18 22:14 18.3 29.4 14.4 78 ~ ~ 894 0.00 0 0 9 0 157 0 ~ ~ ~ ~
488. 2020-08-18 23:14 17.6 29.4 14.4 80 ~ ~ 894 0.00 0 0 9 0 156 0 ~ ~ ~ ~
489. 2020-08-19 00:14 17.2 29.4 14.4 81 ~ ~ 894 0.00 0 0 9 0 156 0 ~ ~ ~ ~
490. 2020-08-19 01:14 16.4 29.4 14.4 82 ~ ~ 894 0.00 0 0 9 0 156 0 ~ ~ ~ ~
491. 2020-08-19 02:14 15.7 29.4 14.4 84 ~ ~ 894 0.00 0 0 9 0 156 0 ~ ~ ~ ~
492. 2020-08-19 03:14 15.8 29.4 14.4 86 ~ ~ 894 0.00 0 0 9 0 156 0 ~ ~ ~ ~
493. 2020-08-19 04:14 15.7 29.4 14.4 84 ~ ~ 894 0.00 0 0 9 0 156 0 ~ ~ ~ ~
494. 2020-08-19 05:14 15.3 29.4 14.4 87 ~ ~ 894 0.00 0 0 9 0 156 0 ~ ~ ~ ~
495. 2020-08-19 06:14 15.2 29.4 14.4 86 ~ ~ 894 0.00 0 0 9 0 156 0 ~ ~ ~ ~
496. 2020-08-19 07:14 14.9 29.4 14.4 87 ~ ~ 894 0.00 0 0 9 0 156 0 ~ ~ ~ ~
497. 2020-08-19 08:14 15.4 15.4 14.9 89 ~ ~ 894 0.00 0 0 9 0 156 0 ~ ~ ~ ~
498. 2020-08-19 09:14 16.9 16.9 14.9 87 ~ ~ 894 0.00 0 0 9 0 156 0 ~ ~ ~ ~
499. 2020-08-19 10:15 19.3 19.3 14.9 81 ~ ~ 894 0.00 0 0 9 0 156 0 ~ ~ ~ ~
500. 2020-08-19 11:14 21.0 21.0 14.9 71 ~ ~ 894 0.00 0 0 9 0 157 2 ~ ~ ~ ~
501. 2020-08-19 12:14 23.1 23.1 14.9 66 ~ ~ 894 0.00 0 0 9 0 281 2 ~ ~ ~ ~
502. 2020-08-19 13:14 24.9 24.9 14.9 59 ~ ~ 894 0.00 0 0 9 2 281 2 ~ ~ ~ ~
503. 2020-08-19 14:14 23.7 24.9 14.9 70 ~ ~ 894 0.00 0 0 9 0 157 2 ~ ~ ~ ~
504. 2020-08-19 15:14 22.7 24.9 14.9 77 ~ ~ 894 0.00 0 0 9 3 157 5 ~ ~ ~ ~
505. 2020-08-19 16:14 21.3 24.9 14.9 86 ~ ~ 894 0.00 0 0 9 0 157 0 ~ ~ ~ ~
506. 2020-08-19 17:14 20.3 24.9 14.9 87 ~ ~ 894 0.00 0 0 9 0 157 2 ~ ~ ~ ~
507. 2020-08-19 18:14 19.3 24.9 14.9 91 ~ ~ 894 0.00 0 0 9 0 157 0 ~ ~ ~ ~
508. 2020-08-19 19:15 18.3 24.9 14.9 91 ~ ~ 894 0.00 0 0 9 0 157 0 ~ ~ ~ ~
509. 2020-08-19 20:15 17.2 24.9 14.9 91 ~ ~ 894 0.25 0 0 9 0 157 0 ~ ~ ~ ~
510. 2020-08-19 21:14 16.4 24.9 14.9 92 ~ ~ 894 0.00 0 0 9 0 157 0 ~ ~ ~ ~
511. 2020-08-19 22:14 15.7 24.9 14.9 93 ~ ~ 894 0.25 1 1 9 0 157 0 ~ ~ ~ ~
512. 2020-08-19 23:14 15.2 24.9 14.9 94 ~ ~ 894 0.00 1 1 9 0 157 0 ~ ~ ~ ~
513. 2020-08-20 00:14 15.1 24.9 14.9 95 ~ ~ 895 1.02 2 2 10 0 157 0 ~ ~ ~ ~
514. 2020-08-20 01:14 15.0 24.9 14.9 95 ~ ~ 896 1.02 3 3 11 0 164 2 ~ ~ ~ ~
515. 2020-08-20 02:14 14.8 24.9 14.8 96 ~ ~ 898 1.52 4 4 13 0 164 0 ~ ~ ~ ~
516. 2020-08-20 03:14 14.5 24.9 14.5 96 ~ ~ 899 1.27 5 5 14 0 164 0 ~ ~ ~ ~
517. 2020-08-20 04:14 14.5 24.9 14.5 96 ~ ~ 900 1.02 6 6 15 0 164 0 ~ ~ ~ ~
518. 2020-08-20 05:14 14.4 24.9 14.4 96 ~ ~ 900 0.25 7 7 15 0 164 0 ~ ~ ~ ~
519. 2020-08-20 06:14 14.4 24.9 14.4 96 ~ ~ 900 0.00 7 7 15 0 164 0 ~ ~ ~ ~
520. 2020-08-20 07:14 14.3 24.9 14.3 96 ~ ~ 900 0.00 7 7 15 0 164 3 ~ ~ ~ ~
521. 2020-08-20 08:14 14.2 14.3 14.2 96 ~ ~ 900 0.00 7 7 15 0 164 2 ~ ~ ~ ~
522. 2020-08-20 09:14 15.3 15.3 14.2 97 ~ ~ 900 0.00 7 7 15 0 164 0 ~ ~ ~ ~
523. 2020-08-20 10:14 16.2 16.2 14.2 97 ~ ~ 900 0.00 7 7 15 0 164 0 ~ ~ ~ ~
524. 2020-08-20 11:14 17.8 17.8 14.2 97 ~ ~ 900 0.00 7 7 15 0 164 0 ~ ~ ~ ~
525. 2020-08-20 12:14 18.6 18.6 14.2 93 ~ ~ 900 0.00 7 7 15 0 164 0 ~ ~ ~ ~
526. 2020-08-20 13:14 18.7 18.7 14.2 93 ~ ~ 900 0.00 7 7 15 0 164 0 ~ ~ ~ ~
527. 2020-08-20 14:14 18.8 18.8 14.2 93 ~ ~ 900 0.00 7 7 15 0 164 0 ~ ~ ~ ~
528. 2020-08-20 15:14 18.3 18.8 14.2 94 ~ ~ 901 0.76 7 7 16 0 164 0 ~ ~ ~ ~
529. 2020-08-20 16:14 17.9 18.8 14.2 94 ~ ~ 903 2.29 10 10 18 0 164 0 ~ ~ ~ ~
530. 2020-08-20 17:14 17.4 18.8 14.2 94 ~ ~ 904 1.02 11 11 19 0 164 0 ~ ~ ~ ~
531. 2020-08-20 18:14 16.7 18.8 14.2 94 ~ ~ 906 1.52 12 12 21 0 164 0 ~ ~ ~ ~
532. 2020-08-20 19:14 15.9 18.8 14.2 94 ~ ~ 908 1.52 14 14 22 0 164 0 ~ ~ ~ ~
533. 2020-08-20 20:14 15.3 18.8 14.2 95 ~ ~ 908 0.76 14 14 23 0 164 0 ~ ~ ~ ~
534. 2020-08-20 21:14 14.7 18.8 14.2 95 ~ ~ 908 0.00 14 14 23 0 164 0 ~ ~ ~ ~
535. 2020-08-20 22:15 14.3 18.8 14.2 96 ~ ~ 912 3.56 18 18 27 0 164 0 ~ ~ ~ ~
536. 2020-08-20 23:14 14.0 18.8 14.0 96 ~ ~ 912 0.25 18 18 27 0 164 0 ~ ~ ~ ~
537. 2020-08-21 00:14 13.7 18.8 13.7 96 ~ ~ 912 0.25 17 19 27 0 164 0 ~ ~ ~ ~
538. 2020-08-21 01:14 13.6 18.8 13.6 97 ~ ~ 914 2.03 18 21 29 0 164 3 ~ ~ ~ ~
539. 2020-08-21 02:14 13.6 18.8 13.6 97 ~ ~ 918 3.30 20 24 33 0 164 0 ~ ~ ~ ~
540. 2020-08-21 03:14 13.6 18.8 13.6 97 ~ ~ 919 1.02 20 25 34 0 164 0 ~ ~ ~ ~
541. 2020-08-21 04:14 13.7 18.8 13.6 97 ~ ~ 920 1.52 20 26 35 0 164 0 ~ ~ ~ ~
542. 2020-08-21 05:14 13.3 18.8 13.3 97 ~ ~ 921 0.51 20 27 36 0 164 2 ~ ~ ~ ~
543. 2020-08-21 06:14 13.3 18.8 13.3 97 ~ ~ 921 0.25 21 27 36 0 164 0 ~ ~ ~ ~
544. 2020-08-21 07:14 13.8 18.8 13.3 97 ~ ~ 922 1.27 22 28 37 0 164 2 ~ ~ ~ ~
545. 2020-08-21 08:14 13.8 13.8 13.8 97 ~ ~ 922 0.00 22 28 37 0 189 0 ~ ~ ~ ~
546. 2020-08-21 09:14 14.3 14.3 13.8 97 ~ ~ 923 1.02 23 29 38 0 149 0 ~ ~ ~ ~
547. 2020-08-21 10:14 14.4 14.4 13.8 97 ~ ~ 926 2.54 25 32 41 0 149 0 ~ ~ ~ ~
548. 2020-08-21 11:15 14.4 14.4 13.8 97 ~ ~ 930 3.81 29 36 44 0 149 0 ~ ~ ~ ~
549. 2020-08-21 12:14 14.8 14.8 13.8 97 ~ ~ 935 5.33 35 41 50 0 149 8 ~ ~ ~ ~
550. 2020-08-21 13:14 14.6 14.8 13.8 97 ~ ~ 936 1.52 36 43 51 0 149 2 ~ ~ ~ ~
551. 2020-08-21 14:14 14.9 14.9 13.8 97 ~ ~ 939 2.03 38 45 53 0 149 0 ~ ~ ~ ~
552. 2020-08-21 15:14 15.2 15.2 13.8 97 ~ ~ 941 2.54 40 47 56 0 149 5 ~ ~ ~ ~
553. 2020-08-21 16:14 15.2 15.2 13.8 97 ~ ~ 941 0.25 38 47 56 2 149 3 ~ ~ ~ ~
554. 2020-08-21 17:14 15.1 15.2 13.8 97 ~ ~ 941 0.00 37 47 56 0 163 0 ~ ~ ~ ~
555. 2020-08-21 18:14 14.4 15.2 13.8 97 ~ ~ 945 3.30 39 51 59 0 163 0 ~ ~ ~ ~
556. 2020-08-21 19:14 13.9 15.2 13.8 97 ~ ~ 947 2.54 40 53 62 0 163 2 ~ ~ ~ ~
557. 2020-08-21 20:14 13.6 15.2 13.6 97 ~ ~ 950 2.54 41 56 65 0 163 2 ~ ~ ~ ~
558. 2020-08-21 21:14 13.1 15.2 13.1 97 ~ ~ 952 2.54 44 58 67 0 163 0 ~ ~ ~ ~
559. 2020-08-21 22:15 12.8 15.2 12.8 97 ~ ~ 954 2.03 42 60 69 0 163 0 ~ ~ ~ ~
560. 2020-08-21 23:14 12.6 15.2 12.6 97 ~ ~ 955 0.76 43 61 70 0 163 0 ~ ~ ~ ~
561. 2020-08-22 00:14 12.4 15.2 12.4 97 ~ ~ 956 0.76 43 62 71 0 163 0 ~ ~ ~ ~
562. 2020-08-22 01:14 12.1 15.2 12.1 97 ~ ~ 956 0.00 41 62 71 0 163 0 ~ ~ ~ ~
563. 2020-08-22 02:14 11.9 15.2 11.9 97 ~ ~ 956 0.00 38 62 71 0 163 0 ~ ~ ~ ~
564. 2020-08-22 03:14 11.8 15.2 11.8 97 ~ ~ 956 0.00 37 62 71 0 163 0 ~ ~ ~ ~
565. 2020-08-22 04:14 11.8 15.2 11.8 97 ~ ~ 956 0.00 36 62 71 0 163 0 ~ ~ ~ ~
566. 2020-08-22 05:14 11.8 15.2 11.8 97 ~ ~ 956 0.00 35 62 71 0 163 0 ~ ~ ~ ~
567. 2020-08-22 06:14 11.8 15.2 11.8 97 ~ ~ 956 0.00 35 62 71 0 163 0 ~ ~ ~ ~
568. 2020-08-22 07:15 11.7 15.2 11.7 97 ~ ~ 956 0.00 34 62 71 0 163 0 ~ ~ ~ ~
569. 2020-08-22 08:14 11.4 11.7 11.4 97 ~ ~ 956 0.00 34 62 71 0 163 0 ~ ~ ~ ~
570. 2020-08-22 09:14 12.5 12.5 11.4 97 ~ ~ 956 0.00 33 62 71 0 163 2 ~ ~ ~ ~
571. 2020-08-22 10:14 15.2 15.2 11.4 97 ~ ~ 956 0.00 30 62 71 0 163 0 ~ ~ ~ ~
572. 2020-08-22 11:14 15.8 15.8 11.4 97 ~ ~ 956 0.00 26 62 71 0 163 2 ~ ~ ~ ~
573. 2020-08-22 12:14 17.3 17.3 11.4 93 ~ ~ 956 0.00 21 62 71 0 163 0 ~ ~ ~ ~
574. 2020-08-22 13:14 18.1 18.1 11.4 89 ~ ~ 956 0.00 19 62 71 0 163 0 ~ ~ ~ ~
575. 2020-08-22 14:14 19.0 19.0 11.4 88 ~ ~ 956 0.00 17 62 71 0 163 0 ~ ~ ~ ~
576. 2020-08-22 15:14 19.4 19.4 11.4 73 ~ ~ 956 0.00 15 62 71 0 163 2 ~ ~ ~ ~
577. 2020-08-22 16:14 19.9 19.9 11.4 81 ~ ~ 956 0.00 14 62 71 0 163 0 ~ ~ ~ ~
578. 2020-08-22 17:14 19.5 19.9 11.4 83 ~ ~ 956 0.00 14 62 71 0 163 0 ~ ~ ~ ~
579. 2020-08-22 18:14 18.6 19.9 11.4 88 ~ ~ 956 0.00 11 62 71 0 163 0 ~ ~ ~ ~
580. 2020-08-22 19:14 17.0 19.9 11.4 89 ~ ~ 956 0.00 9 62 71 0 163 0 ~ ~ ~ ~
581. 2020-08-22 20:14 15.3 19.9 11.4 89 ~ ~ 956 0.00 6 62 71 0 163 0 ~ ~ ~ ~
582. 2020-08-22 21:14 13.4 19.9 11.4 92 ~ ~ 956 0.00 4 62 71 0 163 0 ~ ~ ~ ~
583. 2020-08-22 22:14 12.2 19.9 11.4 93 ~ ~ 956 0.00 2 61 71 0 132 0 ~ ~ ~ ~
584. 2020-08-22 23:14 11.3 19.9 11.3 93 ~ ~ 956 0.00 1 61 71 0 132 0 ~ ~ ~ ~
585. 2020-08-23 00:14 10.7 19.9 10.7 94 ~ ~ 956 0.00 0 60 71 0 133 0 ~ ~ ~ ~
586. 2020-08-23 01:14 10.3 19.9 10.3 95 ~ ~ 956 0.00 0 59 71 0 133 0 ~ ~ ~ ~
587. 2020-08-23 02:14 9.8 19.9 9.8 95 ~ ~ 956 0.00 0 58 71 0 133 0 ~ ~ ~ ~
588. 2020-08-23 03:14 9.6 19.9 9.6 96 ~ ~ 956 0.00 0 57 71 0 133 0 ~ ~ ~ ~
589. 2020-08-23 04:14 9.6 19.9 9.6 96 ~ ~ 956 0.00 0 56 71 0 133 0 ~ ~ ~ ~
590. 2020-08-23 05:14 9.1 19.9 9.1 96 ~ ~ 956 0.00 0 55 71 0 133 0 ~ ~ ~ ~
591. 2020-08-23 06:14 8.7 19.9 8.7 96 ~ ~ 956 0.00 0 55 71 0 133 0 ~ ~ ~ ~
592. 2020-08-23 07:14 8.6 19.9 8.6 96 ~ ~ 956 0.00 0 55 71 0 133 0 ~ ~ ~ ~
593. 2020-08-23 08:14 9.3 9.3 8.6 97 ~ ~ 956 0.00 0 55 71 0 133 0 ~ ~ ~ ~
594. 2020-08-23 09:14 11.2 11.2 8.6 97 ~ ~ 956 0.00 0 55 71 0 133 0 ~ ~ ~ ~
595. 2020-08-23 10:14 13.8 13.8 8.6 96 ~ ~ 956 0.00 0 55 71 0 196 3 ~ ~ ~ ~
596. 2020-08-23 11:14 17.7 17.7 8.6 76 ~ ~ 956 0.00 0 55 71 0 208 2 ~ ~ ~ ~
597. 2020-08-23 12:14 18.7 18.7 8.6 69 ~ ~ 956 0.00 0 55 71 0 208 2 ~ ~ ~ ~
598. 2020-08-23 13:14 20.3 20.3 8.6 75 ~ ~ 956 0.00 0 55 71 0 208 0 ~ ~ ~ ~
599. 2020-08-23 14:14 21.3 21.3 8.6 62 ~ ~ 956 0.00 0 55 71 0 209 2 ~ ~ ~ ~
600. 2020-08-23 15:14 21.0 21.3 8.6 72 ~ ~ 956 0.00 0 55 71 0 146 0 ~ ~ ~ ~
601. 2020-08-23 16:14 19.7 21.3 8.6 68 ~ ~ 956 0.00 0 52 71 0 196 3 ~ ~ ~ ~
602. 2020-08-23 17:14 19.2 21.3 8.6 75 ~ ~ 956 0.00 0 51 71 0 176 0 ~ ~ ~ ~
603. 2020-08-23 18:14 18.5 21.3 8.6 76 ~ ~ 956 0.00 0 50 71 0 161 10 ~ ~ ~ ~
604. 2020-08-23 19:14 17.7 21.3 8.6 82 ~ ~ 956 0.00 0 48 71 0 267 0 ~ ~ ~ ~
605. 2020-08-23 20:14 16.4 21.3 8.6 88 ~ ~ 956 0.00 0 47 71 0 267 0 ~ ~ ~ ~
606. 2020-08-23 21:14 15.1 21.3 8.6 90 ~ ~ 956 0.00 0 47 71 0 267 0 ~ ~ ~ ~
607. 2020-08-23 22:14 14.2 21.3 8.6 91 ~ ~ 956 0.00 0 44 71 0 267 0 ~ ~ ~ ~
608. 2020-08-23 23:15 13.6 21.3 8.6 93 ~ ~ 956 0.00 0 44 71 0 267 0 ~ ~ ~ ~
609. 2020-08-24 00:14 13.2 21.3 8.6 93 ~ ~ 956 0.00 0 43 71 5 148 6 ~ ~ ~ ~
610. 2020-08-24 01:14 13.0 21.3 8.6 95 ~ ~ 956 0.00 0 41 71 0 138 0 ~ ~ ~ ~
611. 2020-08-24 02:14 13.0 21.3 8.6 95 ~ ~ 956 0.00 0 38 71 0 138 2 ~ ~ ~ ~
612. 2020-08-24 03:14 13.1 21.3 8.6 96 ~ ~ 956 0.00 0 37 71 0 138 2 ~ ~ ~ ~
613. 2020-08-24 04:14 12.9 21.3 8.6 96 ~ ~ 956 0.00 0 36 71 0 138 0 ~ ~ ~ ~
614. 2020-08-24 05:14 12.7 21.3 8.6 95 ~ ~ 956 0.00 0 35 71 0 138 0 ~ ~ ~ ~
615. 2020-08-24 06:14 12.7 21.3 8.6 96 ~ ~ 956 0.00 0 35 71 0 138 0 ~ ~ ~ ~
616. 2020-08-24 07:14 12.7 21.3 8.6 96 ~ ~ 956 0.00 0 34 71 0 138 0 ~ ~ ~ ~
617. 2020-08-24 08:14 12.7 12.7 12.7 96 ~ ~ 956 0.00 0 34 71 0 138 0 ~ ~ ~ ~
618. 2020-08-24 09:14 13.4 13.4 12.7 96 ~ ~ 956 0.00 0 33 71 0 138 3 ~ ~ ~ ~
619. 2020-08-24 10:14 16.2 16.2 12.7 87 ~ ~ 956 0.00 0 30 71 0 138 2 ~ ~ ~ ~
620. 2020-08-24 11:14 18.4 18.4 12.7 78 ~ ~ 956 0.00 0 26 71 0 209 2 ~ ~ ~ ~
621. 2020-08-24 12:14 19.6 19.6 12.7 73 ~ ~ 956 0.00 0 21 71 0 209 2 ~ ~ ~ ~
622. 2020-08-24 13:14 22.2 22.2 12.7 64 ~ ~ 956 0.00 0 19 71 0 209 2 ~ ~ ~ ~
623. 2020-08-24 14:14 26.1 26.1 12.7 51 ~ ~ 956 0.00 0 17 71 5 291 6 ~ ~ ~ ~
624. 2020-08-24 15:14 25.4 26.1 12.7 51 ~ ~ 956 0.00 0 15 71 2 211 6 ~ ~ ~ ~
625. 2020-08-24 16:14 23.6 26.1 12.7 67 ~ ~ 956 0.00 0 14 71 0 162 2 ~ ~ ~ ~
626. 2020-08-24 17:15 21.1 26.1 12.7 79 ~ ~ 956 0.00 0 14 71 0 162 0 ~ ~ ~ ~
627. 2020-08-24 18:14 19.3 26.1 12.7 82 ~ ~ 956 0.00 0 11 71 0 162 0 ~ ~ ~ ~
628. 2020-08-24 19:14 17.8 26.1 12.7 85 ~ ~ 956 0.00 0 9 71 0 162 0 ~ ~ ~ ~
629. 2020-08-24 20:14 16.4 26.1 12.7 86 ~ ~ 956 0.00 0 6 71 0 162 0 ~ ~ ~ ~
630. 2020-08-24 21:14 14.9 26.1 12.7 89 ~ ~ 956 0.00 0 4 71 0 162 0 ~ ~ ~ ~
631. 2020-08-24 22:14 13.7 26.1 12.7 91 ~ ~ 956 0.00 0 2 71 0 162 0 ~ ~ ~ ~
632. 2020-08-24 23:14 12.8 26.1 12.7 91 ~ ~ 956 0.00 0 1 71 0 162 0 ~ ~ ~ ~
633. 2020-08-25 00:14 11.9 26.1 11.9 92 ~ ~ 956 0.00 0 0 71 0 162 0 ~ ~ ~ ~
634. 2020-08-25 01:14 11.4 26.1 11.4 93 ~ ~ 956 0.00 0 0 71 0 162 0 ~ ~ ~ ~
635. 2020-08-25 02:14 11.1 26.1 11.1 94 ~ ~ 956 0.00 0 0 71 0 162 0 ~ ~ ~ ~
636. 2020-08-25 03:14 10.5 26.1 10.5 94 ~ ~ 956 0.00 0 0 71 0 287 0 ~ ~ ~ ~
637. 2020-08-25 04:14 10.2 26.1 10.2 95 ~ ~ 956 0.00 0 0 71 0 287 0 ~ ~ ~ ~
638. 2020-08-25 05:14 9.7 26.1 9.7 95 ~ ~ 956 0.00 0 0 71 0 287 0 ~ ~ ~ ~
639. 2020-08-25 06:14 9.5 26.1 9.5 95 ~ ~ 956 0.00 0 0 71 0 287 0 ~ ~ ~ ~
640. 2020-08-25 07:14 9.2 26.1 9.2 95 ~ ~ 956 0.00 0 0 71 0 287 0 ~ ~ ~ ~
641. 2020-08-25 08:14 9.1 9.2 9.1 96 ~ ~ 956 0.00 0 0 71 0 287 0 ~ ~ ~ ~
642. 2020-08-25 09:14 10.6 10.6 9.1 97 ~ ~ 956 0.00 0 0 71 0 287 0 ~ ~ ~ ~
643. 2020-08-25 10:14 14.0 14.0 9.1 93 ~ ~ 956 0.00 0 0 71 0 287 2 ~ ~ ~ ~
644. 2020-08-25 11:14 18.3 18.3 9.1 69 ~ ~ 956 0.00 0 0 71 0 287 3 ~ ~ ~ ~
645. 2020-08-25 12:14 21.8 21.8 9.1 58 ~ ~ 956 0.00 0 0 71 0 286 5 ~ ~ ~ ~
646. 2020-08-25 13:14 24.6 24.6 9.1 53 ~ ~ 956 0.00 0 0 71 0 273 3 ~ ~ ~ ~
647. 2020-08-25 14:14 26.9 26.9 9.1 44 ~ ~ 956 0.00 0 0 71 3 173 5 ~ ~ ~ ~
648. 2020-08-25 15:14 28.7 28.7 9.1 42 ~ ~ 956 0.00 0 0 71 2 221 2 ~ ~ ~ ~
649. 2020-08-25 16:14 27.7 28.7 9.1 51 ~ ~ 956 0.00 0 0 71 0 309 3 ~ ~ ~ ~
650. 2020-08-25 17:14 22.8 28.7 9.1 72 ~ ~ 956 0.00 0 0 71 0 309 0 ~ ~ ~ ~
651. 2020-08-25 18:14 21.0 28.7 9.1 77 ~ ~ 956 0.00 0 0 71 0 309 0 ~ ~ ~ ~
652. 2020-08-25 19:14 19.0 28.7 9.1 81 ~ ~ 956 0.00 0 0 71 0 189 0 ~ ~ ~ ~
653. 2020-08-25 20:14 17.1 28.7 9.1 84 ~ ~ 956 0.00 0 0 71 0 188 0 ~ ~ ~ ~
654. 2020-08-25 21:14 15.4 28.7 9.1 87 ~ ~ 956 0.00 0 0 71 0 189 0 ~ ~ ~ ~
655. 2020-08-25 22:15 14.1 28.7 9.1 89 ~ ~ 956 0.00 0 0 71 0 188 0 ~ ~ ~ ~
656. 2020-08-25 23:14 13.2 28.7 9.1 90 ~ ~ 956 0.00 0 0 71 0 189 0 ~ ~ ~ ~
657. 2020-08-26 00:14 12.3 28.7 9.1 92 ~ ~ 956 0.00 0 0 71 0 189 0 ~ ~ ~ ~
658. 2020-08-26 01:14 11.7 28.7 9.1 92 ~ ~ 956 0.00 0 0 71 0 189 0 ~ ~ ~ ~
659. 2020-08-26 02:14 11.1 28.7 9.1 93 ~ ~ 956 0.00 0 0 71 0 189 0 ~ ~ ~ ~
660. 2020-08-26 03:14 10.8 28.7 9.1 94 ~ ~ 956 0.00 0 0 71 0 189 0 ~ ~ ~ ~
661. 2020-08-26 04:14 10.2 28.7 9.1 94 ~ ~ 956 0.00 0 0 71 0 189 0 ~ ~ ~ ~
662. 2020-08-26 05:14 9.8 28.7 9.1 94 ~ ~ 956 0.00 0 0 71 0 189 0 ~ ~ ~ ~
663. 2020-08-26 06:14 9.4 28.7 9.1 95 ~ ~ 956 0.00 0 0 71 0 189 0 ~ ~ ~ ~
664. 2020-08-26 07:14 9.1 28.7 9.1 95 ~ ~ 956 0.00 0 0 71 0 189 0 ~ ~ ~ ~
665. 2020-08-26 08:14 9.2 9.2 9.1 96 ~ ~ 956 0.00 0 0 71 0 189 0 ~ ~ ~ ~
666. 2020-08-26 09:14 10.7 10.7 9.1 97 ~ ~ 956 0.00 0 0 71 0 189 0 ~ ~ ~ ~
667. 2020-08-26 10:14 13.7 13.7 9.1 86 ~ ~ 956 0.00 0 0 71 0 189 2 ~ ~ ~ ~
668. 2020-08-26 11:14 18.2 18.2 9.1 68 ~ ~ 956 0.00 0 0 71 0 281 2 ~ ~ ~ ~
669. 2020-08-26 12:14 21.8 21.8 9.1 56 ~ ~ 956 0.00 0 0 71 2 262 5 ~ ~ ~ ~
670. 2020-08-26 13:14 24.2 24.2 9.1 47 ~ ~ 956 0.00 0 0 71 0 300 3 ~ ~ ~ ~
671. 2020-08-26 14:14 26.2 26.2 9.1 45 ~ ~ 956 0.00 0 0 71 0 306 5 ~ ~ ~ ~
672. 2020-08-26 15:14 24.8 26.2 9.1 46 ~ ~ 956 0.00 0 0 71 0 199 5 ~ ~ ~ ~
673. 2020-08-26 16:14 23.8 26.2 9.1 64 ~ ~ 956 0.00 0 0 71 0 200 0 ~ ~ ~ ~
674. 2020-08-26 17:14 22.6 26.2 9.1 72 ~ ~ 956 0.00 0 0 71 0 200 0 ~ ~ ~ ~
675. 2020-08-26 18:14 20.4 26.2 9.1 76 ~ ~ 956 0.00 0 0 71 0 200 0 ~ ~ ~ ~
676. 2020-08-26 19:14 18.6 26.2 9.1 79 ~ ~ 956 0.00 0 0 71 0 200 0 ~ ~ ~ ~
677. 2020-08-26 20:14 16.8 26.2 9.1 82 ~ ~ 956 0.00 0 0 71 0 200 0 ~ ~ ~ ~
678. 2020-08-26 21:14 15.2 26.2 9.1 86 ~ ~ 956 0.00 0 0 71 0 200 0 ~ ~ ~ ~
679. 2020-08-26 22:14 13.8 26.2 9.1 88 ~ ~ 956 0.00 0 0 71 0 200 0 ~ ~ ~ ~
680. 2020-08-26 23:14 12.9 26.2 9.1 90 ~ ~ 956 0.00 0 0 71 0 200 0 ~ ~ ~ ~
681. 2020-08-27 00:14 12.2 26.2 9.1 91 ~ ~ 956 0.00 0 0 71 0 200 0 ~ ~ ~ ~
682. 2020-08-27 01:14 11.6 26.2 9.1 92 ~ ~ 956 0.00 0 0 71 0 200 0 ~ ~ ~ ~
683. 2020-08-27 02:15 11.0 26.2 9.1 93 ~ ~ 956 0.00 0 0 71 0 200 0 ~ ~ ~ ~
684. 2020-08-27 03:14 10.7 26.2 9.1 93 ~ ~ 956 0.00 0 0 71 0 200 0 ~ ~ ~ ~
685. 2020-08-27 04:14 10.3 26.2 9.1 93 ~ ~ 956 0.00 0 0 71 0 200 0 ~ ~ ~ ~
686. 2020-08-27 05:14 9.8 26.2 9.1 94 ~ ~ 956 0.00 0 0 71 0 200 0 ~ ~ ~ ~
687. 2020-08-27 06:14 9.6 26.2 9.1 95 ~ ~ 956 0.00 0 0 71 0 200 0 ~ ~ ~ ~
688. 2020-08-27 07:14 9.3 26.2 9.1 95 ~ ~ 956 0.00 0 0 71 0 200 0 ~ ~ ~ ~
689. 2020-08-27 08:14 9.1 9.3 9.1 95 ~ ~ 956 0.00 0 0 71 0 200 0 ~ ~ ~ ~
690. 2020-08-27 09:14 10.6 10.6 9.1 96 ~ ~ 956 0.00 0 0 71 0 200 0 ~ ~ ~ ~
691. 2020-08-27 10:14 13.9 13.9 9.1 91 ~ ~ 956 0.00 0 0 71 0 200 3 ~ ~ ~ ~
692. 2020-08-27 11:14 18.9 18.9 9.1 67 ~ ~ 956 0.00 0 0 71 0 288 3 ~ ~ ~ ~
693. 2020-08-27 12:14 22.3 22.3 9.1 52 ~ ~ 956 0.00 0 0 71 0 271 3 ~ ~ ~ ~
694. 2020-08-27 13:14 25.9 25.9 9.1 44 ~ ~ 956 0.00 0 0 71 0 252 3 ~ ~ ~ ~
695. 2020-08-27 14:14 28.3 28.3 9.1 36 ~ ~ 956 0.00 0 0 71 0 193 5 ~ ~ ~ ~
696. 2020-08-27 15:14 29.9 29.9 9.1 35 ~ ~ 956 0.00 0 0 71 3 154 5 ~ ~ ~ ~
697. 2020-08-27 16:14 30.1 30.1 9.1 32 ~ ~ 956 0.00 0 0 71 0 239 2 ~ ~ ~ ~
698. 2020-08-27 17:14 25.3 30.1 9.1 52 ~ ~ 956 0.00 0 0 71 0 174 0 ~ ~ ~ ~
699. 2020-08-27 18:14 20.2 30.1 9.1 69 ~ ~ 956 0.00 0 0 71 0 77 0 ~ ~ ~ ~
700. 2020-08-27 19:14 17.8 30.1 9.1 76 ~ ~ 956 0.00 0 0 71 0 77 0 ~ ~ ~ ~
701. 2020-08-27 20:14 16.1 30.1 9.1 82 ~ ~ 956 0.00 0 0 71 0 77 0 ~ ~ ~ ~
702. 2020-08-27 21:14 14.7 30.1 9.1 84 ~ ~ 956 0.00 0 0 71 0 77 0 ~ ~ ~ ~
703. 2020-08-27 22:14 13.7 30.1 9.1 87 ~ ~ 956 0.00 0 0 71 0 77 0 ~ ~ ~ ~
704. 2020-08-27 23:14 13.1 30.1 9.1 88 ~ ~ 956 0.00 0 0 71 0 77 0 ~ ~ ~ ~
705. 2020-08-28 00:14 12.5 30.1 9.1 89 ~ ~ 956 0.00 0 0 71 0 77 0 ~ ~ ~ ~
706. 2020-08-28 01:14 11.9 30.1 9.1 91 ~ ~ 956 0.00 0 0 71 0 77 0 ~ ~ ~ ~
707. 2020-08-28 02:14 11.4 30.1 9.1 91 ~ ~ 956 0.00 0 0 71 0 77 0 ~ ~ ~ ~
708. 2020-08-28 03:14 10.8 30.1 9.1 92 ~ ~ 956 0.00 0 0 71 0 77 0 ~ ~ ~ ~
709. 2020-08-28 04:14 10.6 30.1 9.1 93 ~ ~ 956 0.00 0 0 71 0 77 0 ~ ~ ~ ~
710. 2020-08-28 05:14 10.1 30.1 9.1 93 ~ ~ 956 0.00 0 0 71 0 64 0 ~ ~ ~ ~
711. 2020-08-28 06:14 10.1 30.1 9.1 95 ~ ~ 956 0.00 0 0 71 0 64 0 ~ ~ ~ ~
712. 2020-08-28 07:14 10.1 30.1 9.1 95 ~ ~ 956 0.00 0 0 70 0 64 0 ~ ~ ~ ~
713. 2020-08-28 08:14 10.4 10.4 10.1 95 ~ ~ 956 0.00 0 0 70 0 64 0 ~ ~ ~ ~
714. 2020-08-28 09:14 12.1 12.1 10.1 96 ~ ~ 956 0.00 0 0 70 0 64 0 ~ ~ ~ ~
715. 2020-08-28 10:14 14.3 14.3 10.1 89 ~ ~ 956 0.00 0 0 70 0 64 2 ~ ~ ~ ~
716. 2020-08-28 11:14 16.3 16.3 10.1 84 ~ ~ 956 0.00 0 0 70 0 64 0 ~ ~ ~ ~
717. 2020-08-28 12:14 18.3 18.3 10.1 69 ~ ~ 956 0.00 0 0 70 0 64 2 ~ ~ ~ ~
718. 2020-08-28 13:14 20.6 20.6 10.1 58 ~ ~ 956 0.00 0 0 70 0 325 5 ~ ~ ~ ~
719. 2020-08-28 14:14 22.9 22.9 10.1 59 ~ ~ 956 0.00 0 0 70 0 325 0 ~ ~ ~ ~
720. 2020-08-28 15:14 22.8 22.9 10.1 64 ~ ~ 956 0.00 0 0 70 0 253 0 ~ ~ ~ ~
721. 2020-08-28 16:14 21.1 22.9 10.1 76 ~ ~ 956 0.00 0 0 70 0 253 0 ~ ~ ~ ~
722. 2020-08-28 17:14 19.9 22.9 10.1 79 ~ ~ 956 0.00 0 0 70 0 253 0 ~ ~ ~ ~
723. 2020-08-28 18:14 19.1 22.9 10.1 82 ~ ~ 956 0.00 0 0 70 0 253 5 ~ ~ ~ ~
724. 2020-08-28 19:14 18.3 22.9 10.1 83 ~ ~ 956 0.00 0 0 70 0 253 0 ~ ~ ~ ~
725. 2020-08-28 20:15 16.8 22.9 10.1 86 ~ ~ 956 0.00 0 0 70 0 253 0 ~ ~ ~ ~
726. 2020-08-28 21:14 15.7 22.9 10.1 88 ~ ~ 956 0.00 0 0 70 0 253 0 ~ ~ ~ ~
727. 2020-08-28 22:14 14.5 22.9 10.1 89 ~ ~ 956 0.00 0 0 70 0 253 0 ~ ~ ~ ~
728. 2020-08-28 23:14 13.7 22.9 10.1 90 ~ ~ 956 0.00 0 0 70 0 253 0 ~ ~ ~ ~
729. 2020-08-29 00:14 13.4 22.9 10.1 92 ~ ~ 956 0.00 0 0 70 0 253 0 ~ ~ ~ ~
730. 2020-08-29 01:14 13.1 22.9 10.1 92 ~ ~ 956 0.00 0 0 70 0 253 0 ~ ~ ~ ~
731. 2020-08-29 02:14 13.0 22.9 10.1 93 ~ ~ 956 0.00 0 0 70 0 253 0 ~ ~ ~ ~
732. 2020-08-29 03:14 13.1 22.9 10.1 93 ~ ~ 956 0.00 0 0 70 0 253 0 ~ ~ ~ ~
733. 2020-08-29 04:14 13.2 22.9 10.1 93 ~ ~ 956 0.00 0 0 70 0 253 0 ~ ~ ~ ~
734. 2020-08-29 05:14 13.8 22.9 10.1 92 ~ ~ 956 0.00 0 0 70 0 130 6 ~ ~ ~ ~
735. 2020-08-29 06:14 13.8 22.9 10.1 92 ~ ~ 956 0.00 0 0 70 0 130 0 ~ ~ ~ ~
736. 2020-08-29 07:14 13.6 22.9 10.1 93 ~ ~ 956 0.00 0 0 70 0 130 0 ~ ~ ~ ~
737. 2020-08-29 08:14 13.7 13.7 13.6 93 ~ ~ 956 0.00 0 0 70 0 130 0 ~ ~ ~ ~
738. 2020-08-29 09:15 14.7 14.7 13.6 87 ~ ~ 956 0.00 0 0 70 0 136 2 ~ ~ ~ ~
739. 2020-08-29 10:14 16.9 16.9 13.6 78 ~ ~ 956 0.00 0 0 70 0 249 2 ~ ~ ~ ~
740. 2020-08-29 11:14 19.4 19.4 13.6 69 ~ ~ 956 0.00 0 0 70 0 177 3 ~ ~ ~ ~
741. 2020-08-29 12:14 21.8 21.8 13.6 57 ~ ~ 956 0.00 0 0 70 0 180 3 ~ ~ ~ ~
742. 2020-08-29 13:15 23.8 23.8 13.6 51 ~ ~ 956 0.00 0 0 70 0 210 5 ~ ~ ~ ~
743. 2020-08-29 14:14 25.5 25.5 13.6 40 ~ ~ 956 0.00 0 0 70 0 294 10 ~ ~ ~ ~
744. 2020-08-29 15:14 27.3 27.3 13.6 36 ~ ~ 956 0.00 0 0 70 2 188 3 ~ ~ ~ ~
745. 2020-08-29 16:14 27.2 27.3 13.6 31 ~ ~ 956 0.00 0 0 70 2 292 8 ~ ~ ~ ~
746. 2020-08-29 17:14 23.6 27.3 13.6 51 ~ ~ 956 0.00 0 0 70 0 81 2 ~ ~ ~ ~
747. 2020-08-29 18:14 18.3 27.3 13.6 70 ~ ~ 956 0.00 0 0 70 0 138 2 ~ ~ ~ ~
748. 2020-08-29 19:14 15.9 27.3 13.6 78 ~ ~ 956 0.00 0 0 70 0 139 0 ~ ~ ~ ~
749. 2020-08-29 20:14 14.5 27.3 13.6 82 ~ ~ 956 0.00 0 0 70 0 139 0 ~ ~ ~ ~
750. 2020-08-29 21:14 13.3 27.3 13.3 86 ~ ~ 956 0.00 0 0 70 0 139 0 ~ ~ ~ ~
751. 2020-08-29 22:14 12.6 27.3 12.6 86 ~ ~ 956 0.00 0 0 70 0 139 0 ~ ~ ~ ~
752. 2020-08-29 23:14 11.9 27.3 11.9 88 ~ ~ 956 0.00 0 0 70 0 139 0 ~ ~ ~ ~
753. 2020-08-30 00:15 11.3 27.3 11.3 90 ~ ~ 956 0.00 0 0 70 0 139 0 ~ ~ ~ ~
754. 2020-08-30 01:14 10.7 27.3 10.7 90 ~ ~ 956 0.00 0 0 70 0 139 0 ~ ~ ~ ~
755. 2020-08-30 02:14 10.2 27.3 10.2 92 ~ ~ 956 0.00 0 0 70 0 139 0 ~ ~ ~ ~
756. 2020-08-30 03:14 9.8 27.3 9.8 92 ~ ~ 956 0.00 0 0 70 0 156 0 ~ ~ ~ ~
757. 2020-08-30 04:14 9.3 27.3 9.3 92 ~ ~ 956 0.00 0 0 70 0 156 0 ~ ~ ~ ~
758. 2020-08-30 05:14 8.8 27.3 8.8 93 ~ ~ 956 0.00 0 0 70 0 156 0 ~ ~ ~ ~
759. 2020-08-30 06:14 8.4 27.3 8.4 94 ~ ~ 956 0.00 0 0 70 0 156 0 ~ ~ ~ ~
760. 2020-08-30 07:14 8.3 27.3 8.3 95 ~ ~ 956 0.00 0 0 70 0 156 0 ~ ~ ~ ~
761. 2020-08-30 08:14 8.3 8.3 8.3 95 ~ ~ 956 0.00 0 0 70 0 156 0 ~ ~ ~ ~
762. 2020-08-30 09:15 10.6 10.6 8.3 94 ~ ~ 956 0.00 0 0 70 0 156 0 ~ ~ ~ ~
763. 2020-08-30 10:14 13.2 13.2 8.3 83 ~ ~ 956 0.00 0 0 70 0 156 2 ~ ~ ~ ~
764. 2020-08-30 11:14 17.4 17.4 8.3 67 ~ ~ 956 0.00 0 0 70 0 286 5 ~ ~ ~ ~
765. 2020-08-30 12:14 18.5 18.5 8.3 62 ~ ~ 956 0.00 0 0 70 0 244 3 ~ ~ ~ ~
766. 2020-08-30 13:14 18.0 18.5 8.3 74 ~ ~ 956 0.00 0 0 70 0 244 0 ~ ~ ~ ~
767. 2020-08-30 14:14 17.2 18.5 8.3 81 ~ ~ 956 0.00 0 0 70 0 244 0 ~ ~ ~ ~
768. 2020-08-30 15:14 16.1 18.5 8.3 88 ~ ~ 956 0.25 0 0 71 0 198 0 ~ ~ ~ ~
769. 2020-08-30 16:14 15.2 18.5 8.3 92 ~ ~ 958 1.52 2 2 72 0 198 0 ~ ~ ~ ~
770. 2020-08-30 17:14 14.6 18.5 8.3 93 ~ ~ 959 1.02 3 3 72 0 198 0 ~ ~ ~ ~
771. 2020-08-30 18:14 14.2 18.5 8.3 94 ~ ~ 959 0.51 3 3 72 0 198 0 ~ ~ ~ ~
772. 2020-08-30 19:14 13.8 18.5 8.3 94 ~ ~ 959 0.00 3 3 72 0 198 0 ~ ~ ~ ~
773. 2020-08-30 20:14 13.3 18.5 8.3 94 ~ ~ 959 0.00 3 3 72 0 198 3 ~ ~ ~ ~
774. 2020-08-30 21:15 12.9 18.5 8.3 95 ~ ~ 959 0.00 3 3 72 0 198 0 ~ ~ ~ ~
775. 2020-08-30 22:14 12.7 18.5 8.3 95 ~ ~ 959 0.00 3 3 72 0 198 0 ~ ~ ~ ~
776. 2020-08-30 23:14 12.6 18.5 8.3 95 ~ ~ 959 0.00 3 3 72 0 198 0 ~ ~ ~ ~
777. 2020-08-31 00:14 12.5 18.5 8.3 95 ~ ~ 959 0.00 3 3 72 0 198 0 ~ ~ ~ ~
778. 2020-08-31 01:14 12.3 18.5 8.3 95 ~ ~ 959 0.00 3 3 72 0 198 0 ~ ~ ~ ~
779. 2020-08-31 02:14 12.2 18.5 8.3 95 ~ ~ 959 0.00 3 3 72 0 198 0 ~ ~ ~ ~
780. 2020-08-31 03:14 12.1 18.5 8.3 96 ~ ~ 959 0.00 3 3 72 0 198 0 ~ ~ ~ ~
781. 2020-08-31 04:14 11.9 18.5 8.3 96 ~ ~ 959 0.00 3 3 72 0 198 0 ~ ~ ~ ~
782. 2020-08-31 05:14 11.7 18.5 8.3 96 ~ ~ 959 0.00 3 3 72 0 198 0 ~ ~ ~ ~
783. 2020-08-31 06:14 11.7 18.5 8.3 96 ~ ~ 959 0.00 3 3 72 0 198 0 ~ ~ ~ ~
784. 2020-08-31 07:14 11.5 18.5 8.3 96 ~ ~ 959 0.00 3 3 72 0 198 0 ~ ~ ~ ~
785. 2020-08-31 08:14 11.9 11.9 11.5 96 ~ ~ 959 0.00 3 3 72 0 198 0 ~ ~ ~ ~
786. 2020-08-31 09:14 12.9 12.9 11.5 97 ~ ~ 959 0.00 3 3 72 0 198 0 ~ ~ ~ ~
787. 2020-08-31 10:14 13.9 13.9 11.5 97 ~ ~ 959 0.00 3 3 72 0 198 0 ~ ~ ~ ~
788. 2020-08-31 11:14 15.8 15.8 11.5 90 ~ ~ 959 0.00 3 3 72 0 198 2 ~ ~ ~ ~
789. 2020-08-31 12:14 17.4 17.4 11.5 82 ~ ~ 959 0.00 3 3 72 0 198 2 ~ ~ ~ ~
790. 2020-08-31 13:14 19.0 19.0 11.5 77 ~ ~ 959 0.00 3 3 72 0 229 2 ~ ~ ~ ~
791. 2020-08-31 14:14 22.5 22.5 11.5 67 ~ ~ 959 0.00 3 3 72 0 316 5 ~ ~ ~ ~
792. 2020-08-31 15:14 20.7 22.5 11.5 78 ~ ~ 959 0.00 3 3 72 0 316 0 ~ ~ ~ ~
793. 2020-08-31 16:14 20.9 22.5 11.5 75 ~ ~ 959 0.00 2 3 72 0 316 0 ~ ~ ~ ~
794. 2020-08-31 17:14 19.8 22.5 11.5 82 ~ ~ 959 0.00 1 3 72 0 316 0 ~ ~ ~ ~
795. 2020-08-31 18:14 18.2 22.5 11.5 85 ~ ~ 959 0.00 0 3 72 0 316 0 ~ ~ ~ ~
796. 2020-08-31 19:15 17.2 22.5 11.5 88 ~ ~ 959 0.00 0 3 72 0 316 0 ~ ~ ~ ~
797. 2020-08-31 20:14 16.2 22.5 11.5 90 ~ ~ 959 0.00 0 3 72 0 316 0 ~ ~ ~ ~
798. 2020-08-31 21:14 15.3 22.5 11.5 91 ~ ~ 959 0.00 0 3 72 0 316 0 ~ ~ ~ ~
799. 2020-08-31 22:14 14.7 22.5 11.5 92 ~ ~ 959 0.00 0 3 72 0 316 0 ~ ~ ~ ~
800. 2020-08-31 23:14 14.3 22.5 11.5 92 ~ ~ 959 0.00 0 3 72 0 316 0 ~ ~ ~ ~
801. 2020-09-01 00:14 14.0 22.5 11.5 93 ~ ~ 959 0.00 0 3 72 0 316 0 ~ ~ ~ ~
802. 2020-09-01 01:14 13.8 22.5 11.5 93 ~ ~ 959 0.00 0 3 72 0 316 0 ~ ~ ~ ~
803. 2020-09-01 02:14 13.6 22.5 11.5 93 ~ ~ 959 0.00 0 3 72 0 316 0 ~ ~ ~ ~
804. 2020-09-01 03:14 13.4 22.5 11.5 94 ~ ~ 959 0.00 0 3 72 0 316 0 ~ ~ ~ ~
805. 2020-09-01 04:14 13.3 22.5 11.5 94 ~ ~ 959 0.00 0 3 72 0 316 0 ~ ~ ~ ~
806. 2020-09-01 05:14 13.2 22.5 11.5 94 ~ ~ 959 0.00 0 3 72 0 316 0 ~ ~ ~ ~
807. 2020-09-01 06:14 13.1 22.5 11.5 94 ~ ~ 959 0.00 0 3 72 0 316 0 ~ ~ ~ ~
808. 2020-09-01 07:14 13.1 22.5 11.5 95 ~ ~ 959 0.00 0 3 72 0 316 0 ~ ~ ~ ~
809. 2020-09-01 08:14 13.2 13.2 13.1 95 ~ ~ 959 0.00 0 3 72 0 316 0 ~ ~ ~ ~
810. 2020-09-01 09:14 13.8 13.8 13.1 95 ~ ~ 959 0.00 0 3 72 0 316 0 ~ ~ ~ ~
811. 2020-09-01 10:14 14.9 14.9 13.1 95 ~ ~ 959 0.00 0 3 72 0 316 0 ~ ~ ~ ~
812. 2020-09-01 11:14 16.8 16.8 13.1 91 ~ ~ 959 0.00 0 3 72 0 316 0 ~ ~ ~ ~
813. 2020-09-01 12:14 18.4 18.4 13.1 87 ~ ~ 959 0.00 0 3 72 0 316 0 ~ ~ ~ ~
814. 2020-09-01 13:14 19.6 19.6 13.1 79 ~ ~ 959 0.00 0 3 72 0 316 0 ~ ~ ~ ~
815. 2020-09-01 14:14 19.8 19.8 13.1 84 ~ ~ 959 0.00 0 3 72 0 316 0 ~ ~ ~ ~
816. 2020-09-01 15:14 19.3 19.8 13.1 86 ~ ~ 959 0.00 0 3 72 0 316 0 ~ ~ ~ ~
817. 2020-09-01 16:14 18.3 19.8 13.1 90 ~ ~ 959 0.00 0 3 72 0 316 0 ~ ~ ~ ~
818. 2020-09-01 17:14 17.7 19.8 13.1 92 ~ ~ 959 0.00 0 3 72 0 316 0 ~ ~ ~ ~
819. 2020-09-01 18:15 17.1 19.8 13.1 93 ~ ~ 960 0.51 1 4 72 0 316 0 ~ ~ ~ ~
820. 2020-09-01 19:14 16.5 19.8 13.1 93 ~ ~ 960 0.00 1 4 72 0 316 0 ~ ~ ~ ~
821. 2020-09-01 20:14 15.8 19.8 13.1 94 ~ ~ 960 0.00 1 4 72 0 316 0 ~ ~ ~ ~
822. 2020-09-01 21:14 15.3 19.8 13.1 95 ~ ~ 960 0.00 1 4 72 0 316 0 ~ ~ ~ ~
823. 2020-09-01 22:14 14.9 19.8 13.1 96 ~ ~ 960 0.00 1 4 72 0 316 0 ~ ~ ~ ~
824. 2020-09-01 23:14 14.7 19.8 13.1 96 ~ ~ 960 0.25 1 4 73 0 316 3 ~ ~ ~ ~
825. 2020-09-02 00:14 14.4 19.8 13.1 96 ~ ~ 960 0.00 1 4 73 0 316 0 ~ ~ ~ ~
826. 2020-09-02 01:14 14.3 19.8 13.1 96 ~ ~ 960 0.00 1 4 73 0 316 0 ~ ~ ~ ~
827. 2020-09-02 02:14 14.1 19.8 13.1 96 ~ ~ 960 0.51 1 5 73 0 316 0 ~ ~ ~ ~
828. 2020-09-02 03:14 14.1 19.8 13.1 97 ~ ~ 961 0.76 2 5 74 0 316 0 ~ ~ ~ ~
829. 2020-09-02 04:14 13.9 19.8 13.1 96 ~ ~ 962 0.76 3 6 75 0 316 0 ~ ~ ~ ~
830. 2020-09-02 05:14 13.9 19.8 13.1 97 ~ ~ 962 0.25 3 6 75 3 146 3 ~ ~ ~ ~
831. 2020-09-02 06:14 13.9 19.8 13.1 97 ~ ~ 962 0.00 3 6 75 0 146 0 ~ ~ ~ ~
832. 2020-09-02 07:14 13.8 19.8 13.1 97 ~ ~ 962 0.00 3 6 75 0 146 0 ~ ~ ~ ~
833. 2020-09-02 08:14 13.9 13.9 13.8 97 ~ ~ 962 0.00 3 6 75 0 146 0 ~ ~ ~ ~
834. 2020-09-02 09:14 14.6 14.6 13.8 97 ~ ~ 962 0.00 3 6 75 0 146 0 ~ ~ ~ ~
835. 2020-09-02 10:14 16.2 16.2 13.8 97 ~ ~ 962 0.00 3 6 75 0 146 0 ~ ~ ~ ~
836. 2020-09-02 11:14 20.3 20.3 13.8 87 ~ ~ 962 0.00 3 6 75 0 296 3 ~ ~ ~ ~
837. 2020-09-02 12:14 23.4 23.4 13.8 69 ~ ~ 962 0.00 3 6 75 0 191 3 ~ ~ ~ ~
838. 2020-09-02 13:15 25.1 25.1 13.8 66 ~ ~ 962 0.00 3 6 75 0 248 3 ~ ~ ~ ~
839. 2020-09-02 14:14 27.5 27.5 13.8 58 ~ ~ 962 0.00 3 6 75 0 289 2 ~ ~ ~ ~
840. 2020-09-02 15:14 28.5 28.5 13.8 49 ~ ~ 962 0.00 3 6 75 0 182 6 ~ ~ ~ ~
841. 2020-09-02 16:14 28.8 28.8 13.8 60 ~ ~ 962 0.00 3 5 75 0 144 2 ~ ~ ~ ~
842. 2020-09-02 17:14 23.1 28.8 13.8 75 ~ ~ 962 0.00 3 4 75 0 144 0 ~ ~ ~ ~
843. 2020-09-02 18:14 19.9 28.8 13.8 83 ~ ~ 962 0.00 3 3 75 0 144 0 ~ ~ ~ ~
844. 2020-09-02 19:14 18.0 28.8 13.8 86 ~ ~ 962 0.00 3 3 75 0 144 0 ~ ~ ~ ~
845. 2020-09-02 20:14 16.7 28.8 13.8 88 ~ ~ 962 0.00 3 3 75 0 144 0 ~ ~ ~ ~
846. 2020-09-02 21:14 15.4 28.8 13.8 91 ~ ~ 962 0.00 3 3 75 0 144 0 ~ ~ ~ ~
847. 2020-09-02 22:14 14.6 28.8 13.8 93 ~ ~ 962 0.00 3 3 75 0 144 0 ~ ~ ~ ~
848. 2020-09-02 23:14 13.8 28.8 13.8 93 ~ ~ 962 0.00 2 3 75 0 144 0 ~ ~ ~ ~
849. 2020-09-03 00:15 13.0 28.8 13.0 94 ~ ~ 962 0.00 2 3 75 0 285 0 ~ ~ ~ ~
850. 2020-09-03 01:14 12.7 28.8 12.7 94 ~ ~ 962 0.00 2 3 75 0 285 0 ~ ~ ~ ~
851. 2020-09-03 02:14 12.2 28.8 12.2 94 ~ ~ 962 0.00 2 3 75 0 285 0 ~ ~ ~ ~
852. 2020-09-03 03:14 11.7 28.8 11.7 94 ~ ~ 962 0.00 1 3 75 0 285 0 ~ ~ ~ ~
853. 2020-09-03 04:14 11.4 28.8 11.4 95 ~ ~ 962 0.00 0 3 75 0 285 0 ~ ~ ~ ~
854. 2020-09-03 05:14 11.4 28.8 11.4 96 ~ ~ 962 0.00 0 3 72 0 285 0 ~ ~ ~ ~
855. 2020-09-03 06:14 10.8 28.8 10.8 95 ~ ~ 962 0.00 0 3 71 0 285 0 ~ ~ ~ ~
856. 2020-09-03 07:14 10.4 28.8 10.4 95 ~ ~ 962 0.00 0 3 71 0 285 0 ~ ~ ~ ~
857. 2020-09-03 08:14 10.3 10.4 10.3 96 ~ ~ 962 0.00 0 3 71 0 285 0 ~ ~ ~ ~
858. 2020-09-03 09:14 11.3 11.3 10.3 96 ~ ~ 962 0.00 0 3 71 0 285 0 ~ ~ ~ ~
859. 2020-09-03 10:14 14.0 14.0 10.3 97 ~ ~ 962 0.00 0 3 71 0 285 2 ~ ~ ~ ~
860. 2020-09-03 11:14 18.6 18.6 10.3 77 ~ ~ 962 0.00 0 3 71 0 285 5 ~ ~ ~ ~
861. 2020-09-03 12:14 22.3 22.3 10.3 63 ~ ~ 962 0.00 0 3 71 0 285 3 ~ ~ ~ ~
862. 2020-09-03 13:14 25.8 25.8 10.3 52 ~ ~ 962 0.00 0 3 71 0 285 2 ~ ~ ~ ~
863. 2020-09-03 14:14 28.3 28.3 10.3 39 ~ ~ 962 0.00 0 3 71 0 139 5 ~ ~ ~ ~
864. 2020-09-03 15:14 30.3 30.3 10.3 37 ~ ~ 962 0.00 0 3 71 0 313 5 ~ ~ ~ ~
865. 2020-09-03 16:14 29.9 30.3 10.3 47 ~ ~ 962 0.00 0 3 71 0 313 2 ~ ~ ~ ~
866. 2020-09-03 17:14 25.0 30.3 10.3 61 ~ ~ 962 0.00 0 3 71 0 38 5 ~ ~ ~ ~
867. 2020-09-03 18:14 20.6 30.3 10.3 75 ~ ~ 962 0.00 0 3 71 0 38 0 ~ ~ ~ ~
868. 2020-09-03 19:14 18.5 30.3 10.3 82 ~ ~ 962 0.00 0 3 71 0 38 0 ~ ~ ~ ~
869. 2020-09-03 20:14 17.2 30.3 10.3 85 ~ ~ 962 0.00 0 3 71 0 38 0 ~ ~ ~ ~
870. 2020-09-03 21:14 16.0 30.3 10.3 88 ~ ~ 962 0.00 0 3 71 0 38 0 ~ ~ ~ ~
871. 2020-09-03 22:14 15.0 30.3 10.3 91 ~ ~ 962 0.00 0 3 71 0 38 0 ~ ~ ~ ~
872. 2020-09-03 23:14 14.3 30.3 10.3 90 ~ ~ 962 0.00 0 3 71 0 38 0 ~ ~ ~ ~
873. 2020-09-04 00:14 13.5 30.3 10.3 92 ~ ~ 962 0.00 0 3 71 0 11 0 ~ ~ ~ ~
874. 2020-09-04 01:14 13.1 30.3 10.3 93 ~ ~ 962 0.00 0 3 71 0 11 0 ~ ~ ~ ~
875. 2020-09-04 02:15 13.1 30.3 10.3 95 ~ ~ 962 0.00 0 3 71 0 11 0 ~ ~ ~ ~
876. 2020-09-04 03:14 12.6 30.3 10.3 94 ~ ~ 962 0.00 0 3 71 0 348 0 ~ ~ ~ ~
877. 2020-09-04 04:14 12.2 30.3 10.3 94 ~ ~ 962 0.00 0 3 71 0 348 0 ~ ~ ~ ~
878. 2020-09-04 05:14 11.7 30.3 10.3 94 ~ ~ 962 0.00 0 3 71 0 348 0 ~ ~ ~ ~
879. 2020-09-04 06:14 11.4 30.3 10.3 95 ~ ~ 962 0.00 0 3 71 0 348 0 ~ ~ ~ ~
880. 2020-09-04 07:14 11.2 30.3 10.3 95 ~ ~ 962 0.00 0 3 71 0 348 0 ~ ~ ~ ~
881. 2020-09-04 08:14 11.2 11.2 11.2 96 ~ ~ 962 0.00 0 3 71 0 348 0 ~ ~ ~ ~
882. 2020-09-04 09:14 12.2 12.2 11.2 96 ~ ~ 962 0.00 0 3 71 0 348 0 ~ ~ ~ ~
883. 2020-09-04 10:15 15.4 15.4 11.2 95 ~ ~ 962 0.00 0 3 71 0 348 0 ~ ~ ~ ~
884. 2020-09-04 11:14 20.4 20.4 11.2 74 ~ ~ 962 0.00 0 3 71 0 348 2 ~ ~ ~ ~
885. 2020-09-04 12:14 24.2 24.2 11.2 59 ~ ~ 962 0.00 0 3 71 0 348 2 ~ ~ ~ ~
886. 2020-09-04 13:14 28.4 28.4 11.2 48 ~ ~ 962 0.00 0 3 71 0 345 2 ~ ~ ~ ~
887. 2020-09-04 14:14 31.4 31.4 11.2 37 ~ ~ 962 0.00 0 3 71 0 277 5 ~ ~ ~ ~
888. 2020-09-04 15:14 32.9 32.9 11.2 44 ~ ~ 962 0.00 0 3 71 2 301 3 ~ ~ ~ ~
889. 2020-09-04 16:14 31.6 32.9 11.2 50 ~ ~ 962 0.00 0 3 70 0 301 0 ~ ~ ~ ~
890. 2020-09-04 17:14 26.9 32.9 11.2 60 ~ ~ 962 0.00 0 3 70 0 5 0 ~ ~ ~ ~
891. 2020-09-04 18:14 23.1 32.9 11.2 73 ~ ~ 962 0.00 0 3 70 0 5 0 ~ ~ ~ ~
892. 2020-09-04 19:14 20.4 32.9 11.2 78 ~ ~ 962 0.00 0 3 70 0 5 0 ~ ~ ~ ~
893. 2020-09-04 20:14 18.6 32.9 11.2 81 ~ ~ 962 0.00 0 3 70 0 5 0 ~ ~ ~ ~
894. 2020-09-04 21:14 16.9 32.9 11.2 85 ~ ~ 962 0.00 0 3 70 0 5 0 ~ ~ ~ ~
895. 2020-09-04 22:14 15.8 32.9 11.2 87 ~ ~ 962 0.00 0 3 70 0 5 0 ~ ~ ~ ~
896. 2020-09-04 23:14 15.2 32.9 11.2 89 ~ ~ 962 0.00 0 2 69 0 5 0 ~ ~ ~ ~
897. 2020-09-05 00:14 14.4 32.9 11.2 90 ~ ~ 962 0.00 0 2 69 0 5 0 ~ ~ ~ ~
898. 2020-09-05 01:14 13.6 32.9 11.2 91 ~ ~ 962 0.00 0 2 68 0 360 0 ~ ~ ~ ~
899. 2020-09-05 02:14 13.1 32.9 11.2 92 ~ ~ 962 0.00 0 2 68 0 355 2 ~ ~ ~ ~
900. 2020-09-05 03:14 12.6 32.9 11.2 93 ~ ~ 962 0.00 0 1 68 0 355 0 ~ ~ ~ ~
901. 2020-09-05 04:14 12.1 32.9 11.2 93 ~ ~ 962 0.00 0 0 68 0 355 0 ~ ~ ~ ~
902. 2020-09-05 05:14 11.7 32.9 11.2 94 ~ ~ 962 0.00 0 0 68 0 355 2 ~ ~ ~ ~
903. 2020-09-05 06:14 11.4 32.9 11.2 94 ~ ~ 962 0.00 0 0 68 0 355 0 ~ ~ ~ ~
904. 2020-09-05 07:14 11.2 32.9 11.2 94 ~ ~ 962 0.00 0 0 68 0 355 0 ~ ~ ~ ~
905. 2020-09-05 08:14 11.2 11.2 11.2 95 ~ ~ 962 0.00 0 0 68 0 355 0 ~ ~ ~ ~
906. 2020-09-05 09:14 12.1 12.1 11.2 96 ~ ~ 962 0.00 0 0 68 0 355 0 ~ ~ ~ ~
907. 2020-09-05 10:14 15.0 15.0 11.2 94 ~ ~ 962 0.00 0 0 68 0 355 2 ~ ~ ~ ~
908. 2020-09-05 11:14 19.7 19.7 11.2 74 ~ ~ 962 0.00 0 0 68 0 355 2 ~ ~ ~ ~
909. 2020-09-05 12:14 22.8 22.8 11.2 63 ~ ~ 962 0.00 0 0 68 0 258 3 ~ ~ ~ ~
910. 2020-09-05 13:14 25.7 25.7 11.2 59 ~ ~ 962 0.00 0 0 68 0 284 5 ~ ~ ~ ~
911. 2020-09-05 14:14 28.6 28.6 11.2 54 ~ ~ 962 0.00 0 0 68 3 172 5 ~ ~ ~ ~
912. 2020-09-05 15:14 29.5 29.5 11.2 50 ~ ~ 962 0.00 0 0 68 0 178 6 ~ ~ ~ ~
913. 2020-09-05 16:14 30.0 30.0 11.2 48 ~ ~ 962 0.00 0 0 68 2 202 6 ~ ~ ~ ~
914. 2020-09-05 17:14 25.5 30.0 11.2 66 ~ ~ 962 0.00 0 0 68 0 5 0 ~ ~ ~ ~
915. 2020-09-05 18:14 21.8 30.0 11.2 76 ~ ~ 962 0.00 0 0 68 0 5 0 ~ ~ ~ ~
916. 2020-09-05 19:14 19.5 30.0 11.2 81 ~ ~ 962 0.00 0 0 68 0 5 0 ~ ~ ~ ~
917. 2020-09-05 20:14 17.8 30.0 11.2 83 ~ ~ 962 0.00 0 0 68 0 5 0 ~ ~ ~ ~
918. 2020-09-05 21:14 16.4 30.0 11.2 87 ~ ~ 962 0.00 0 0 68 0 5 0 ~ ~ ~ ~
919. 2020-09-05 22:14 15.4 30.0 11.2 88 ~ ~ 962 0.00 0 0 68 0 5 0 ~ ~ ~ ~
920. 2020-09-05 23:14 14.8 30.0 11.2 90 ~ ~ 962 0.00 0 0 68 0 5 0 ~ ~ ~ ~
921. 2020-09-06 00:14 14.2 30.0 11.2 91 ~ ~ 962 0.00 0 0 68 0 5 0 ~ ~ ~ ~
922. 2020-09-06 01:15 13.6 30.0 11.2 92 ~ ~ 962 0.00 0 0 68 0 5 0 ~ ~ ~ ~
923. 2020-09-06 02:14 13.1 30.0 11.2 92 ~ ~ 962 0.00 0 0 68 0 5 0 ~ ~ ~ ~
924. 2020-09-06 03:14 12.7 30.0 11.2 93 ~ ~ 962 0.00 0 0 68 0 5 0 ~ ~ ~ ~
925. 2020-09-06 04:14 12.3 30.0 11.2 94 ~ ~ 962 0.00 0 0 68 0 5 0 ~ ~ ~ ~
926. 2020-09-06 05:14 11.9 30.0 11.2 94 ~ ~ 962 0.00 0 0 68 0 5 0 ~ ~ ~ ~
927. 2020-09-06 06:14 11.6 30.0 11.2 94 ~ ~ 962 0.00 0 0 68 0 5 0 ~ ~ ~ ~
928. 2020-09-06 07:14 11.3 30.0 11.2 94 ~ ~ 962 0.00 0 0 68 0 5 0 ~ ~ ~ ~
929. 2020-09-06 08:14 11.5 11.5 11.3 95 ~ ~ 962 0.00 0 0 68 0 5 0 ~ ~ ~ ~
930. 2020-09-06 09:14 12.2 12.2 11.3 96 ~ ~ 962 0.00 0 0 68 0 5 0 ~ ~ ~ ~
931. 2020-09-06 10:14 15.0 15.0 11.3 95 ~ ~ 962 0.00 0 0 68 0 232 2 ~ ~ ~ ~
932. 2020-09-06 11:14 19.2 19.2 11.3 81 ~ ~ 962 0.00 0 0 68 2 273 3 ~ ~ ~ ~
933. 2020-09-06 12:14 22.7 22.7 11.3 67 ~ ~ 962 0.00 0 0 68 0 288 6 ~ ~ ~ ~
934. 2020-09-06 13:14 25.8 25.8 11.3 60 ~ ~ 962 0.00 0 0 68 0 265 2 ~ ~ ~ ~
935. 2020-09-06 14:14 27.6 27.6 11.3 57 ~ ~ 962 0.00 0 0 68 0 143 5 ~ ~ ~ ~
936. 2020-09-06 15:14 29.8 29.8 11.3 51 ~ ~ 962 0.00 0 0 68 3 282 3 ~ ~ ~ ~
937. 2020-09-06 16:14 29.1 29.8 11.3 51 ~ ~ 962 0.00 0 0 68 0 281 5 ~ ~ ~ ~
938. 2020-09-06 17:14 25.9 29.8 11.3 65 ~ ~ 962 0.00 0 0 68 0 346 0 ~ ~ ~ ~
939. 2020-09-06 18:14 22.1 29.8 11.3 77 ~ ~ 962 0.00 0 0 68 0 346 0 ~ ~ ~ ~
940. 2020-09-06 19:14 19.7 29.8 11.3 79 ~ ~ 962 0.00 0 0 68 0 346 0 ~ ~ ~ ~
941. 2020-09-06 20:14 17.8 29.8 11.3 85 ~ ~ 962 0.00 0 0 68 0 346 0 ~ ~ ~ ~
942. 2020-09-06 21:14 16.3 29.8 11.3 86 ~ ~ 962 0.00 0 0 68 0 346 0 ~ ~ ~ ~
943. 2020-09-06 22:14 15.4 29.8 11.3 90 ~ ~ 962 0.00 0 0 68 2 346 2 ~ ~ ~ ~
944. 2020-09-06 23:14 14.6 29.8 11.3 91 ~ ~ 962 0.00 0 0 68 0 346 2 ~ ~ ~ ~
945. 2020-09-07 00:14 13.7 29.8 11.3 92 ~ ~ 962 0.00 0 0 68 0 126 0 ~ ~ ~ ~
946. 2020-09-07 01:14 13.1 29.8 11.3 92 ~ ~ 962 0.00 0 0 68 0 126 0 ~ ~ ~ ~
947. 2020-09-07 02:14 12.7 29.8 11.3 93 ~ ~ 962 0.00 0 0 68 0 126 0 ~ ~ ~ ~
948. 2020-09-07 03:14 12.3 29.8 11.3 94 ~ ~ 962 0.00 0 0 68 0 126 0 ~ ~ ~ ~
949. 2020-09-07 04:15 11.8 29.8 11.3 94 ~ ~ 962 0.00 0 0 68 0 280 2 ~ ~ ~ ~
950. 2020-09-07 05:15 12.7 29.8 11.3 96 ~ ~ 962 0.00 0 0 68 3 115 5 ~ ~ ~ ~
951. 2020-09-07 06:14 22.2 29.8 11.3 42 ~ ~ 962 0.00 0 0 68 2 159 21 ~ ~ ~ ~
952. 2020-09-07 07:14 21.7 29.8 11.3 42 ~ ~ 962 0.00 0 0 68 8 137 14 ~ ~ ~ ~
953. 2020-09-07 08:14 19.1 21.7 19.1 50 ~ ~ 962 0.00 0 0 68 3 148 11 ~ ~ ~ ~
954. 2020-09-07 09:14 20.6 21.7 19.1 41 ~ ~ 962 0.00 0 0 68 5 126 11 ~ ~ ~ ~
955. 2020-09-07 10:14 23.4 23.4 19.1 34 ~ ~ 962 0.00 0 0 68 0 178 5 ~ ~ ~ ~
956. 2020-09-07 11:14 24.6 24.6 19.1 26 ~ ~ 962 0.00 0 0 68 0 250 11 ~ ~ ~ ~
957. 2020-09-07 12:14 26.9 26.9 19.1 23 ~ ~ 962 0.00 0 0 68 6 66 10 ~ ~ ~ ~
958. 2020-09-07 13:14 29.2 29.2 19.1 18 ~ ~ 962 0.00 0 0 68 0 130 10 ~ ~ ~ ~
959. 2020-09-07 14:14 30.6 30.6 19.1 16 ~ ~ 962 0.00 0 0 68 3 27 14 ~ ~ ~ ~
960. 2020-09-07 15:14 31.4 31.4 19.1 20 ~ ~ 962 0.00 0 0 68 2 19 11 ~ ~ ~ ~
961. 2020-09-07 16:14 30.6 31.4 19.1 25 ~ ~ 962 0.00 0 0 68 0 38 5 ~ ~ ~ ~
962. 2020-09-07 17:14 25.4 31.4 19.1 41 ~ ~ 962 0.00 0 0 68 0 136 2 ~ ~ ~ ~
963. 2020-09-07 18:15 20.4 31.4 19.1 51 ~ ~ 962 0.00 0 0 68 0 121 0 ~ ~ ~ ~
964. 2020-09-07 19:14 20.5 31.4 19.1 47 ~ ~ 962 0.00 0 0 68 0 161 5 ~ ~ ~ ~
965. 2020-09-07 20:14 18.7 31.4 18.7 56 ~ ~ 962 0.00 0 0 68 0 139 8 ~ ~ ~ ~
966. 2020-09-07 21:14 18.8 31.4 18.7 55 ~ ~ 962 0.00 0 0 68 0 67 13 ~ ~ ~ ~
967. 2020-09-07 22:14 16.2 31.4 16.2 65 ~ ~ 962 0.00 0 0 68 0 142 2 ~ ~ ~ ~
968. 2020-09-07 23:14 14.8 31.4 14.8 67 ~ ~ 962 0.00 0 0 68 0 67 2 ~ ~ ~ ~
969. 2020-09-08 00:14 14.0 31.4 14.0 70 ~ ~ 962 0.00 0 0 68 0 88 0 ~ ~ ~ ~
970. 2020-09-08 01:14 13.3 31.4 13.3 74 ~ ~ 962 0.00 0 0 68 0 88 0 ~ ~ ~ ~
971. 2020-09-08 02:14 12.4 31.4 12.4 73 ~ ~ 962 0.00 0 0 68 0 88 0 ~ ~ ~ ~
972. 2020-09-08 03:14 11.9 31.4 11.9 79 ~ ~ 962 0.00 0 0 68 0 45 0 ~ ~ ~ ~
973. 2020-09-08 04:14 11.6 31.4 11.6 78 ~ ~ 962 0.00 0 0 68 0 45 0 ~ ~ ~ ~
974. 2020-09-08 05:14 11.0 31.4 11.0 80 ~ ~ 962 0.00 0 0 68 0 45 0 ~ ~ ~ ~
975. 2020-09-08 06:14 10.7 31.4 10.7 82 ~ ~ 962 0.00 0 0 68 0 45 0 ~ ~ ~ ~
976. 2020-09-08 07:14 10.3 31.4 10.3 82 ~ ~ 962 0.00 0 0 68 0 45 0 ~ ~ ~ ~
977. 2020-09-08 08:14 10.0 10.3 10.0 84 ~ ~ 962 0.00 0 0 68 0 45 0 ~ ~ ~ ~
978. 2020-09-08 09:14 10.6 10.6 10.0 87 ~ ~ 962 0.00 0 0 68 0 324 2 ~ ~ ~ ~
979. 2020-09-08 10:14 13.7 13.7 10.0 66 ~ ~ 962 0.00 0 0 68 0 323 2 ~ ~ ~ ~
980. 2020-09-08 11:14 18.5 18.5 10.0 46 ~ ~ 962 0.00 0 0 68 0 266 2 ~ ~ ~ ~
981. 2020-09-08 12:14 22.6 22.6 10.0 35 ~ ~ 962 0.00 0 0 68 0 267 5 ~ ~ ~ ~
982. 2020-09-08 13:14 26.6 26.6 10.0 27 ~ ~ 962 0.00 0 0 68 0 267 3 ~ ~ ~ ~
983. 2020-09-08 14:14 29.3 29.3 10.0 16 ~ ~ 962 0.00 0 0 68 0 170 3 ~ ~ ~ ~
984. 2020-09-08 15:14 31.6 31.6 10.0 21 ~ ~ 962 0.00 0 0 68 0 200 3 ~ ~ ~ ~
985. 2020-09-08 16:14 31.2 31.6 10.0 32 ~ ~ 962 0.00 0 0 68 0 202 0 ~ ~ ~ ~
986. 2020-09-08 17:14 24.8 31.6 10.0 45 ~ ~ 962 0.00 0 0 68 0 88 2 ~ ~ ~ ~
987. 2020-09-08 18:14 20.1 31.6 10.0 61 ~ ~ 962 0.00 0 0 68 0 88 0 ~ ~ ~ ~
988. 2020-09-08 19:14 17.7 31.6 10.0 68 ~ ~ 962 0.00 0 0 68 0 88 0 ~ ~ ~ ~
989. 2020-09-08 20:14 16.2 31.6 10.0 75 ~ ~ 962 0.00 0 0 68 0 88 0 ~ ~ ~ ~
990. 2020-09-08 21:14 14.8 31.6 10.0 76 ~ ~ 962 0.00 0 0 68 0 88 0 ~ ~ ~ ~
991. 2020-09-08 22:14 13.9 31.6 10.0 81 ~ ~ 962 0.00 0 0 68 0 88 0 ~ ~ ~ ~
992. 2020-09-08 23:14 13.2 31.6 10.0 83 ~ ~ 962 0.00 0 0 68 0 88 0 ~ ~ ~ ~
993. 2020-09-09 00:14 12.4 31.6 10.0 84 ~ ~ 962 0.00 0 0 68 0 88 3 ~ ~ ~ ~
994. 2020-09-09 01:14 11.6 31.6 10.0 87 ~ ~ 962 0.00 0 0 68 0 329 0 ~ ~ ~ ~
995. 2020-09-09 02:14 11.3 31.6 10.0 87 ~ ~ 962 0.00 0 0 68 0 329 0 ~ ~ ~ ~
996. 2020-09-09 03:14 10.8 31.6 10.0 89 ~ ~ 962 0.00 0 0 68 0 329 2 ~ ~ ~ ~
997. 2020-09-09 04:14 10.3 31.6 10.0 91 ~ ~ 962 0.00 0 0 68 0 329 0 ~ ~ ~ ~
998. 2020-09-09 05:14 10.3 31.6 10.0 92 ~ ~ 962 0.00 0 0 68 0 329 0 ~ ~ ~ ~
999. 2020-09-09 06:14 10.3 31.6 10.0 92 ~ ~ 962 0.00 0 0 68 0 326 0 ~ ~ ~ ~
1000. 2020-09-09 07:14 9.9 31.6 9.9 93 ~ ~ 962 0.00 0 0 68 0 326 0 ~ ~ ~ ~
1001. 2020-09-09 08:14 10.2 10.2 9.9 94 ~ ~ 962 0.00 0 0 68 0 326 0 ~ ~ ~ ~
1002. 2020-09-09 09:14 11.6 11.6 9.9 96 ~ ~ 962 0.00 0 0 68 0 326 0 ~ ~ ~ ~
1003. 2020-09-09 10:14 14.6 14.6 9.9 90 ~ ~ 962 0.00 0 0 68 0 326 0 ~ ~ ~ ~
1004. 2020-09-09 11:14 19.8 19.8 9.9 68 ~ ~ 962 0.00 0 0 68 0 246 0 ~ ~ ~ ~
1005. 2020-09-09 12:14 24.7 24.7 9.9 50 ~ ~ 962 0.00 0 0 68 0 246 0 ~ ~ ~ ~
1006. 2020-09-09 13:14 29.1 29.1 9.9 42 ~ ~ 962 0.00 0 0 68 0 299 2 ~ ~ ~ ~
1007. 2020-09-09 14:14 32.4 32.4 9.9 33 ~ ~ 962 0.00 0 0 68 0 299 2 ~ ~ ~ ~
1008. 2020-09-09 15:14 34.7 34.7 9.9 36 ~ ~ 962 0.00 0 0 68 0 242 2 ~ ~ ~ ~
1009. 2020-09-09 16:14 33.0 34.7 9.9 38 ~ ~ 962 0.00 0 0 68 0 242 2 ~ ~ ~ ~
1010. 2020-09-09 17:14 27.3 34.7 9.9 48 ~ ~ 962 0.00 0 0 68 0 242 0 ~ ~ ~ ~
1011. 2020-09-09 18:14 22.3 34.7 9.9 63 ~ ~ 962 0.00 0 0 68 0 242 0 ~ ~ ~ ~
1012. 2020-09-09 19:14 19.4 34.7 9.9 70 ~ ~ 962 0.00 0 0 68 0 242 0 ~ ~ ~ ~
1013. 2020-09-09 20:14 17.7 34.7 9.9 74 ~ ~ 962 0.00 0 0 68 0 242 2 ~ ~ ~ ~
1014. 2020-09-09 21:15 16.3 34.7 9.9 78 ~ ~ 962 0.00 0 0 68 0 242 0 ~ ~ ~ ~
1015. 2020-09-09 22:14 15.1 34.7 9.9 82 ~ ~ 962 0.00 0 0 68 0 242 0 ~ ~ ~ ~
1016. 2020-09-09 23:14 14.8 34.7 9.9 83 ~ ~ 962 0.00 0 0 68 0 242 0 ~ ~ ~ ~
1017. 2020-09-10 00:14 14.1 34.7 9.9 82 ~ ~ 962 0.00 0 0 68 0 242 0 ~ ~ ~ ~
1018. 2020-09-10 01:14 13.3 34.7 9.9 85 ~ ~ 962 0.00 0 0 68 0 242 0 ~ ~ ~ ~
1019. 2020-09-10 02:14 12.6 34.7 9.9 88 ~ ~ 962 0.00 0 0 68 0 248 2 ~ ~ ~ ~
1020. 2020-09-10 03:14 12.3 34.7 9.9 89 ~ ~ 962 0.00 0 0 68 0 248 0 ~ ~ ~ ~
1021. 2020-09-10 04:14 11.9 34.7 9.9 90 ~ ~ 962 0.00 0 0 68 0 248 0 ~ ~ ~ ~
1022. 2020-09-10 05:14 11.9 34.7 9.9 91 ~ ~ 962 0.00 0 0 68 0 248 0 ~ ~ ~ ~
1023. 2020-09-10 06:14 11.3 34.7 9.9 90 ~ ~ 962 0.00 0 0 68 0 248 2 ~ ~ ~ ~
1024. 2020-09-10 07:14 11.3 34.7 9.9 92 ~ ~ 962 0.00 0 0 68 0 248 0 ~ ~ ~ ~
1025. 2020-09-10 08:14 11.3 11.3 11.3 93 ~ ~ 962 0.00 0 0 68 0 248 2 ~ ~ ~ ~
1026. 2020-09-10 09:14 12.2 12.2 11.3 95 ~ ~ 962 0.00 0 0 68 0 263 2 ~ ~ ~ ~
1027. 2020-09-10 10:14 14.9 14.9 11.3 91 ~ ~ 962 0.00 0 0 68 0 263 0 ~ ~ ~ ~
1028. 2020-09-10 11:14 20.8 20.8 11.3 72 ~ ~ 962 0.00 0 0 68 0 263 2 ~ ~ ~ ~
1029. 2020-09-10 12:14 25.6 25.6 11.3 46 ~ ~ 962 0.00 0 0 68 0 263 2 ~ ~ ~ ~
1030. 2020-09-10 13:14 30.3 30.3 11.3 34 ~ ~ 962 0.00 0 0 68 0 263 2 ~ ~ ~ ~
1031. 2020-09-10 14:14 33.4 33.4 11.3 28 ~ ~ 962 0.00 0 0 68 0 266 3 ~ ~ ~ ~
1032. 2020-09-10 15:14 35.2 35.2 11.3 29 ~ ~ 962 0.00 0 0 68 0 266 3 ~ ~ ~ ~
1033. 2020-09-10 16:14 33.7 35.2 11.3 36 ~ ~ 962 0.00 0 0 68 0 266 2 ~ ~ ~ ~
1034. 2020-09-10 17:14 27.7 35.2 11.3 50 ~ ~ 962 0.00 0 0 68 0 269 0 ~ ~ ~ ~
1035. 2020-09-10 18:14 22.8 35.2 11.3 60 ~ ~ 962 0.00 0 0 68 0 269 0 ~ ~ ~ ~
1036. 2020-09-10 19:14 20.3 35.2 11.3 70 ~ ~ 962 0.00 0 0 68 0 269 0 ~ ~ ~ ~
1037. 2020-09-10 20:14 18.5 35.2 11.3 73 ~ ~ 962 0.00 0 0 68 0 269 0 ~ ~ ~ ~
1038. 2020-09-10 21:14 17.2 35.2 11.3 77 ~ ~ 962 0.00 0 0 68 0 269 0 ~ ~ ~ ~
1039. 2020-09-10 22:14 16.3 35.2 11.3 79 ~ ~ 962 0.00 0 0 68 0 269 0 ~ ~ ~ ~
1040. 2020-09-10 23:14 15.4 35.2 11.3 80 ~ ~ 962 0.00 0 0 68 0 269 0 ~ ~ ~ ~
1041. 2020-09-11 00:15 14.6 35.2 11.3 87 ~ ~ 962 0.00 0 0 68 0 269 0 ~ ~ ~ ~
1042. 2020-09-11 01:14 13.9 35.2 11.3 84 ~ ~ 962 0.00 0 0 68 0 269 0 ~ ~ ~ ~
1043. 2020-09-11 02:14 13.5 35.2 11.3 83 ~ ~ 962 0.00 0 0 68 0 269 3 ~ ~ ~ ~
1044. 2020-09-11 03:14 13.1 35.2 11.3 87 ~ ~ 962 0.00 0 0 68 0 269 0 ~ ~ ~ ~
1045. 2020-09-11 04:14 12.8 35.2 11.3 88 ~ ~ 962 0.00 0 0 68 0 269 0 ~ ~ ~ ~
1046. 2020-09-11 05:14 12.3 35.2 11.3 90 ~ ~ 962 0.00 0 0 68 0 269 0 ~ ~ ~ ~
1047. 2020-09-11 06:14 11.9 35.2 11.3 90 ~ ~ 962 0.00 0 0 68 0 142 0 ~ ~ ~ ~
1048. 2020-09-11 07:14 11.6 35.2 11.3 90 ~ ~ 962 0.00 0 0 68 0 237 0 ~ ~ ~ ~
1049. 2020-09-11 08:14 11.5 11.6 11.5 91 ~ ~ 962 0.00 0 0 68 0 237 0 ~ ~ ~ ~
1050. 2020-09-11 09:14 12.3 12.3 11.5 94 ~ ~ 962 0.00 0 0 68 0 237 0 ~ ~ ~ ~
1051. 2020-09-11 10:14 15.2 15.2 11.5 85 ~ ~ 962 0.00 0 0 68 0 237 0 ~ ~ ~ ~
1052. 2020-09-11 11:14 20.1 20.1 11.5 64 ~ ~ 962 0.00 0 0 68 0 237 0 ~ ~ ~ ~
1053. 2020-09-11 12:14 24.3 24.3 11.5 47 ~ ~ 962 0.00 0 0 68 0 238 5 ~ ~ ~ ~
1054. 2020-09-11 13:14 28.1 28.1 11.5 42 ~ ~ 962 0.00 0 0 68 0 238 3 ~ ~ ~ ~
1055. 2020-09-11 14:14 30.7 30.7 11.5 32 ~ ~ 962 0.00 0 0 68 0 238 2 ~ ~ ~ ~
1056. 2020-09-11 15:14 32.9 32.9 11.5 33 ~ ~ 962 0.00 0 0 68 0 202 2 ~ ~ ~ ~
1057. 2020-09-11 16:14 32.4 32.9 11.5 41 ~ ~ 962 0.00 0 0 68 0 224 0 ~ ~ ~ ~
1058. 2020-09-11 17:14 26.2 32.9 11.5 55 ~ ~ 962 0.00 0 0 68 0 56 0 ~ ~ ~ ~
1059. 2020-09-11 18:14 22.1 32.9 11.5 66 ~ ~ 962 0.00 0 0 68 0 56 0 ~ ~ ~ ~
1060. 2020-09-11 19:14 19.7 32.9 11.5 72 ~ ~ 962 0.00 0 0 68 0 56 0 ~ ~ ~ ~
1061. 2020-09-11 20:14 18.1 32.9 11.5 77 ~ ~ 962 0.00 0 0 68 0 56 0 ~ ~ ~ ~
1062. 2020-09-11 21:14 16.7 32.9 11.5 80 ~ ~ 962 0.00 0 0 68 0 56 0 ~ ~ ~ ~
1063. 2020-09-11 22:14 15.7 32.9 11.5 84 ~ ~ 962 0.00 0 0 68 0 56 0 ~ ~ ~ ~
1064. 2020-09-11 23:14 15.0 32.9 11.5 84 ~ ~ 962 0.00 0 0 68 0 56 0 ~ ~ ~ ~
1065. 2020-09-12 00:14 14.2 32.9 11.5 87 ~ ~ 962 0.00 0 0 68 0 56 0 ~ ~ ~ ~
1066. 2020-09-12 01:15 13.8 32.9 11.5 88 ~ ~ 962 0.00 0 0 68 0 56 0 ~ ~ ~ ~
1067. 2020-09-12 02:14 13.2 32.9 11.5 87 ~ ~ 962 0.00 0 0 68 0 56 0 ~ ~ ~ ~
1068. 2020-09-12 03:14 12.6 32.9 11.5 90 ~ ~ 962 0.00 0 0 68 0 56 0 ~ ~ ~ ~
1069. 2020-09-12 04:14 12.0 32.9 11.5 91 ~ ~ 962 0.00 0 0 68 0 321 0 ~ ~ ~ ~
1070. 2020-09-12 05:14 11.4 32.9 11.4 91 ~ ~ 962 0.00 0 0 68 0 321 0 ~ ~ ~ ~
1071. 2020-09-12 06:14 11.2 32.9 11.2 93 ~ ~ 962 0.00 0 0 68 0 321 0 ~ ~ ~ ~
1072. 2020-09-12 07:14 10.8 32.9 10.8 93 ~ ~ 962 0.00 0 0 68 0 321 0 ~ ~ ~ ~
1073. 2020-09-12 08:14 10.7 10.8 10.7 94 ~ ~ 962 0.00 0 0 68 0 321 0 ~ ~ ~ ~
1074. 2020-09-12 09:14 11.4 11.4 10.7 95 ~ ~ 962 0.00 0 0 68 0 321 0 ~ ~ ~ ~
1075. 2020-09-12 10:14 14.2 14.2 10.7 93 ~ ~ 962 0.00 0 0 68 0 321 2 ~ ~ ~ ~
1076. 2020-09-12 11:14 18.0 18.0 10.7 76 ~ ~ 962 0.00 0 0 68 0 321 3 ~ ~ ~ ~
1077. 2020-09-12 12:14 21.6 21.6 10.7 66 ~ ~ 962 0.00 0 0 68 0 207 2 ~ ~ ~ ~
1078. 2020-09-12 13:14 24.9 24.9 10.7 55 ~ ~ 962 0.00 0 0 68 0 283 2 ~ ~ ~ ~
1079. 2020-09-12 14:14 26.7 26.7 10.7 51 ~ ~ 962 0.00 0 0 68 0 192 3 ~ ~ ~ ~
1080. 2020-09-12 15:14 28.6 28.6 10.7 50 ~ ~ 962 0.00 0 0 68 0 193 3 ~ ~ ~ ~
1081. 2020-09-12 16:14 28.2 28.6 10.7 48 ~ ~ 962 0.00 0 0 68 2 209 2 ~ ~ ~ ~
1082. 2020-09-12 17:14 25.2 28.6 10.7 65 ~ ~ 962 0.00 0 0 68 0 244 0 ~ ~ ~ ~
1083. 2020-09-12 18:14 22.2 28.6 10.7 72 ~ ~ 962 0.00 0 0 68 0 179 0 ~ ~ ~ ~
1084. 2020-09-12 19:14 19.7 28.6 10.7 78 ~ ~ 962 0.00 0 0 68 0 179 0 ~ ~ ~ ~
1085. 2020-09-12 20:14 17.6 28.6 10.7 82 ~ ~ 962 0.00 0 0 68 0 179 0 ~ ~ ~ ~
1086. 2020-09-12 21:14 16.0 28.6 10.7 85 ~ ~ 962 0.00 0 0 68 0 179 0 ~ ~ ~ ~
1087. 2020-09-12 22:14 14.9 28.6 10.7 86 ~ ~ 962 0.00 0 0 68 0 179 0 ~ ~ ~ ~
1088. 2020-09-12 23:14 13.9 28.6 10.7 88 ~ ~ 962 0.00 0 0 68 0 179 0 ~ ~ ~ ~
1089. 2020-09-13 00:14 13.3 28.6 10.7 89 ~ ~ 962 0.00 0 0 68 0 179 0 ~ ~ ~ ~
1090. 2020-09-13 01:14 12.6 28.6 10.7 91 ~ ~ 962 0.00 0 0 68 0 179 0 ~ ~ ~ ~
1091. 2020-09-13 02:15 12.1 28.6 10.7 91 ~ ~ 962 0.00 0 0 68 0 179 0 ~ ~ ~ ~
1092. 2020-09-13 03:14 11.5 28.6 10.7 92 ~ ~ 962 0.00 0 0 68 0 179 0 ~ ~ ~ ~
1093. 2020-09-13 04:14 11.3 28.6 10.7 93 ~ ~ 962 0.00 0 0 68 0 179 0 ~ ~ ~ ~
1094. 2020-09-13 05:14 11.2 28.6 10.7 93 ~ ~ 962 0.00 0 0 68 0 179 0 ~ ~ ~ ~
1095. 2020-09-13 06:14 11.5 28.6 10.7 94 ~ ~ 962 0.00 0 0 68 0 179 0 ~ ~ ~ ~
1096. 2020-09-13 07:14 11.9 28.6 10.7 94 ~ ~ 962 0.00 0 0 68 0 179 0 ~ ~ ~ ~
1097. 2020-09-13 08:14 12.3 12.3 11.9 94 ~ ~ 962 0.00 0 0 68 0 179 0 ~ ~ ~ ~
1098. 2020-09-13 09:14 12.9 12.9 11.9 93 ~ ~ 962 0.00 0 0 68 0 179 0 ~ ~ ~ ~
1099. 2020-09-13 10:14 13.7 13.7 11.9 92 ~ ~ 962 0.00 0 0 68 0 179 0 ~ ~ ~ ~
1100. 2020-09-13 11:14 15.3 15.3 11.9 90 ~ ~ 962 0.00 0 0 68 0 179 0 ~ ~ ~ ~
1101. 2020-09-13 12:14 15.9 15.9 11.9 89 ~ ~ 962 0.00 0 0 68 0 179 0 ~ ~ ~ ~
1102. 2020-09-13 13:14 16.1 16.1 11.9 89 ~ ~ 962 0.00 0 0 68 0 179 0 ~ ~ ~ ~
1103. 2020-09-13 14:14 16.7 16.7 11.9 88 ~ ~ 962 0.00 0 0 68 0 179 0 ~ ~ ~ ~
1104. 2020-09-13 15:14 17.2 17.2 11.9 86 ~ ~ 962 0.00 0 0 68 0 179 0 ~ ~ ~ ~
1105. 2020-09-13 16:14 17.4 17.4 11.9 85 ~ ~ 962 0.00 0 0 68 0 179 0 ~ ~ ~ ~
1106. 2020-09-13 17:14 17.2 17.4 11.9 88 ~ ~ 962 0.00 0 0 68 0 179 0 ~ ~ ~ ~
1107. 2020-09-13 18:14 16.4 17.4 11.9 89 ~ ~ 962 0.00 0 0 68 0 179 0 ~ ~ ~ ~
1108. 2020-09-13 19:14 15.7 17.4 11.9 89 ~ ~ 962 0.00 0 0 68 0 179 0 ~ ~ ~ ~
1109. 2020-09-13 20:14 15.1 17.4 11.9 90 ~ ~ 962 0.00 0 0 68 0 179 0 ~ ~ ~ ~
1110. 2020-09-13 21:14 14.4 17.4 11.9 90 ~ ~ 962 0.00 0 0 68 0 179 0 ~ ~ ~ ~
1111. 2020-09-13 22:14 13.8 17.4 11.9 91 ~ ~ 962 0.00 0 0 68 0 179 0 ~ ~ ~ ~
1112. 2020-09-13 23:14 13.2 17.4 11.9 92 ~ ~ 962 0.00 0 0 68 0 179 0 ~ ~ ~ ~
1113. 2020-09-14 00:14 13.2 17.4 11.9 93 ~ ~ 962 0.00 0 0 68 0 179 0 ~ ~ ~ ~
1114. 2020-09-14 01:14 13.2 17.4 11.9 93 ~ ~ 962 0.00 0 0 68 0 179 0 ~ ~ ~ ~
1115. 2020-09-14 02:14 13.1 17.4 11.9 93 ~ ~ 962 0.00 0 0 68 0 179 0 ~ ~ ~ ~
1116. 2020-09-14 03:14 13.1 17.4 11.9 93 ~ ~ 962 0.00 0 0 68 0 179 0 ~ ~ ~ ~
1117. 2020-09-14 04:14 13.2 17.4 11.9 93 ~ ~ 962 0.00 0 0 68 0 179 0 ~ ~ ~ ~
1118. 2020-09-14 05:14 13.1 17.4 11.9 93 ~ ~ 962 0.00 0 0 68 0 179 0 ~ ~ ~ ~
1119. 2020-09-14 06:14 13.1 17.4 11.9 93 ~ ~ 962 0.00 0 0 68 0 179 0 ~ ~ ~ ~
1120. 2020-09-14 07:15 12.8 17.4 11.9 93 ~ ~ 962 0.00 0 0 68 0 179 2 ~ ~ ~ ~
1121. 2020-09-14 08:14 12.3 12.8 12.3 93 ~ ~ 962 0.00 0 0 68 0 179 0 ~ ~ ~ ~
1122. 2020-09-14 09:14 12.7 12.8 12.3 94 ~ ~ 962 0.00 0 0 68 0 179 0 ~ ~ ~ ~
1123. 2020-09-14 10:14 13.8 13.8 12.3 94 ~ ~ 962 0.00 0 0 68 0 179 0 ~ ~ ~ ~
1124. 2020-09-14 11:14 16.4 16.4 12.3 88 ~ ~ 962 0.00 0 0 68 0 179 0 ~ ~ ~ ~
1125. 2020-09-14 12:14 17.2 17.2 12.3 86 ~ ~ 962 0.00 0 0 68 0 179 2 ~ ~ ~ ~
1126. 2020-09-14 13:14 18.1 18.1 12.3 81 ~ ~ 962 0.00 0 0 68 0 179 0 ~ ~ ~ ~
1127. 2020-09-14 14:14 19.2 19.2 12.3 81 ~ ~ 962 0.00 0 0 68 0 179 0 ~ ~ ~ ~
1128. 2020-09-14 15:14 19.3 19.3 12.3 80 ~ ~ 962 0.00 0 0 68 0 179 2 ~ ~ ~ ~
1129. 2020-09-14 16:14 19.1 19.3 12.3 81 ~ ~ 962 0.00 0 0 68 0 179 0 ~ ~ ~ ~
1130. 2020-09-14 17:14 18.8 19.3 12.3 80 ~ ~ 962 0.00 0 0 68 0 179 0 ~ ~ ~ ~
1131. 2020-09-14 18:14 18.2 19.3 12.3 84 ~ ~ 962 0.00 0 0 68 0 178 0 ~ ~ ~ ~
1132. 2020-09-14 19:14 16.8 19.3 12.3 86 ~ ~ 962 0.00 0 0 68 0 178 0 ~ ~ ~ ~
1133. 2020-09-14 20:14 16.1 19.3 12.3 90 ~ ~ 962 0.00 0 0 68 0 139 0 ~ ~ ~ ~
1134. 2020-09-14 21:14 15.1 19.3 12.3 93 ~ ~ 963 1.27 1 1 70 0 139 0 ~ ~ ~ ~
1135. 2020-09-14 22:14 14.4 19.3 12.3 94 ~ ~ 964 0.25 2 2 70 0 139 0 ~ ~ ~ ~
1136. 2020-09-14 23:14 14.2 19.3 12.3 95 ~ ~ 964 0.00 2 2 70 0 139 0 ~ ~ ~ ~
1137. 2020-09-15 00:14 13.9 19.3 12.3 95 ~ ~ 964 0.00 2 2 70 0 139 0 ~ ~ ~ ~
1138. 2020-09-15 01:14 13.5 19.3 12.3 95 ~ ~ 964 0.00 2 2 70 0 139 0 ~ ~ ~ ~
1139. 2020-09-15 02:14 13.4 19.3 12.3 95 ~ ~ 964 0.00 2 2 70 0 139 2 ~ ~ ~ ~
1140. 2020-09-15 03:14 13.4 19.3 12.3 96 ~ ~ 964 0.00 2 2 70 0 139 2 ~ ~ ~ ~
1141. 2020-09-15 04:15 13.4 19.3 12.3 96 ~ ~ 964 0.25 2 2 70 0 139 2 ~ ~ ~ ~
1142. 2020-09-15 05:14 13.4 19.3 12.3 96 ~ ~ 964 0.00 2 2 70 0 139 0 ~ ~ ~ ~
1143. 2020-09-15 06:14 13.2 19.3 12.3 96 ~ ~ 964 0.00 2 2 70 0 139 0 ~ ~ ~ ~
1144. 2020-09-15 07:14 13.1 19.3 12.3 96 ~ ~ 964 0.00 2 2 70 0 139 0 ~ ~ ~ ~
1145. 2020-09-15 08:14 13.3 13.3 13.1 96 ~ ~ 964 0.00 2 2 70 0 139 0 ~ ~ ~ ~
1146. 2020-09-15 09:14 13.6 13.6 13.1 97 ~ ~ 964 0.00 2 2 70 0 140 0 ~ ~ ~ ~
1147. 2020-09-15 10:16 14.4 14.4 13.1 97 ~ ~ 964 0.00 2 2 70 0 139 0 ~ ~ ~ ~
1148. 2020-09-15 11:14 15.4 15.4 13.1 97 ~ ~ 964 0.00 2 2 70 0 139 0 ~ ~ ~ ~
1149. 2020-09-15 12:14 17.0 17.0 13.1 95 ~ ~ 964 0.00 2 2 70 0 140 0 ~ ~ ~ ~
1150. 2020-09-15 13:14 19.2 19.2 13.1 87 ~ ~ 964 0.00 2 2 70 0 139 0 ~ ~ ~ ~
1151. 2020-09-15 14:14 19.8 19.8 13.1 89 ~ ~ 964 0.00 2 2 70 0 140 0 ~ ~ ~ ~
1152. 2020-09-15 15:14 22.6 22.6 13.1 70 ~ ~ 964 0.00 2 2 70 0 140 0 ~ ~ ~ ~
1153. 2020-09-15 16:14 23.2 23.2 13.1 74 ~ ~ 964 0.00 2 2 70 0 140 0 ~ ~ ~ ~
1154. 2020-09-15 17:14 20.9 23.2 13.1 82 ~ ~ 964 0.00 2 2 70 0 139 0 ~ ~ ~ ~
1155. 2020-09-15 18:14 19.3 23.2 13.1 86 ~ ~ 964 0.00 2 2 70 0 139 0 ~ ~ ~ ~
1156. 2020-09-15 19:14 17.6 23.2 13.1 86 ~ ~ 964 0.00 2 2 70 0 139 0 ~ ~ ~ ~
1157. 2020-09-15 20:14 15.7 23.2 13.1 90 ~ ~ 964 0.00 2 2 70 0 139 0 ~ ~ ~ ~
1158. 2020-09-15 21:14 14.2 23.2 13.1 92 ~ ~ 964 0.00 1 2 70 0 140 2 ~ ~ ~ ~
1159. 2020-09-15 22:14 13.3 23.2 13.1 94 ~ ~ 964 0.00 0 2 70 0 140 0 ~ ~ ~ ~
1160. 2020-09-15 23:14 12.8 23.2 12.8 94 ~ ~ 964 0.00 0 2 70 0 139 0 ~ ~ ~ ~
1161. 2020-09-16 00:15 12.7 23.2 12.7 95 ~ ~ 964 0.00 0 2 70 0 140 2 ~ ~ ~ ~
1162. 2020-09-16 01:14 13.3 23.2 12.7 96 ~ ~ 964 0.00 0 2 70 0 139 0 ~ ~ ~ ~
1163. 2020-09-16 02:14 13.4 23.2 12.7 96 ~ ~ 964 0.00 0 2 70 0 139 0 ~ ~ ~ ~
1164. 2020-09-16 03:14 13.4 23.2 12.7 96 ~ ~ 964 0.00 0 2 70 0 139 0 ~ ~ ~ ~
1165. 2020-09-16 04:14 13.5 23.2 12.7 96 ~ ~ 964 0.00 0 2 70 0 139 0 ~ ~ ~ ~
1166. 2020-09-16 05:14 13.4 23.2 12.7 96 ~ ~ 964 0.00 0 2 70 0 140 0 ~ ~ ~ ~
1167. 2020-09-16 06:14 13.1 23.2 12.7 96 ~ ~ 964 0.00 0 2 70 0 140 0 ~ ~ ~ ~
1168. 2020-09-16 07:14 12.7 23.2 12.7 95 ~ ~ 964 0.00 0 2 70 0 140 0 ~ ~ ~ ~
1169. 2020-09-16 08:14 13.0 13.0 12.7 96 ~ ~ 964 0.00 0 2 70 0 139 0 ~ ~ ~ ~
1170. 2020-09-16 09:14 13.7 13.7 12.7 97 ~ ~ 964 0.00 0 2 70 0 139 0 ~ ~ ~ ~
1171. 2020-09-16 10:14 14.9 14.9 12.7 97 ~ ~ 964 0.00 0 2 70 0 140 2 ~ ~ ~ ~
1172. 2020-09-16 11:14 17.2 17.2 12.7 96 ~ ~ 964 0.00 0 2 70 0 140 2 ~ ~ ~ ~
1173. 2020-09-16 12:14 20.4 20.4 12.7 82 ~ ~ 964 0.00 0 2 70 0 140 2 ~ ~ ~ ~
1174. 2020-09-16 13:14 21.8 21.8 12.7 79 ~ ~ 964 0.00 0 2 70 0 140 0 ~ ~ ~ ~
1175. 2020-09-16 14:14 21.7 21.8 12.7 83 ~ ~ 964 0.00 0 2 70 0 140 0 ~ ~ ~ ~
1176. 2020-09-16 15:14 23.2 23.2 12.7 80 ~ ~ 964 0.00 0 2 70 0 140 0 ~ ~ ~ ~
1177. 2020-09-16 16:14 23.6 23.6 12.7 72 ~ ~ 964 0.00 0 2 70 0 140 0 ~ ~ ~ ~
1178. 2020-09-16 17:14 21.8 23.6 12.7 82 ~ ~ 964 0.00 0 2 70 0 139 0 ~ ~ ~ ~
1179. 2020-09-16 18:14 20.3 23.6 12.7 86 ~ ~ 964 0.00 0 2 70 0 140 0 ~ ~ ~ ~
1180. 2020-09-16 19:14 18.2 23.6 12.7 88 ~ ~ 964 0.00 0 2 70 0 140 0 ~ ~ ~ ~
1181. 2020-09-16 20:14 16.6 23.6 12.7 90 ~ ~ 964 0.00 0 2 70 0 140 0 ~ ~ ~ ~
1182. 2020-09-16 21:14 15.3 23.6 12.7 91 ~ ~ 964 0.00 0 2 70 0 140 0 ~ ~ ~ ~
1183. 2020-09-16 22:14 14.8 23.6 12.7 93 ~ ~ 964 0.00 0 2 70 0 140 0 ~ ~ ~ ~
1184. 2020-09-16 23:14 14.2 23.6 12.7 93 ~ ~ 964 0.00 0 2 70 0 263 3 ~ ~ ~ ~
1185. 2020-09-17 00:14 13.7 23.6 12.7 93 ~ ~ 964 0.00 0 2 69 0 263 0 ~ ~ ~ ~
1186. 2020-09-17 01:14 13.2 23.6 12.7 93 ~ ~ 964 0.00 0 2 68 0 263 0 ~ ~ ~ ~
1187. 2020-09-17 02:14 12.7 23.6 12.7 94 ~ ~ 964 0.00 0 2 66 0 263 0 ~ ~ ~ ~
1188. 2020-09-17 03:14 12.7 23.6 12.7 95 ~ ~ 964 0.00 0 2 65 0 153 8 ~ ~ ~ ~
1189. 2020-09-17 04:14 12.7 23.6 12.7 95 ~ ~ 964 0.00 0 2 64 0 153 0 ~ ~ ~ ~
1190. 2020-09-17 05:14 12.1 23.6 12.1 94 ~ ~ 964 0.00 0 2 64 0 153 0 ~ ~ ~ ~
1191. 2020-09-17 06:14 11.7 23.6 11.7 95 ~ ~ 964 0.00 0 2 64 0 154 0 ~ ~ ~ ~
1192. 2020-09-17 07:14 11.4 23.6 11.4 95 ~ ~ 964 0.00 0 2 64 0 154 0 ~ ~ ~ ~
1193. 2020-09-17 08:14 11.2 11.4 11.2 95 ~ ~ 964 0.00 0 2 64 0 154 0 ~ ~ ~ ~
1194. 2020-09-17 09:14 11.7 11.7 11.2 96 ~ ~ 964 0.00 0 2 64 0 154 0 ~ ~ ~ ~
1195. 2020-09-17 10:14 12.9 12.9 11.2 97 ~ ~ 964 0.00 0 2 64 0 154 0 ~ ~ ~ ~
1196. 2020-09-17 11:14 15.3 15.3 11.2 96 ~ ~ 964 0.00 0 2 64 0 154 0 ~ ~ ~ ~
1197. 2020-09-17 12:14 18.5 18.5 11.2 84 ~ ~ 964 0.00 0 2 64 0 154 0 ~ ~ ~ ~
1198. 2020-09-17 13:14 20.2 20.2 11.2 83 ~ ~ 964 0.00 0 2 64 0 154 0 ~ ~ ~ ~
1199. 2020-09-17 14:14 21.6 21.6 11.2 78 ~ ~ 964 0.00 0 2 64 0 177 0 ~ ~ ~ ~
1200. 2020-09-17 15:14 22.2 22.2 11.2 75 ~ ~ 964 0.00 0 2 63 0 177 0 ~ ~ ~ ~
1201. 2020-09-17 16:14 22.4 22.4 11.2 77 ~ ~ 964 0.00 0 2 60 0 177 0 ~ ~ ~ ~
1202. 2020-09-17 17:14 20.7 22.4 11.2 81 ~ ~ 964 0.00 0 2 59 0 177 0 ~ ~ ~ ~
1203. 2020-09-17 18:14 18.9 22.4 11.2 84 ~ ~ 964 0.00 0 2 58 0 177 0 ~ ~ ~ ~
1204. 2020-09-17 19:14 17.0 22.4 11.2 86 ~ ~ 964 0.00 0 2 56 0 177 0 ~ ~ ~ ~
1205. 2020-09-17 20:14 15.3 22.4 11.2 87 ~ ~ 964 0.00 0 2 56 0 177 0 ~ ~ ~ ~
1206. 2020-09-17 21:14 13.9 22.4 11.2 91 ~ ~ 964 0.00 0 1 56 0 177 0 ~ ~ ~ ~
1207. 2020-09-17 22:14 13.1 22.4 11.2 92 ~ ~ 964 0.00 0 0 52 0 177 0 ~ ~ ~ ~
1208. 2020-09-17 23:15 12.6 22.4 11.2 92 ~ ~ 964 0.00 0 0 52 0 177 0 ~ ~ ~ ~
1209. 2020-09-18 00:14 12.1 22.4 11.2 94 ~ ~ 964 0.00 0 0 52 0 177 0 ~ ~ ~ ~
1210. 2020-09-18 01:14 11.6 22.4 11.2 94 ~ ~ 964 0.00 0 0 50 0 177 0 ~ ~ ~ ~
1211. 2020-09-18 02:14 11.1 22.4 11.1 94 ~ ~ 964 0.00 0 0 46 0 177 0 ~ ~ ~ ~
1212. 2020-09-18 03:14 10.8 22.4 10.8 94 ~ ~ 964 0.00 0 0 45 0 177 0 ~ ~ ~ ~
1213. 2020-09-18 04:14 10.7 22.4 10.7 95 ~ ~ 964 0.00 0 0 44 0 177 0 ~ ~ ~ ~
1214. 2020-09-18 05:14 10.4 22.4 10.4 95 ~ ~ 964 0.00 0 0 43 0 177 2 ~ ~ ~ ~
1215. 2020-09-18 06:14 10.1 22.4 10.1 95 ~ ~ 964 0.00 0 0 43 0 177 0 ~ ~ ~ ~
1216. 2020-09-18 07:14 9.8 22.4 9.8 95 ~ ~ 964 0.00 0 0 42 0 177 0 ~ ~ ~ ~
1217. 2020-09-18 08:14 9.9 9.9 9.8 96 ~ ~ 964 0.00 0 0 42 0 177 0 ~ ~ ~ ~
1218. 2020-09-18 09:14 10.7 10.7 9.8 97 ~ ~ 964 0.00 0 0 41 0 177 0 ~ ~ ~ ~
1219. 2020-09-18 10:14 11.9 11.9 9.8 97 ~ ~ 964 0.00 0 0 38 0 177 0 ~ ~ ~ ~
1220. 2020-09-18 11:14 14.2 14.2 9.8 97 ~ ~ 964 0.00 0 0 34 0 177 0 ~ ~ ~ ~
1221. 2020-09-18 12:14 16.7 16.7 9.8 87 ~ ~ 964 0.00 0 0 29 0 177 0 ~ ~ ~ ~
1222. 2020-09-18 13:14 19.0 19.0 9.8 76 ~ ~ 964 0.00 0 0 27 0 177 0 ~ ~ ~ ~
1223. 2020-09-18 14:15 20.7 20.7 9.8 74 ~ ~ 964 0.00 0 0 25 0 177 0 ~ ~ ~ ~
1224. 2020-09-18 15:14 20.7 20.7 9.8 76 ~ ~ 964 0.00 0 0 23 0 177 0 ~ ~ ~ ~
1225. 2020-09-18 16:14 21.0 21.0 9.8 79 ~ ~ 964 0.00 0 0 23 0 177 0 ~ ~ ~ ~
1226. 2020-09-18 17:14 20.1 21.0 9.8 81 ~ ~ 964 0.00 0 0 23 0 177 0 ~ ~ ~ ~
1227. 2020-09-18 18:14 18.3 21.0 9.8 85 ~ ~ 964 0.00 0 0 19 0 177 0 ~ ~ ~ ~
1228. 2020-09-18 19:14 17.0 21.0 9.8 87 ~ ~ 964 0.00 0 0 17 0 177 0 ~ ~ ~ ~
1229. 2020-09-18 20:14 16.2 21.0 9.8 89 ~ ~ 964 0.00 0 0 14 0 177 0 ~ ~ ~ ~
1230. 2020-09-18 21:14 15.6 21.0 9.8 89 ~ ~ 964 0.00 0 0 12 0 177 0 ~ ~ ~ ~
1231. 2020-09-18 22:14 15.2 21.0 9.8 91 ~ ~ 964 0.00 0 0 10 0 177 0 ~ ~ ~ ~
1232. 2020-09-18 23:14 14.9 21.0 9.8 91 ~ ~ 964 0.00 0 0 9 0 177 0 ~ ~ ~ ~
1233. 2020-09-19 00:14 14.9 21.0 9.8 93 ~ ~ 964 0.00 0 0 8 0 177 0 ~ ~ ~ ~
1234. 2020-09-19 01:14 14.9 21.0 9.8 94 ~ ~ 964 0.00 0 0 8 0 177 0 ~ ~ ~ ~
1235. 2020-09-19 02:14 14.6 21.0 9.8 94 ~ ~ 964 0.00 0 0 8 0 177 0 ~ ~ ~ ~
1236. 2020-09-19 03:14 14.6 21.0 9.8 95 ~ ~ 964 0.00 0 0 8 0 177 0 ~ ~ ~ ~
1237. 2020-09-19 04:14 14.5 21.0 9.8 95 ~ ~ 964 0.00 0 0 8 0 177 0 ~ ~ ~ ~
1238. 2020-09-19 05:14 14.3 21.0 9.8 95 ~ ~ 964 0.00 0 0 8 0 177 0 ~ ~ ~ ~
1239. 2020-09-19 06:14 14.2 21.0 9.8 95 ~ ~ 964 0.00 0 0 8 0 177 0 ~ ~ ~ ~
1240. 2020-09-19 07:14 14.1 21.0 9.8 95 ~ ~ 964 0.25 0 0 8 0 177 0 ~ ~ ~ ~
1241. 2020-09-19 08:14 14.1 14.1 14.1 96 ~ ~ 970 5.59 6 6 14 0 177 0 ~ ~ ~ ~
1242. 2020-09-19 09:14 14.2 14.2 14.1 96 ~ ~ 970 0.25 6 6 14 0 177 0 ~ ~ ~ ~
1243. 2020-09-19 10:14 14.4 14.4 14.1 96 ~ ~ 970 0.00 6 6 14 0 177 0 ~ ~ ~ ~
1244. 2020-09-19 11:14 15.4 15.4 14.1 97 ~ ~ 970 0.00 6 6 14 0 177 0 ~ ~ ~ ~
1245. 2020-09-19 12:14 16.8 16.8 14.1 97 ~ ~ 970 0.00 6 6 14 0 177 0 ~ ~ ~ ~
1246. 2020-09-19 13:14 17.7 17.7 14.1 97 ~ ~ 970 0.00 6 6 14 0 177 0 ~ ~ ~ ~
1247. 2020-09-19 14:14 18.1 18.1 14.1 96 ~ ~ 970 0.00 6 6 14 0 177 0 ~ ~ ~ ~
1248. 2020-09-19 15:14 18.5 18.5 14.1 91 ~ ~ 970 0.00 6 6 14 0 177 0 ~ ~ ~ ~
1249. 2020-09-19 16:14 18.2 18.5 14.1 94 ~ ~ 970 0.00 6 6 14 0 177 0 ~ ~ ~ ~
1250. 2020-09-19 17:15 18.0 18.5 14.1 93 ~ ~ 970 0.00 6 6 14 0 177 0 ~ ~ ~ ~
1251. 2020-09-19 18:14 17.4 18.5 14.1 93 ~ ~ 970 0.00 6 6 14 0 177 0 ~ ~ ~ ~
1252. 2020-09-19 19:14 16.3 18.5 14.1 92 ~ ~ 970 0.00 6 6 14 0 177 0 ~ ~ ~ ~
1253. 2020-09-19 20:14 15.2 18.5 14.1 93 ~ ~ 970 0.00 6 6 14 0 177 0 ~ ~ ~ ~
1254. 2020-09-19 21:14 14.5 18.5 14.1 94 ~ ~ 970 0.00 6 6 14 0 177 0 ~ ~ ~ ~
1255. 2020-09-19 22:14 14.1 18.5 14.1 94 ~ ~ 970 0.00 6 6 14 0 177 0 ~ ~ ~ ~
1256. 2020-09-19 23:14 13.8 18.5 13.8 95 ~ ~ 970 0.00 6 6 14 0 177 0 ~ ~ ~ ~
1257. 2020-09-20 00:14 13.7 18.5 13.7 95 ~ ~ 970 0.00 6 6 14 0 177 0 ~ ~ ~ ~
1258. 2020-09-20 01:14 13.6 18.5 13.6 95 ~ ~ 970 0.00 6 6 14 0 177 0 ~ ~ ~ ~
1259. 2020-09-20 02:14 13.6 18.5 13.6 96 ~ ~ 970 0.25 6 6 14 0 177 0 ~ ~ ~ ~
1260. 2020-09-20 03:14 13.6 18.5 13.6 96 ~ ~ 970 0.00 6 6 14 0 177 0 ~ ~ ~ ~
1261. 2020-09-20 04:14 13.4 18.5 13.4 96 ~ ~ 970 0.00 6 6 14 0 177 0 ~ ~ ~ ~
1262. 2020-09-20 05:14 13.2 18.5 13.2 96 ~ ~ 970 0.00 6 6 14 0 177 0 ~ ~ ~ ~
1263. 2020-09-20 06:14 13.1 18.5 13.1 96 ~ ~ 970 0.00 6 6 14 0 177 0 ~ ~ ~ ~
1264. 2020-09-20 07:14 13.0 18.5 13.0 96 ~ ~ 970 0.00 6 6 14 0 177 0 ~ ~ ~ ~
1265. 2020-09-20 08:14 13.1 13.1 13.0 96 ~ ~ 970 0.00 1 6 14 0 177 0 ~ ~ ~ ~
1266. 2020-09-20 09:14 13.6 13.6 13.0 97 ~ ~ 970 0.00 0 6 14 0 177 0 ~ ~ ~ ~
1267. 2020-09-20 10:14 14.6 14.6 13.0 97 ~ ~ 970 0.00 0 6 14 0 177 0 ~ ~ ~ ~
1268. 2020-09-20 11:14 15.6 15.6 13.0 97 ~ ~ 970 0.00 0 6 14 0 177 0 ~ ~ ~ ~
1269. 2020-09-20 12:14 16.3 16.3 13.0 96 ~ ~ 970 0.00 0 6 14 0 177 0 ~ ~ ~ ~
1270. 2020-09-20 13:14 17.2 17.2 13.0 91 ~ ~ 970 0.00 0 6 14 0 176 6 ~ ~ ~ ~
1271. 2020-09-20 14:14 18.7 18.7 13.0 91 ~ ~ 971 0.25 1 7 15 0 317 0 ~ ~ ~ ~
1272. 2020-09-20 15:14 19.4 19.4 13.0 89 ~ ~ 971 0.00 1 7 15 0 317 0 ~ ~ ~ ~
1273. 2020-09-20 16:15 19.4 19.4 13.0 89 ~ ~ 971 0.00 1 7 15 0 317 0 ~ ~ ~ ~
1274. 2020-09-20 17:14 18.4 19.4 13.0 89 ~ ~ 971 0.00 1 7 15 0 317 0 ~ ~ ~ ~
1275. 2020-09-20 18:14 17.7 19.4 13.0 90 ~ ~ 971 0.00 1 7 15 0 317 0 ~ ~ ~ ~
1276. 2020-09-20 19:14 16.6 19.4 13.0 91 ~ ~ 971 0.00 1 7 15 0 317 0 ~ ~ ~ ~
1277. 2020-09-20 20:14 15.6 19.4 13.0 93 ~ ~ 971 0.00 1 7 15 0 317 0 ~ ~ ~ ~
1278. 2020-09-20 21:14 14.7 19.4 13.0 93 ~ ~ 971 0.00 1 7 15 0 317 0 ~ ~ ~ ~
1279. 2020-09-20 22:14 14.3 19.4 13.0 94 ~ ~ 971 0.00 1 7 15 0 317 0 ~ ~ ~ ~
1280. 2020-09-20 23:14 14.0 19.4 13.0 95 ~ ~ 971 0.00 1 7 15 0 317 0 ~ ~ ~ ~
1281. 2020-09-21 00:14 13.7 19.4 13.0 95 ~ ~ 971 0.00 1 7 15 0 317 0 ~ ~ ~ ~
1282. 2020-09-21 01:14 13.6 19.4 13.0 95 ~ ~ 971 0.76 1 7 15 0 317 0 ~ ~ ~ ~
1283. 2020-09-21 02:14 13.6 19.4 13.0 96 ~ ~ 973 1.27 2 9 17 0 317 0 ~ ~ ~ ~
1284. 2020-09-21 03:14 13.4 19.4 13.0 96 ~ ~ 973 0.51 3 9 17 0 317 0 ~ ~ ~ ~
1285. 2020-09-21 04:14 13.2 19.4 13.0 96 ~ ~ 973 0.00 3 9 17 0 317 0 ~ ~ ~ ~
1286. 2020-09-21 05:14 13.0 19.4 13.0 96 ~ ~ 973 0.00 3 9 17 0 317 0 ~ ~ ~ ~
1287. 2020-09-21 06:14 12.9 19.4 12.9 96 ~ ~ 973 0.00 3 9 17 0 317 0 ~ ~ ~ ~
1288. 2020-09-21 07:14 12.7 19.4 12.7 96 ~ ~ 973 0.00 3 9 17 0 317 0 ~ ~ ~ ~
1289. 2020-09-21 08:14 12.6 12.7 12.6 96 ~ ~ 973 0.25 3 9 18 0 317 0 ~ ~ ~ ~
1290. 2020-09-21 09:14 12.9 12.9 12.6 97 ~ ~ 974 1.02 4 10 19 0 317 0 ~ ~ ~ ~
1291. 2020-09-21 10:14 13.4 13.4 12.6 97 ~ ~ 975 0.51 5 11 19 0 165 0 ~ ~ ~ ~
1292. 2020-09-21 11:14 14.1 14.1 12.6 97 ~ ~ 975 0.00 5 11 19 0 165 0 ~ ~ ~ ~
1293. 2020-09-21 12:14 14.7 14.7 12.6 97 ~ ~ 975 0.00 5 11 19 0 165 0 ~ ~ ~ ~
1294. 2020-09-21 13:14 15.4 15.4 12.6 97 ~ ~ 975 0.00 5 11 19 0 165 0 ~ ~ ~ ~
1295. 2020-09-21 14:14 15.8 15.8 12.6 97 ~ ~ 975 0.00 4 11 19 0 165 0 ~ ~ ~ ~
1296. 2020-09-21 15:14 16.1 16.1 12.6 95 ~ ~ 975 0.00 4 11 19 0 165 0 ~ ~ ~ ~
1297. 2020-09-21 16:14 16.1 16.1 12.6 95 ~ ~ 975 0.00 4 11 19 0 165 0 ~ ~ ~ ~
1298. 2020-09-21 17:14 16.1 16.1 12.6 96 ~ ~ 975 0.00 4 11 19 0 165 0 ~ ~ ~ ~
1299. 2020-09-21 18:14 16.1 16.1 12.6 95 ~ ~ 975 0.00 4 11 19 0 165 0 ~ ~ ~ ~
1300. 2020-09-21 19:14 15.3 16.1 12.6 94 ~ ~ 975 0.00 4 11 19 0 165 0 ~ ~ ~ ~
1301. 2020-09-21 20:14 14.3 16.1 12.6 94 ~ ~ 975 0.00 4 11 19 0 165 0 ~ ~ ~ ~
1302. 2020-09-21 21:14 13.6 16.1 12.6 95 ~ ~ 975 0.00 4 11 19 0 165 0 ~ ~ ~ ~
1303. 2020-09-21 22:14 13.0 16.1 12.6 96 ~ ~ 975 0.00 4 11 19 0 165 0 ~ ~ ~ ~
1304. 2020-09-21 23:14 12.7 16.1 12.6 96 ~ ~ 975 0.00 4 11 19 0 165 0 ~ ~ ~ ~
1305. 2020-09-22 00:14 12.4 16.1 12.4 96 ~ ~ 975 0.00 4 11 19 0 165 2 ~ ~ ~ ~
1306. 2020-09-22 01:14 11.9 16.1 11.9 96 ~ ~ 975 0.00 4 11 19 0 165 0 ~ ~ ~ ~
1307. 2020-09-22 02:14 11.9 16.1 11.9 96 ~ ~ 975 0.00 2 11 19 0 165 0 ~ ~ ~ ~
1308. 2020-09-22 03:14 11.7 16.1 11.7 96 ~ ~ 975 0.00 2 11 19 0 165 0 ~ ~ ~ ~
1309. 2020-09-22 04:14 12.2 16.1 11.7 97 ~ ~ 975 0.00 2 11 19 0 165 0 ~ ~ ~ ~
1310. 2020-09-22 05:14 12.0 16.1 11.7 97 ~ ~ 975 0.00 2 11 19 0 165 0 ~ ~ ~ ~
1311. 2020-09-22 06:14 11.9 16.1 11.7 97 ~ ~ 975 0.00 2 11 19 0 165 0 ~ ~ ~ ~
1312. 2020-09-22 07:14 11.7 16.1 11.7 97 ~ ~ 975 0.00 2 11 19 0 165 0 ~ ~ ~ ~
1313. 2020-09-22 08:14 11.8 11.8 11.7 97 ~ ~ 975 0.00 2 5 19 0 165 0 ~ ~ ~ ~
1314. 2020-09-22 09:14 12.2 12.2 11.7 97 ~ ~ 975 0.00 1 5 19 0 165 0 ~ ~ ~ ~
1315. 2020-09-22 10:14 13.6 13.6 11.7 97 ~ ~ 975 0.00 0 5 19 0 165 2 ~ ~ ~ ~
1316. 2020-09-22 11:14 14.3 14.3 11.7 97 ~ ~ 975 0.00 0 5 19 0 281 0 ~ ~ ~ ~
1317. 2020-09-22 12:15 15.1 15.1 11.7 96 ~ ~ 975 0.00 0 5 19 0 281 0 ~ ~ ~ ~
1318. 2020-09-22 13:14 16.3 16.3 11.7 97 ~ ~ 975 0.25 0 5 19 0 281 0 ~ ~ ~ ~
1319. 2020-09-22 14:14 16.3 16.3 11.7 94 ~ ~ 975 0.00 0 5 19 0 281 0 ~ ~ ~ ~
1320. 2020-09-22 15:14 16.4 16.4 11.7 94 ~ ~ 975 0.00 0 5 19 0 281 0 ~ ~ ~ ~
1321. 2020-09-22 16:14 16.4 16.4 11.7 93 ~ ~ 975 0.25 1 5 20 0 281 0 ~ ~ ~ ~
1322. 2020-09-22 17:14 16.2 16.4 11.7 95 ~ ~ 975 0.00 1 5 20 0 281 0 ~ ~ ~ ~
1323. 2020-09-22 18:14 15.8 16.4 11.7 94 ~ ~ 975 0.00 1 5 20 0 281 0 ~ ~ ~ ~
1324. 2020-09-22 19:14 14.9 16.4 11.7 95 ~ ~ 975 0.00 1 5 20 0 165 2 ~ ~ ~ ~
1325. 2020-09-22 20:14 14.2 16.4 11.7 95 ~ ~ 975 0.00 1 5 20 0 165 0 ~ ~ ~ ~
1326. 2020-09-22 21:14 13.8 16.4 11.7 96 ~ ~ 975 0.00 1 5 20 0 165 5 ~ ~ ~ ~
1327. 2020-09-22 22:14 13.7 16.4 11.7 96 ~ ~ 975 0.00 1 5 20 0 165 2 ~ ~ ~ ~
1328. 2020-09-22 23:14 13.3 16.4 11.7 96 ~ ~ 975 0.00 1 5 20 0 165 0 ~ ~ ~ ~
1329. 2020-09-23 00:14 13.1 16.4 11.7 96 ~ ~ 976 0.25 1 6 20 0 165 0 ~ ~ ~ ~
1330. 2020-09-23 01:14 12.8 16.4 11.7 96 ~ ~ 976 0.76 2 6 21 0 165 0 ~ ~ ~ ~
1331. 2020-09-23 02:14 12.5 16.4 11.7 96 ~ ~ 977 0.25 2 6 21 0 165 0 ~ ~ ~ ~
1332. 2020-09-23 03:14 12.3 16.4 11.7 96 ~ ~ 977 0.51 2 7 21 0 165 0 ~ ~ ~ ~
1333. 2020-09-23 04:14 12.2 16.4 11.7 97 ~ ~ 978 1.27 4 8 23 0 165 0 ~ ~ ~ ~
1334. 2020-09-23 05:14 12.1 16.4 11.7 97 ~ ~ 982 3.81 7 12 26 0 165 0 ~ ~ ~ ~
1335. 2020-09-23 06:14 11.9 16.4 11.7 97 ~ ~ 982 0.25 8 12 27 0 165 0 ~ ~ ~ ~
1336. 2020-09-23 07:14 11.8 16.4 11.7 97 ~ ~ 982 0.00 8 12 27 0 165 0 ~ ~ ~ ~
1337. 2020-09-23 08:14 11.7 11.8 11.7 97 ~ ~ 982 0.00 8 12 27 0 165 2 ~ ~ ~ ~
1338. 2020-09-23 09:14 11.8 11.8 11.7 97 ~ ~ 982 0.00 8 12 27 0 165 0 ~ ~ ~ ~
1339. 2020-09-23 10:14 12.6 12.6 11.7 97 ~ ~ 982 0.00 8 12 27 0 165 0 ~ ~ ~ ~
1340. 2020-09-23 11:14 13.6 13.6 11.7 97 ~ ~ 982 0.00 8 12 27 0 165 0 ~ ~ ~ ~
1341. 2020-09-23 12:14 14.3 14.3 11.7 97 ~ ~ 982 0.00 8 12 27 0 165 2 ~ ~ ~ ~
1342. 2020-09-23 13:14 14.7 14.7 11.7 96 ~ ~ 982 0.00 7 12 27 0 165 2 ~ ~ ~ ~
1343. 2020-09-23 14:14 14.9 14.9 11.7 96 ~ ~ 982 0.00 7 12 27 0 180 2 ~ ~ ~ ~
1344. 2020-09-23 15:14 14.9 14.9 11.7 96 ~ ~ 983 0.25 8 12 27 0 180 0 ~ ~ ~ ~
1345. 2020-09-23 16:14 14.8 14.9 11.7 95 ~ ~ 983 0.25 8 12 27 0 180 2 ~ ~ ~ ~
1346. 2020-09-23 17:14 14.3 14.9 11.7 96 ~ ~ 985 2.03 10 14 29 0 180 2 ~ ~ ~ ~
1347. 2020-09-23 18:14 13.9 14.9 11.7 96 ~ ~ 986 0.51 10 15 30 0 180 0 ~ ~ ~ ~
1348. 2020-09-23 19:14 13.5 14.9 11.7 97 ~ ~ 991 5.08 15 20 35 0 180 0 ~ ~ ~ ~
1349. 2020-09-23 20:14 13.6 14.9 11.7 97 ~ ~ 997 6.35 22 26 41 0 161 6 ~ ~ ~ ~
1350. 2020-09-23 21:15 13.4 14.9 11.7 97 ~ ~ 998 0.76 22 27 42 0 199 3 ~ ~ ~ ~
1351. 2020-09-23 22:14 13.0 14.9 11.7 97 ~ ~ 999 1.52 24 29 43 0 136 8 ~ ~ ~ ~
1352. 2020-09-23 23:14 12.8 14.9 11.7 97 ~ ~ 1000 0.51 24 29 44 2 152 3 ~ ~ ~ ~
1353. 2020-09-24 00:14 12.3 14.9 11.7 97 ~ ~ 1000 0.00 24 29 44 0 152 0 ~ ~ ~ ~
1354. 2020-09-24 01:14 12.0 14.9 11.7 97 ~ ~ 1001 0.76 24 29 45 0 152 0 ~ ~ ~ ~
1355. 2020-09-24 02:14 12.4 14.9 11.7 97 ~ ~ 1004 3.05 27 31 48 0 180 11 ~ ~ ~ ~
1356. 2020-09-24 03:14 12.2 14.9 11.7 97 ~ ~ 1006 2.54 29 33 50 0 162 2 ~ ~ ~ ~
1357. 2020-09-24 04:14 11.9 14.9 11.7 97 ~ ~ 1007 0.76 28 34 51 0 161 0 ~ ~ ~ ~
1358. 2020-09-24 05:14 11.7 14.9 11.7 97 ~ ~ 1008 0.76 25 35 52 0 161 0 ~ ~ ~ ~
1359. 2020-09-24 06:14 11.4 14.9 11.4 97 ~ ~ 1010 2.29 27 37 54 0 161 0 ~ ~ ~ ~
1360. 2020-09-24 07:14 11.1 14.9 11.1 97 ~ ~ 1010 0.51 28 37 55 0 161 2 ~ ~ ~ ~
1361. 2020-09-24 08:15 11.1 11.1 11.1 97 ~ ~ 1011 0.25 28 37 55 0 161 0 ~ ~ ~ ~
1362. 2020-09-24 09:14 11.1 11.1 11.1 97 ~ ~ 1011 0.25 28 37 55 0 161 0 ~ ~ ~ ~
1363. 2020-09-24 10:14 11.2 11.2 11.1 97 ~ ~ 1012 1.52 30 38 57 2 151 5 ~ ~ ~ ~
1364. 2020-09-24 11:14 11.2 11.2 11.1 97 ~ ~ 1013 0.76 31 38 57 0 151 2 ~ ~ ~ ~
1365. 2020-09-24 12:14 12.1 12.1 11.1 97 ~ ~ 1013 0.25 31 39 58 0 151 0 ~ ~ ~ ~
1366. 2020-09-24 13:14 12.6 12.6 11.1 97 ~ ~ 1013 0.00 31 39 58 0 151 0 ~ ~ ~ ~
1367. 2020-09-24 14:15 13.5 13.5 11.1 97 ~ ~ 1014 0.25 31 39 58 0 151 2 ~ ~ ~ ~
1368. 2020-09-24 15:14 14.2 14.2 11.1 95 ~ ~ 1014 0.00 31 39 58 0 151 0 ~ ~ ~ ~
1369. 2020-09-24 16:14 13.6 14.2 11.1 95 ~ ~ 1014 0.51 31 39 58 0 151 0 ~ ~ ~ ~
1370. 2020-09-24 17:14 13.2 14.2 11.1 96 ~ ~ 1014 0.00 29 39 58 0 151 0 ~ ~ ~ ~
1371. 2020-09-24 18:14 12.6 14.2 11.1 96 ~ ~ 1016 1.52 30 41 60 0 151 2 ~ ~ ~ ~
1372. 2020-09-24 19:14 12.3 14.2 11.1 96 ~ ~ 1017 1.27 26 42 61 0 151 0 ~ ~ ~ ~
1373. 2020-09-24 20:14 11.9 14.2 11.1 96 ~ ~ 1018 0.51 21 43 62 0 151 0 ~ ~ ~ ~
1374. 2020-09-24 21:14 11.6 14.2 11.1 97 ~ ~ 1019 1.27 21 44 63 0 151 0 ~ ~ ~ ~
1375. 2020-09-24 22:14 11.2 14.2 11.1 97 ~ ~ 1020 1.02 21 45 64 0 151 0 ~ ~ ~ ~
1376. 2020-09-24 23:14 10.9 14.2 10.9 97 ~ ~ 1022 2.03 22 47 66 0 151 0 ~ ~ ~ ~
1377. 2020-09-25 00:14 11.1 14.2 10.9 97 ~ ~ 1022 0.51 23 47 67 0 151 0 ~ ~ ~ ~
1378. 2020-09-25 01:14 10.7 14.2 10.7 97 ~ ~ 1023 0.25 22 48 67 0 151 0 ~ ~ ~ ~
1379. 2020-09-25 02:14 10.4 14.2 10.4 97 ~ ~ 1024 1.27 20 49 68 0 151 0 ~ ~ ~ ~
1380. 2020-09-25 03:14 10.3 14.2 10.3 97 ~ ~ 1024 0.51 18 50 69 0 151 0 ~ ~ ~ ~
1381. 2020-09-25 04:14 10.1 14.2 10.1 97 ~ ~ 1026 1.52 19 51 70 0 151 0 ~ ~ ~ ~
1382. 2020-09-25 05:14 9.9 14.2 9.9 97 ~ ~ 1029 2.79 21 54 73 0 151 0 ~ ~ ~ ~
1383. 2020-09-25 06:14 9.8 14.2 9.8 97 ~ ~ 1032 3.30 22 57 76 0 151 2 ~ ~ ~ ~
1384. 2020-09-25 07:14 9.6 14.2 9.6 97 ~ ~ 1035 3.30 25 60 80 0 151 0 ~ ~ ~ ~
1385. 2020-09-25 08:14 9.6 9.6 9.6 97 ~ ~ 1043 7.37 32 68 87 0 151 0 ~ ~ ~ ~
1386. 2020-09-25 09:14 9.6 9.6 9.6 97 ~ ~ 1045 2.03 34 70 89 0 169 0 ~ ~ ~ ~
1387. 2020-09-25 10:14 9.7 9.7 9.6 97 ~ ~ 1045 0.25 33 70 89 0 188 0 ~ ~ ~ ~
1388. 2020-09-25 11:14 9.8 9.8 9.6 97 ~ ~ 1046 1.27 33 71 90 0 188 0 ~ ~ ~ ~
1389. 2020-09-25 12:14 8.4 9.8 8.4 96 ~ ~ 1050 4.06 37 75 94 3 137 11 ~ ~ ~ ~
1390. 2020-09-25 13:14 9.1 9.8 8.4 97 ~ ~ 1051 0.51 37 76 95 0 156 0 ~ ~ ~ ~
1391. 2020-09-25 14:14 9.7 9.8 8.4 97 ~ ~ 1051 0.00 37 76 95 0 156 2 ~ ~ ~ ~
1392. 2020-09-25 15:14 11.4 11.4 8.4 97 ~ ~ 1051 0.00 37 76 95 0 156 2 ~ ~ ~ ~
1393. 2020-09-25 16:14 12.1 12.1 8.4 96 ~ ~ 1051 0.00 37 75 95 0 156 0 ~ ~ ~ ~
1394. 2020-09-25 17:14 12.2 12.2 8.4 95 ~ ~ 1051 0.00 37 75 95 0 156 0 ~ ~ ~ ~
1395. 2020-09-25 18:14 11.8 12.2 8.4 95 ~ ~ 1051 0.00 35 75 95 0 156 0 ~ ~ ~ ~
1396. 2020-09-25 19:14 10.9 12.2 8.4 95 ~ ~ 1051 0.00 34 75 95 0 156 0 ~ ~ ~ ~
1397. 2020-09-25 20:14 10.3 12.2 8.4 96 ~ ~ 1055 4.06 37 80 99 0 156 0 ~ ~ ~ ~
1398. 2020-09-25 21:14 10.0 12.2 8.4 96 ~ ~ 1057 1.78 38 81 101 0 156 0 ~ ~ ~ ~
1399. 2020-09-25 22:14 9.8 12.2 8.4 96 ~ ~ 1057 0.25 37 82 101 0 156 0 ~ ~ ~ ~
1400. 2020-09-25 23:14 9.6 12.2 8.4 96 ~ ~ 1057 0.25 35 82 101 0 156 0 ~ ~ ~ ~
1401. 2020-09-26 00:14 9.2 12.2 8.4 96 ~ ~ 1057 0.25 35 82 102 0 156 0 ~ ~ ~ ~
1402. 2020-09-26 01:14 9.1 12.2 8.4 97 ~ ~ 1057 0.00 35 81 102 0 156 0 ~ ~ ~ ~
1403. 2020-09-26 02:14 9.2 12.2 8.4 97 ~ ~ 1058 0.51 34 81 102 0 156 0 ~ ~ ~ ~
1404. 2020-09-26 03:14 9.1 12.2 8.4 97 ~ ~ 1058 0.25 34 81 102 0 156 0 ~ ~ ~ ~
1405. 2020-09-26 04:14 9.0 12.2 8.4 97 ~ ~ 1059 0.76 33 81 103 0 156 0 ~ ~ ~ ~
1406. 2020-09-26 05:14 8.9 12.2 8.4 96 ~ ~ 1059 0.25 30 77 103 0 156 0 ~ ~ ~ ~
1407. 2020-09-26 06:14 9.0 12.2 8.4 97 ~ ~ 1060 0.51 28 77 104 0 156 0 ~ ~ ~ ~
1408. 2020-09-26 07:14 9.0 12.2 8.4 97 ~ ~ 1060 0.25 25 77 104 5 156 5 ~ ~ ~ ~
1409. 2020-09-26 08:14 9.1 9.1 9.0 97 ~ ~ 1060 0.51 18 78 105 0 156 0 ~ ~ ~ ~
1410. 2020-09-26 09:14 9.1 9.1 9.0 97 ~ ~ 1062 1.27 17 79 106 0 156 0 ~ ~ ~ ~
1411. 2020-09-26 10:14 9.4 9.4 9.0 97 ~ ~ 1063 1.52 18 81 107 0 156 0 ~ ~ ~ ~
1412. 2020-09-26 11:14 10.2 10.2 9.0 97 ~ ~ 1063 0.25 17 81 108 0 156 0 ~ ~ ~ ~
1413. 2020-09-26 12:14 10.8 10.8 9.0 97 ~ ~ 1063 0.00 13 81 108 0 156 0 ~ ~ ~ ~
1414. 2020-09-26 13:14 11.6 11.6 9.0 97 ~ ~ 1063 0.00 13 81 108 0 156 0 ~ ~ ~ ~
1415. 2020-09-26 14:14 11.7 11.7 9.0 97 ~ ~ 1064 0.25 13 81 108 0 156 0 ~ ~ ~ ~
1416. 2020-09-26 15:14 11.2 11.7 9.0 96 ~ ~ 1065 1.02 14 82 109 0 156 2 ~ ~ ~ ~
1417. 2020-09-26 16:14 10.7 11.7 9.0 96 ~ ~ 1066 1.27 15 83 110 0 169 3 ~ ~ ~ ~
1418. 2020-09-26 17:14 10.7 11.7 9.0 96 ~ ~ 1067 1.02 16 82 111 0 169 0 ~ ~ ~ ~
1419. 2020-09-26 18:14 10.7 11.7 9.0 97 ~ ~ 1067 0.00 16 82 111 0 169 0 ~ ~ ~ ~
1420. 2020-09-26 19:14 10.4 11.7 9.0 96 ~ ~ 1067 0.00 16 76 111 0 169 0 ~ ~ ~ ~
1421. 2020-09-26 20:14 9.9 11.7 9.0 96 ~ ~ 1067 0.00 12 70 111 0 169 0 ~ ~ ~ ~
1422. 2020-09-26 21:14 9.5 11.7 9.0 96 ~ ~ 1067 0.00 10 69 111 0 169 0 ~ ~ ~ ~
1423. 2020-09-26 22:14 9.3 11.7 9.0 97 ~ ~ 1067 0.00 10 68 111 0 169 0 ~ ~ ~ ~
1424. 2020-09-26 23:14 9.1 11.7 9.0 97 ~ ~ 1067 0.00 10 67 111 0 169 0 ~ ~ ~ ~
1425. 2020-09-27 00:14 8.9 11.7 8.9 97 ~ ~ 1067 0.00 10 67 111 0 169 0 ~ ~ ~ ~
1426. 2020-09-27 01:14 8.7 11.7 8.7 97 ~ ~ 1067 0.00 10 67 111 0 169 0 ~ ~ ~ ~
1427. 2020-09-27 02:14 8.6 11.7 8.6 97 ~ ~ 1067 0.00 9 64 111 0 169 0 ~ ~ ~ ~
1428. 2020-09-27 03:14 8.6 11.7 8.6 97 ~ ~ 1067 0.00 9 61 111 0 169 0 ~ ~ ~ ~
1429. 2020-09-27 04:14 8.5 11.7 8.5 97 ~ ~ 1067 0.00 8 60 111 0 169 2 ~ ~ ~ ~
1430. 2020-09-27 05:14 8.4 11.7 8.4 97 ~ ~ 1067 0.00 8 59 111 0 169 0 ~ ~ ~ ~
1431. 2020-09-27 06:14 8.3 11.7 8.3 97 ~ ~ 1067 0.00 7 57 111 0 169 0 ~ ~ ~ ~
1432. 2020-09-27 07:14 8.2 11.7 8.2 97 ~ ~ 1067 0.00 7 57 111 0 169 0 ~ ~ ~ ~
1433. 2020-09-27 08:14 8.3 8.3 8.2 97 ~ ~ 1067 0.00 7 56 111 0 169 0 ~ ~ ~ ~
1434. 2020-09-27 09:14 8.9 8.9 8.2 97 ~ ~ 1067 0.00 5 56 111 0 169 2 ~ ~ ~ ~
1435. 2020-09-27 10:14 9.7 9.7 8.2 97 ~ ~ 1067 0.00 4 55 111 0 169 2 ~ ~ ~ ~
1436. 2020-09-27 11:14 10.3 10.3 8.2 97 ~ ~ 1067 0.00 4 54 111 0 169 0 ~ ~ ~ ~
1437. 2020-09-27 12:14 11.2 11.2 8.2 97 ~ ~ 1067 0.00 4 54 111 0 169 0 ~ ~ ~ ~
1438. 2020-09-27 13:14 11.8 11.8 8.2 97 ~ ~ 1067 0.00 4 54 111 0 169 0 ~ ~ ~ ~
1439. 2020-09-27 14:14 13.4 13.4 8.2 96 ~ ~ 1067 0.00 3 53 111 0 169 0 ~ ~ ~ ~
1440. 2020-09-27 15:14 14.9 14.9 8.2 89 ~ ~ 1067 0.00 2 53 111 0 169 0 ~ ~ ~ ~
1441. 2020-09-27 16:14 15.1 15.1 8.2 89 ~ ~ 1067 0.00 1 53 109 0 169 0 ~ ~ ~ ~
1442. 2020-09-27 17:14 15.1 15.1 8.2 90 ~ ~ 1067 0.00 0 53 108 0 169 0 ~ ~ ~ ~
1443. 2020-09-27 18:14 14.4 15.1 8.2 92 ~ ~ 1067 0.00 0 51 108 0 169 0 ~ ~ ~ ~
1444. 2020-09-27 19:14 13.3 15.1 8.2 93 ~ ~ 1067 0.00 0 50 108 0 169 0 ~ ~ ~ ~
1445. 2020-09-27 20:14 12.3 15.1 8.2 94 ~ ~ 1067 0.00 0 50 108 0 169 0 ~ ~ ~ ~
1446. 2020-09-27 21:14 11.6 15.1 8.2 95 ~ ~ 1067 0.00 0 48 108 0 169 0 ~ ~ ~ ~
1447. 2020-09-27 22:14 11.4 15.1 8.2 96 ~ ~ 1067 0.00 0 47 108 0 169 0 ~ ~ ~ ~
1448. 2020-09-27 23:14 11.1 15.1 8.2 96 ~ ~ 1067 0.00 0 45 108 0 169 0 ~ ~ ~ ~
1449. 2020-09-28 00:14 10.8 15.1 8.2 96 ~ ~ 1067 0.00 0 45 108 0 169 0 ~ ~ ~ ~
1450. 2020-09-28 01:14 10.7 15.1 8.2 96 ~ ~ 1067 0.00 0 44 108 0 169 0 ~ ~ ~ ~
1451. 2020-09-28 02:14 10.6 15.1 8.2 96 ~ ~ 1067 0.00 0 43 108 0 169 0 ~ ~ ~ ~
1452. 2020-09-28 03:14 10.3 15.1 8.2 96 ~ ~ 1067 0.00 0 43 108 0 169 0 ~ ~ ~ ~
1453. 2020-09-28 04:14 10.1 15.1 8.2 96 ~ ~ 1067 0.00 0 41 108 0 169 0 ~ ~ ~ ~
1454. 2020-09-28 05:14 10.1 15.1 8.2 97 ~ ~ 1067 0.00 0 38 108 0 169 0 ~ ~ ~ ~
1455. 2020-09-28 06:15 9.9 15.1 8.2 96 ~ ~ 1067 0.00 0 35 108 0 169 0 ~ ~ ~ ~
1456. 2020-09-28 07:14 9.9 15.1 8.2 97 ~ ~ 1067 0.00 0 32 108 0 169 0 ~ ~ ~ ~
1457. 2020-09-28 08:14 9.9 9.9 9.9 97 ~ ~ 1067 0.00 0 24 108 0 169 0 ~ ~ ~ ~
1458. 2020-09-28 09:14 10.2 10.2 9.9 97 ~ ~ 1067 0.00 0 22 108 0 169 0 ~ ~ ~ ~
1459. 2020-09-28 10:14 11.5 11.5 9.9 97 ~ ~ 1067 0.00 0 22 108 0 169 0 ~ ~ ~ ~
1460. 2020-09-28 11:14 14.1 14.1 9.9 91 ~ ~ 1067 0.00 0 21 108 0 169 3 ~ ~ ~ ~
1461. 2020-09-28 12:14 17.0 17.0 9.9 85 ~ ~ 1067 0.00 0 17 108 0 169 2 ~ ~ ~ ~
1462. 2020-09-28 13:14 19.7 19.7 9.9 74 ~ ~ 1067 0.00 0 16 108 2 300 2 ~ ~ ~ ~
1463. 2020-09-28 14:14 21.4 21.4 9.9 76 ~ ~ 1067 0.00 0 16 108 0 300 0 ~ ~ ~ ~
1464. 2020-09-28 15:14 23.1 23.1 9.9 72 ~ ~ 1067 0.00 0 16 108 0 300 0 ~ ~ ~ ~
1465. 2020-09-28 16:14 21.7 23.1 9.9 76 ~ ~ 1067 0.00 0 16 108 0 29 5 ~ ~ ~ ~
1466. 2020-09-28 17:14 18.6 23.1 9.9 86 ~ ~ 1067 0.00 0 16 108 0 29 0 ~ ~ ~ ~
1467. 2020-09-28 18:14 16.4 23.1 9.9 89 ~ ~ 1067 0.00 0 16 108 0 29 0 ~ ~ ~ ~
1468. 2020-09-28 19:14 14.9 23.1 9.9 91 ~ ~ 1067 0.00 0 16 108 0 29 0 ~ ~ ~ ~
1469. 2020-09-28 20:14 13.6 23.1 9.9 93 ~ ~ 1067 0.00 0 12 108 0 29 0 ~ ~ ~ ~
1470. 2020-09-28 21:14 12.6 23.1 9.9 93 ~ ~ 1067 0.00 0 10 108 0 29 0 ~ ~ ~ ~
1471. 2020-09-28 22:14 11.7 23.1 9.9 94 ~ ~ 1067 0.00 0 10 108 0 29 0 ~ ~ ~ ~
1472. 2020-09-28 23:14 11.1 23.1 9.9 95 ~ ~ 1067 0.00 0 10 108 0 29 0 ~ ~ ~ ~
1473. 2020-09-29 00:14 10.5 23.1 9.9 95 ~ ~ 1067 0.00 0 10 108 0 29 0 ~ ~ ~ ~
1474. 2020-09-29 01:14 10.2 23.1 9.9 96 ~ ~ 1067 0.00 0 10 108 0 29 0 ~ ~ ~ ~
1475. 2020-09-29 02:14 9.8 23.1 9.8 96 ~ ~ 1067 0.00 0 9 108 0 29 0 ~ ~ ~ ~
1476. 2020-09-29 03:14 9.4 23.1 9.4 96 ~ ~ 1067 0.00 0 9 108 0 29 0 ~ ~ ~ ~
1477. 2020-09-29 04:14 9.2 23.1 9.2 96 ~ ~ 1067 0.00 0 8 108 0 29 0 ~ ~ ~ ~
1478. 2020-09-29 05:14 8.9 23.1 8.9 96 ~ ~ 1067 0.00 0 8 108 0 29 2 ~ ~ ~ ~
1479. 2020-09-29 06:14 8.8 23.1 8.8 96 ~ ~ 1067 0.00 0 7 108 0 29 0 ~ ~ ~ ~
1480. 2020-09-29 07:14 8.6 23.1 8.6 96 ~ ~ 1067 0.00 0 7 108 0 29 0 ~ ~ ~ ~
1481. 2020-09-29 08:14 8.4 8.6 8.4 97 ~ ~ 1067 0.00 0 7 108 0 29 0 ~ ~ ~ ~
1482. 2020-09-29 09:14 8.7 8.7 8.4 97 ~ ~ 1067 0.00 0 5 108 0 29 0 ~ ~ ~ ~
1483. 2020-09-29 10:14 9.9 9.9 8.4 97 ~ ~ 1067 0.00 0 4 108 0 29 0 ~ ~ ~ ~
1484. 2020-09-29 11:14 12.8 12.8 8.4 97 ~ ~ 1067 0.00 0 4 108 0 29 0 ~ ~ ~ ~
1485. 2020-09-29 12:14 16.9 16.9 8.4 89 ~ ~ 1067 0.00 0 4 108 0 28 0 ~ ~ ~ ~
1486. 2020-09-29 13:14 22.1 22.1 8.4 70 ~ ~ 1067 0.00 0 4 108 0 289 0 ~ ~ ~ ~
1487. 2020-09-29 14:14 25.7 25.7 8.4 62 ~ ~ 1067 0.00 0 3 108 0 289 0 ~ ~ ~ ~
1488. 2020-09-29 15:14 26.3 26.3 8.4 62 ~ ~ 1067 0.00 0 2 108 0 289 0 ~ ~ ~ ~
1489. 2020-09-29 16:14 23.8 26.3 8.4 66 ~ ~ 1067 0.00 0 1 108 0 31 0 ~ ~ ~ ~
1490. 2020-09-29 17:14 20.4 26.3 8.4 79 ~ ~ 1067 0.00 0 0 108 0 34 0 ~ ~ ~ ~
1491. 2020-09-29 18:14 17.3 26.3 8.4 87 ~ ~ 1067 0.00 0 0 107 0 34 0 ~ ~ ~ ~
1492. 2020-09-29 19:14 15.4 26.3 8.4 91 ~ ~ 1067 0.00 0 0 107 0 34 0 ~ ~ ~ ~
1493. 2020-09-29 20:14 14.3 26.3 8.4 93 ~ ~ 1067 0.00 0 0 107 0 34 0 ~ ~ ~ ~
1494. 2020-09-29 21:14 13.4 26.3 8.4 94 ~ ~ 1067 0.00 0 0 107 0 34 0 ~ ~ ~ ~
1495. 2020-09-29 22:14 12.7 26.3 8.4 94 ~ ~ 1067 0.00 0 0 107 0 275 0 ~ ~ ~ ~
1496. 2020-09-29 23:14 12.1 26.3 8.4 95 ~ ~ 1067 0.00 0 0 107 0 275 0 ~ ~ ~ ~
1497. 2020-09-30 00:14 11.7 26.3 8.4 95 ~ ~ 1067 0.00 0 0 107 0 275 0 ~ ~ ~ ~
1498. 2020-09-30 01:14 11.2 26.3 8.4 95 ~ ~ 1067 0.00 0 0 107 0 186 0 ~ ~ ~ ~
1499. 2020-09-30 02:14 10.7 26.3 8.4 95 ~ ~ 1067 0.00 0 0 107 0 187 0 ~ ~ ~ ~
1500. 2020-09-30 03:14 10.3 26.3 8.4 96 ~ ~ 1067 0.00 0 0 106 0 187 0 ~ ~ ~ ~
1501. 2020-09-30 04:14 10.2 26.3 8.4 96 ~ ~ 1067 0.00 0 0 105 0 187 0 ~ ~ ~ ~
1502. 2020-09-30 05:14 9.9 26.3 8.4 96 ~ ~ 1067 0.00 0 0 105 0 188 6 ~ ~ ~ ~
1503. 2020-09-30 06:14 9.5 26.3 8.4 96 ~ ~ 1067 0.00 0 0 105 0 188 0 ~ ~ ~ ~
1504. 2020-09-30 07:14 9.5 26.3 8.4 96 ~ ~ 1067 0.00 0 0 105 0 188 0 ~ ~ ~ ~
1505. 2020-09-30 08:14 9.2 9.5 9.2 96 ~ ~ 1067 0.00 0 0 105 0 188 0 ~ ~ ~ ~
1506. 2020-09-30 09:14 9.4 9.5 9.2 97 ~ ~ 1067 0.00 0 0 105 0 188 0 ~ ~ ~ ~
1507. 2020-09-30 10:14 10.9 10.9 9.2 97 ~ ~ 1067 0.00 0 0 105 0 188 3 ~ ~ ~ ~
1508. 2020-09-30 11:14 13.4 13.4 9.2 97 ~ ~ 1067 0.00 0 0 105 0 188 0 ~ ~ ~ ~
1509. 2020-09-30 12:14 17.6 17.6 9.2 84 ~ ~ 1067 0.00 0 0 105 0 188 0 ~ ~ ~ ~
1510. 2020-09-30 13:14 22.2 22.2 9.2 63 ~ ~ 1067 0.00 0 0 105 0 200 0 ~ ~ ~ ~
1511. 2020-09-30 14:14 24.8 24.8 9.2 61 ~ ~ 1067 0.00 0 0 105 0 200 0 ~ ~ ~ ~
1512. 2020-09-30 15:14 26.5 26.5 9.2 63 ~ ~ 1067 0.00 0 0 105 0 200 0 ~ ~ ~ ~
1513. 2020-09-30 16:14 24.4 26.5 9.2 73 ~ ~ 1067 0.00 0 0 105 0 200 0 ~ ~ ~ ~
1514. 2020-09-30 17:14 21.8 26.5 9.2 79 ~ ~ 1067 0.00 0 0 105 0 200 0 ~ ~ ~ ~
1515. 2020-09-30 18:14 19.5 26.5 9.2 84 ~ ~ 1067 0.00 0 0 105 0 200 0 ~ ~ ~ ~
1516. 2020-09-30 19:15 17.2 26.5 9.2 85 ~ ~ 1067 0.00 0 0 105 0 200 0 ~ ~ ~ ~
1517. 2020-09-30 20:15 15.2 26.5 9.2 90 ~ ~ 1067 0.00 0 0 105 0 200 0 ~ ~ ~ ~
1518. 2020-09-30 21:14 13.8 26.5 9.2 91 ~ ~ 1067 0.00 0 0 105 0 200 0 ~ ~ ~ ~
1519. 2020-09-30 22:14 12.9 26.5 9.2 93 ~ ~ 1067 0.00 0 0 105 0 200 0 ~ ~ ~ ~
1520. 2020-09-30 23:14 12.1 26.5 9.2 94 ~ ~ 1067 0.00 0 0 105 0 200 3 ~ ~ ~ ~
1521. 2020-10-01 00:14 11.4 26.5 9.2 94 ~ ~ 1067 0.00 0 0 105 0 200 0 ~ ~ ~ ~
1522. 2020-10-01 01:14 11.1 26.5 9.2 95 ~ ~ 1067 0.00 0 0 105 0 200 0 ~ ~ ~ ~
1523. 2020-10-01 02:14 10.7 26.5 9.2 95 ~ ~ 1067 0.00 0 0 105 0 200 0 ~ ~ ~ ~
1524. 2020-10-01 03:14 10.2 26.5 9.2 95 ~ ~ 1067 0.00 0 0 105 0 200 0 ~ ~ ~ ~
1525. 2020-10-01 04:14 10.2 26.5 9.2 96 ~ ~ 1067 0.00 0 0 105 0 200 0 ~ ~ ~ ~
1526. 2020-10-01 05:14 10.1 26.5 9.2 96 ~ ~ 1067 0.00 0 0 105 0 200 0 ~ ~ ~ ~
1527. 2020-10-01 06:14 10.3 26.5 9.2 96 ~ ~ 1067 0.00 0 0 105 0 200 0 ~ ~ ~ ~
1528. 2020-10-01 07:14 10.4 26.5 9.2 96 ~ ~ 1067 0.00 0 0 105 0 200 0 ~ ~ ~ ~
1529. 2020-10-01 08:14 10.6 10.6 10.4 96 ~ ~ 1067 0.00 0 0 105 0 200 0 ~ ~ ~ ~
1530. 2020-10-01 09:14 11.2 11.2 10.4 96 ~ ~ 1067 0.00 0 0 105 0 200 0 ~ ~ ~ ~
1531. 2020-10-01 10:14 12.4 12.4 10.4 96 ~ ~ 1067 0.00 0 0 105 0 200 0 ~ ~ ~ ~
1532. 2020-10-01 11:14 14.2 14.2 10.4 97 ~ ~ 1067 0.00 0 0 105 0 200 0 ~ ~ ~ ~
1533. 2020-10-01 12:14 16.3 16.3 10.4 93 ~ ~ 1067 0.00 0 0 105 0 200 2 ~ ~ ~ ~
1534. 2020-10-01 13:14 18.9 18.9 10.4 89 ~ ~ 1067 0.00 0 0 105 0 200 0 ~ ~ ~ ~
1535. 2020-10-01 14:14 20.5 20.5 10.4 80 ~ ~ 1067 0.00 0 0 105 0 198 0 ~ ~ ~ ~
1536. 2020-10-01 15:15 21.3 21.3 10.4 81 ~ ~ 1067 0.00 0 0 105 0 198 0 ~ ~ ~ ~
1537. 2020-10-01 16:14 21.7 21.7 10.4 82 ~ ~ 1067 0.00 0 0 105 0 198 0 ~ ~ ~ ~
1538. 2020-10-01 17:14 20.1 21.7 10.4 84 ~ ~ 1067 0.00 0 0 105 0 198 0 ~ ~ ~ ~
1539. 2020-10-01 18:14 18.4 21.7 10.4 86 ~ ~ 1067 0.00 0 0 105 0 198 0 ~ ~ ~ ~
1540. 2020-10-01 19:14 16.4 21.7 10.4 88 ~ ~ 1067 0.00 0 0 105 0 198 0 ~ ~ ~ ~
1541. 2020-10-01 20:14 14.8 21.7 10.4 91 ~ ~ 1067 0.00 0 0 105 0 198 0 ~ ~ ~ ~
1542. 2020-10-01 21:14 13.3 21.7 10.4 91 ~ ~ 1067 0.00 0 0 105 0 198 0 ~ ~ ~ ~
1543. 2020-10-01 22:14 12.2 21.7 10.4 93 ~ ~ 1067 0.00 0 0 105 0 198 0 ~ ~ ~ ~
1544. 2020-10-01 23:14 11.3 21.7 10.4 94 ~ ~ 1067 0.00 0 0 105 0 198 2 ~ ~ ~ ~
1545. 2020-10-02 00:14 10.7 21.7 10.4 95 ~ ~ 1067 0.00 0 0 105 0 198 0 ~ ~ ~ ~
1546. 2020-10-02 01:14 10.2 21.7 10.2 95 ~ ~ 1067 0.00 0 0 105 0 198 0 ~ ~ ~ ~
1547. 2020-10-02 02:14 9.7 21.7 9.7 95 ~ ~ 1067 0.00 0 0 105 0 198 0 ~ ~ ~ ~
1548. 2020-10-02 03:14 9.5 21.7 9.5 96 ~ ~ 1067 0.00 0 0 105 0 198 0 ~ ~ ~ ~
1549. 2020-10-02 04:14 9.2 21.7 9.2 96 ~ ~ 1067 0.00 0 0 105 0 198 0 ~ ~ ~ ~
1550. 2020-10-02 05:14 8.9 21.7 8.9 96 ~ ~ 1067 0.00 0 0 105 0 198 0 ~ ~ ~ ~
1551. 2020-10-02 06:14 8.8 21.7 8.8 96 ~ ~ 1067 0.00 0 0 105 0 202 3 ~ ~ ~ ~
1552. 2020-10-02 07:14 8.6 21.7 8.6 96 ~ ~ 1067 0.00 0 0 105 0 202 0 ~ ~ ~ ~
1553. 2020-10-02 08:14 8.5 8.6 8.5 96 ~ ~ 1067 0.00 0 0 105 0 202 0 ~ ~ ~ ~
1554. 2020-10-02 09:14 8.8 8.8 8.5 96 ~ ~ 1067 0.00 0 0 105 0 202 0 ~ ~ ~ ~
1555. 2020-10-02 10:14 10.1 10.1 8.5 97 ~ ~ 1067 0.00 0 0 105 0 202 0 ~ ~ ~ ~
1556. 2020-10-02 11:14 12.4 12.4 8.5 97 ~ ~ 1067 0.00 0 0 105 0 202 0 ~ ~ ~ ~
1557. 2020-10-02 12:14 17.0 17.0 8.5 89 ~ ~ 1067 0.00 0 0 105 0 202 0 ~ ~ ~ ~
1558. 2020-10-02 13:14 21.8 21.8 8.5 64 ~ ~ 1067 0.00 0 0 105 0 202 0 ~ ~ ~ ~
1559. 2020-10-02 14:14 25.3 25.3 8.5 52 ~ ~ 1067 0.00 0 0 105 0 202 0 ~ ~ ~ ~
1560. 2020-10-02 15:14 26.2 26.2 8.5 56 ~ ~ 1067 0.00 0 0 105 0 202 0 ~ ~ ~ ~
1561. 2020-10-02 16:14 22.6 26.2 8.5 66 ~ ~ 1067 0.00 0 0 105 0 96 0 ~ ~ ~ ~
1562. 2020-10-02 17:14 20.2 26.2 8.5 78 ~ ~ 1067 0.00 0 0 105 0 96 0 ~ ~ ~ ~
1563. 2020-10-02 18:14 17.5 26.2 8.5 83 ~ ~ 1067 0.00 0 0 105 0 96 0 ~ ~ ~ ~
1564. 2020-10-02 19:14 15.4 26.2 8.5 87 ~ ~ 1067 0.00 0 0 105 0 96 0 ~ ~ ~ ~
1565. 2020-10-02 20:14 13.9 26.2 8.5 90 ~ ~ 1067 0.00 0 0 105 0 96 0 ~ ~ ~ ~
1566. 2020-10-02 21:14 12.9 26.2 8.5 92 ~ ~ 1067 0.00 0 0 105 0 96 0 ~ ~ ~ ~
1567. 2020-10-02 22:14 11.9 26.2 8.5 93 ~ ~ 1067 0.00 0 0 105 0 96 0 ~ ~ ~ ~
1568. 2020-10-02 23:14 11.3 26.2 8.5 94 ~ ~ 1067 0.00 0 0 105 0 96 0 ~ ~ ~ ~
1569. 2020-10-03 00:14 10.7 26.2 8.5 94 ~ ~ 1067 0.00 0 0 105 0 96 0 ~ ~ ~ ~
1570. 2020-10-03 01:15 10.3 26.2 8.5 95 ~ ~ 1067 0.00 0 0 105 0 96 0 ~ ~ ~ ~
1571. 2020-10-03 02:14 10.0 26.2 8.5 95 ~ ~ 1067 0.00 0 0 105 0 96 0 ~ ~ ~ ~
1572. 2020-10-03 03:14 9.8 26.2 8.5 95 ~ ~ 1067 0.00 0 0 105 0 96 0 ~ ~ ~ ~
1573. 2020-10-03 04:14 9.4 26.2 8.5 96 ~ ~ 1067 0.00 0 0 105 0 96 0 ~ ~ ~ ~
1574. 2020-10-03 05:14 9.3 26.2 8.5 96 ~ ~ 1067 0.00 0 0 105 0 96 0 ~ ~ ~ ~
1575. 2020-10-03 06:14 9.1 26.2 8.5 96 ~ ~ 1067 0.00 0 0 105 0 96 2 ~ ~ ~ ~
1576. 2020-10-03 07:14 8.7 26.2 8.5 96 ~ ~ 1067 0.00 0 0 105 0 96 0 ~ ~ ~ ~
1577. 2020-10-03 08:14 8.5 8.7 8.5 96 ~ ~ 1067 0.00 0 0 105 0 96 0 ~ ~ ~ ~
1578. 2020-10-03 09:14 8.7 8.7 8.5 96 ~ ~ 1067 0.00 0 0 105 0 96 0 ~ ~ ~ ~
1579. 2020-10-03 10:14 9.6 9.6 8.5 96 ~ ~ 1067 0.00 0 0 105 0 96 0 ~ ~ ~ ~
1580. 2020-10-03 11:14 12.0 12.0 8.5 96 ~ ~ 1067 0.00 0 0 105 0 96 0 ~ ~ ~ ~
1581. 2020-10-03 12:14 16.4 16.4 8.5 83 ~ ~ 1067 0.00 0 0 105 0 96 3 ~ ~ ~ ~
1582. 2020-10-03 13:14 20.6 20.6 8.5 67 ~ ~ 1067 0.00 0 0 105 0 96 2 ~ ~ ~ ~
1583. 2020-10-03 14:14 23.7 23.7 8.5 54 ~ ~ 1067 0.00 0 0 105 0 180 5 ~ ~ ~ ~
1584. 2020-10-03 15:14 24.6 24.6 8.5 61 ~ ~ 1067 0.00 0 0 105 0 173 2 ~ ~ ~ ~
1585. 2020-10-03 16:14 22.2 24.6 8.5 70 ~ ~ 1067 0.00 0 0 105 0 173 0 ~ ~ ~ ~
1586. 2020-10-03 17:15 19.4 24.6 8.5 78 ~ ~ 1067 0.00 0 0 105 0 173 0 ~ ~ ~ ~
1587. 2020-10-03 18:14 17.0 24.6 8.5 83 ~ ~ 1067 0.00 0 0 105 0 173 0 ~ ~ ~ ~
1588. 2020-10-03 19:14 15.1 24.6 8.5 87 ~ ~ 1067 0.00 0 0 105 0 173 0 ~ ~ ~ ~
1589. 2020-10-03 20:14 13.8 24.6 8.5 90 ~ ~ 1067 0.00 0 0 105 0 173 0 ~ ~ ~ ~
1590. 2020-10-03 21:14 12.8 24.6 8.5 91 ~ ~ 1067 0.00 0 0 105 0 173 0 ~ ~ ~ ~
1591. 2020-10-03 22:14 11.9 24.6 8.5 92 ~ ~ 1067 0.00 0 0 105 0 173 0 ~ ~ ~ ~
1592. 2020-10-03 23:14 11.2 24.6 8.5 94 ~ ~ 1067 0.00 0 0 105 0 173 0 ~ ~ ~ ~
1593. 2020-10-04 00:14 10.8 24.6 8.5 94 ~ ~ 1067 0.00 0 0 105 0 173 0 ~ ~ ~ ~
1594. 2020-10-04 01:14 10.7 24.6 8.5 95 ~ ~ 1067 0.00 0 0 105 0 173 0 ~ ~ ~ ~
1595. 2020-10-04 02:14 10.4 24.6 8.5 95 ~ ~ 1067 0.00 0 0 105 0 173 0 ~ ~ ~ ~
1596. 2020-10-04 03:14 10.3 24.6 8.5 95 ~ ~ 1067 0.00 0 0 105 0 173 0 ~ ~ ~ ~
1597. 2020-10-04 04:14 10.2 24.6 8.5 95 ~ ~ 1067 0.00 0 0 105 0 173 0 ~ ~ ~ ~
1598. 2020-10-04 05:14 10.5 24.6 8.5 96 ~ ~ 1067 0.00 0 0 105 0 173 0 ~ ~ ~ ~
1599. 2020-10-04 06:14 11.1 24.6 8.5 96 ~ ~ 1067 0.00 0 0 105 0 173 5 ~ ~ ~ ~
1600. 2020-10-04 07:14 11.0 24.6 8.5 96 ~ ~ 1068 0.51 1 1 105 0 173 0 ~ ~ ~ ~
1601. 2020-10-04 08:14 11.1 11.1 11.0 96 ~ ~ 1068 0.25 1 1 106 0 173 0 ~ ~ ~ ~
1602. 2020-10-04 09:14 11.3 11.3 11.0 96 ~ ~ 1068 0.25 1 1 106 0 173 0 ~ ~ ~ ~
1603. 2020-10-04 10:14 11.4 11.4 11.0 96 ~ ~ 1068 0.00 1 1 106 0 173 0 ~ ~ ~ ~
1604. 2020-10-04 11:14 11.8 11.8 11.0 96 ~ ~ 1068 0.00 1 1 106 0 173 0 ~ ~ ~ ~
1605. 2020-10-04 12:14 12.3 12.3 11.0 96 ~ ~ 1068 0.00 1 1 106 0 173 0 ~ ~ ~ ~
1606. 2020-10-04 13:14 12.8 12.8 11.0 96 ~ ~ 1068 0.00 1 1 106 0 173 0 ~ ~ ~ ~
1607. 2020-10-04 14:14 13.1 13.1 11.0 96 ~ ~ 1068 0.00 1 1 106 0 173 0 ~ ~ ~ ~
1608. 2020-10-04 15:14 13.6 13.6 11.0 96 ~ ~ 1068 0.00 1 1 106 0 173 0 ~ ~ ~ ~
1609. 2020-10-04 16:14 13.8 13.8 11.0 96 ~ ~ 1068 0.00 1 1 106 0 173 0 ~ ~ ~ ~
1610. 2020-10-04 17:14 13.9 13.9 11.0 96 ~ ~ 1068 0.00 1 1 106 0 173 0 ~ ~ ~ ~
1611. 2020-10-04 18:14 13.8 13.9 11.0 96 ~ ~ 1068 0.00 1 1 106 0 173 0 ~ ~ ~ ~
1612. 2020-10-04 19:14 13.3 13.9 11.0 96 ~ ~ 1068 0.00 1 1 106 0 173 0 ~ ~ ~ ~
1613. 2020-10-04 20:14 12.9 13.9 11.0 96 ~ ~ 1068 0.00 1 1 106 0 173 0 ~ ~ ~ ~
1614. 2020-10-04 21:14 12.6 13.9 11.0 96 ~ ~ 1068 0.00 1 1 106 0 173 0 ~ ~ ~ ~
1615. 2020-10-04 22:14 12.4 13.9 11.0 96 ~ ~ 1068 0.00 1 1 106 0 173 0 ~ ~ ~ ~
1616. 2020-10-04 23:14 12.3 13.9 11.0 96 ~ ~ 1068 0.00 1 1 106 0 173 0 ~ ~ ~ ~
1617. 2020-10-05 00:15 12.2 13.9 11.0 96 ~ ~ 1068 0.00 1 1 106 0 173 0 ~ ~ ~ ~
1618. 2020-10-05 01:14 12.2 13.9 11.0 96 ~ ~ 1068 0.00 1 1 106 0 173 0 ~ ~ ~ ~
1619. 2020-10-05 02:14 12.1 13.9 11.0 96 ~ ~ 1068 0.00 1 1 106 0 173 0 ~ ~ ~ ~
1620. 2020-10-05 03:14 12.1 13.9 11.0 96 ~ ~ 1068 0.00 1 1 106 0 173 0 ~ ~ ~ ~
1621. 2020-10-05 04:14 12.0 13.9 11.0 96 ~ ~ 1068 0.00 1 1 106 0 173 0 ~ ~ ~ ~
1622. 2020-10-05 05:14 11.9 13.9 11.0 96 ~ ~ 1068 0.00 1 1 106 0 173 0 ~ ~ ~ ~
1623. 2020-10-05 06:14 11.9 13.9 11.0 96 ~ ~ 1068 0.00 1 1 106 0 173 0 ~ ~ ~ ~
1624. 2020-10-05 07:14 11.8 13.9 11.0 96 ~ ~ 1068 0.00 1 1 106 0 173 0 ~ ~ ~ ~
1625. 2020-10-05 08:14 11.8 11.8 11.8 96 ~ ~ 1068 0.00 0 1 106 0 173 0 ~ ~ ~ ~
1626. 2020-10-05 09:14 11.9 11.9 11.8 96 ~ ~ 1068 0.00 0 1 106 0 173 0 ~ ~ ~ ~
1627. 2020-10-05 10:14 12.4 12.4 11.8 96 ~ ~ 1068 0.00 0 1 106 0 173 0 ~ ~ ~ ~
1628. 2020-10-05 11:14 13.6 13.6 11.8 96 ~ ~ 1068 0.00 0 1 106 0 173 0 ~ ~ ~ ~
1629. 2020-10-05 12:15 14.7 14.7 11.8 96 ~ ~ 1068 0.00 0 1 106 0 173 0 ~ ~ ~ ~
1630. 2020-10-05 13:14 15.3 15.3 11.8 96 ~ ~ 1068 0.00 0 1 106 0 173 0 ~ ~ ~ ~
1631. 2020-10-05 14:14 16.2 16.2 11.8 94 ~ ~ 1068 0.00 0 1 106 0 173 0 ~ ~ ~ ~
1632. 2020-10-05 15:14 16.6 16.6 11.8 93 ~ ~ 1068 0.00 0 1 106 0 173 0 ~ ~ ~ ~
1633. 2020-10-05 16:14 16.4 16.6 11.8 93 ~ ~ 1068 0.00 0 1 106 0 173 0 ~ ~ ~ ~
1634. 2020-10-05 17:14 16.0 16.6 11.8 93 ~ ~ 1068 0.00 0 1 106 0 173 0 ~ ~ ~ ~
1635. 2020-10-05 18:14 15.4 16.6 11.8 93 ~ ~ 1068 0.00 0 1 106 0 173 0 ~ ~ ~ ~
1636. 2020-10-05 19:14 14.6 16.6 11.8 93 ~ ~ 1068 0.00 0 1 106 0 173 0 ~ ~ ~ ~
1637. 2020-10-05 20:14 13.8 16.6 11.8 94 ~ ~ 1068 0.00 0 1 106 0 173 0 ~ ~ ~ ~
1638. 2020-10-05 21:14 13.3 16.6 11.8 95 ~ ~ 1068 0.00 0 1 106 0 173 0 ~ ~ ~ ~
1639. 2020-10-05 22:14 12.9 16.6 11.8 95 ~ ~ 1068 0.00 0 1 106 0 173 0 ~ ~ ~ ~
1640. 2020-10-05 23:14 12.6 16.6 11.8 95 ~ ~ 1068 0.00 0 1 106 0 173 0 ~ ~ ~ ~
1641. 2020-10-06 00:14 12.3 16.6 11.8 95 ~ ~ 1068 0.00 0 1 106 0 173 0 ~ ~ ~ ~
1642. 2020-10-06 01:14 12.1 16.6 11.8 96 ~ ~ 1068 0.00 0 1 106 0 173 0 ~ ~ ~ ~
1643. 2020-10-06 02:14 12.1 16.6 11.8 96 ~ ~ 1069 0.51 1 2 106 0 173 0 ~ ~ ~ ~
1644. 2020-10-06 03:14 12.0 16.6 11.8 96 ~ ~ 1069 0.25 1 2 107 0 173 0 ~ ~ ~ ~
1645. 2020-10-06 04:14 12.1 16.6 11.8 96 ~ ~ 1069 0.25 1 2 107 0 173 0 ~ ~ ~ ~
1646. 2020-10-06 05:15 11.9 16.6 11.8 96 ~ ~ 1070 0.51 2 3 107 0 173 0 ~ ~ ~ ~
1647. 2020-10-06 06:14 11.9 16.6 11.8 96 ~ ~ 1070 0.51 2 3 108 0 173 0 ~ ~ ~ ~
1648. 2020-10-06 07:14 11.8 16.6 11.8 96 ~ ~ 1070 0.25 2 3 108 0 173 0 ~ ~ ~ ~
1649. 2020-10-06 08:14 11.7 11.8 11.7 96 ~ ~ 1070 0.00 2 3 108 0 173 0 ~ ~ ~ ~
1650. 2020-10-06 09:14 11.9 11.9 11.7 96 ~ ~ 1070 0.00 2 3 108 0 173 0 ~ ~ ~ ~
1651. 2020-10-06 10:14 12.5 12.5 11.7 96 ~ ~ 1070 0.00 2 3 108 0 173 0 ~ ~ ~ ~
1652. 2020-10-06 11:14 13.1 13.1 11.7 96 ~ ~ 1070 0.00 2 3 108 0 173 0 ~ ~ ~ ~
1653. 2020-10-06 12:14 14.2 14.2 11.7 96 ~ ~ 1070 0.00 2 3 108 0 173 0 ~ ~ ~ ~
1654. 2020-10-06 13:14 16.0 16.0 11.7 96 ~ ~ 1070 0.00 2 3 108 0 173 2 ~ ~ ~ ~
1655. 2020-10-06 14:14 18.2 18.2 11.7 92 ~ ~ 1070 0.00 2 3 108 0 173 2 ~ ~ ~ ~
1656. 2020-10-06 15:14 18.5 18.5 11.7 92 ~ ~ 1070 0.00 2 3 108 0 173 0 ~ ~ ~ ~
1657. 2020-10-06 16:14 18.2 18.5 11.7 92 ~ ~ 1070 0.00 2 3 108 0 173 2 ~ ~ ~ ~
1658. 2020-10-06 17:14 18.0 18.5 11.7 92 ~ ~ 1070 0.00 2 3 108 0 173 0 ~ ~ ~ ~
1659. 2020-10-06 18:14 17.1 18.5 11.7 91 ~ ~ 1070 0.00 2 3 108 0 173 0 ~ ~ ~ ~
1660. 2020-10-06 19:14 15.4 18.5 11.7 92 ~ ~ 1070 0.00 2 3 108 0 173 0 ~ ~ ~ ~
1661. 2020-10-06 20:14 13.7 18.5 11.7 93 ~ ~ 1070 0.00 2 3 108 0 173 0 ~ ~ ~ ~
1662. 2020-10-06 21:14 12.6 18.5 11.7 94 ~ ~ 1070 0.00 2 3 108 0 173 0 ~ ~ ~ ~
1663. 2020-10-06 22:14 11.9 18.5 11.7 95 ~ ~ 1070 0.00 2 3 108 0 173 0 ~ ~ ~ ~
1664. 2020-10-06 23:14 11.3 18.5 11.3 95 ~ ~ 1070 0.00 2 3 108 0 173 0 ~ ~ ~ ~
1665. 2020-10-07 00:14 10.7 18.5 10.7 95 ~ ~ 1070 0.00 2 3 108 0 173 0 ~ ~ ~ ~
1666. 2020-10-07 01:14 10.2 18.5 10.2 96 ~ ~ 1070 0.00 2 3 108 0 173 0 ~ ~ ~ ~
1667. 2020-10-07 02:15 9.9 18.5 9.9 96 ~ ~ 1070 0.00 2 3 108 0 173 0 ~ ~ ~ ~
1668. 2020-10-07 03:14 9.6 18.5 9.6 96 ~ ~ 1070 0.00 2 3 108 0 173 0 ~ ~ ~ ~
1669. 2020-10-07 04:14 9.3 18.5 9.3 96 ~ ~ 1070 0.00 1 3 108 0 173 0 ~ ~ ~ ~
1670. 2020-10-07 05:14 8.9 18.5 8.9 96 ~ ~ 1070 0.00 1 3 108 0 173 0 ~ ~ ~ ~
1671. 2020-10-07 06:14 8.8 18.5 8.8 96 ~ ~ 1070 0.00 0 3 108 0 173 0 ~ ~ ~ ~
1672. 2020-10-07 07:14 8.4 18.5 8.4 96 ~ ~ 1070 0.00 0 3 108 0 173 0 ~ ~ ~ ~
1673. 2020-10-07 08:14 8.3 8.4 8.3 96 ~ ~ 1070 0.00 0 3 108 0 173 0 ~ ~ ~ ~
1674. 2020-10-07 09:14 8.3 8.4 8.3 96 ~ ~ 1070 0.00 0 2 108 0 173 0 ~ ~ ~ ~
1675. 2020-10-07 10:14 9.3 9.3 8.3 96 ~ ~ 1070 0.00 0 2 108 0 173 0 ~ ~ ~ ~
1676. 2020-10-07 11:14 11.5 11.5 8.3 96 ~ ~ 1070 0.00 0 2 108 0 173 0 ~ ~ ~ ~
1677. 2020-10-07 12:14 13.6 13.6 8.3 96 ~ ~ 1070 0.00 0 2 108 0 173 2 ~ ~ ~ ~
1678. 2020-10-07 13:14 18.9 18.9 8.3 79 ~ ~ 1070 0.00 0 2 108 0 173 2 ~ ~ ~ ~
1679. 2020-10-07 14:14 21.9 21.9 8.3 65 ~ ~ 1070 0.00 0 2 108 0 173 0 ~ ~ ~ ~
1680. 2020-10-07 15:14 21.7 21.9 8.3 73 ~ ~ 1070 0.00 0 2 108 0 173 0 ~ ~ ~ ~
1681. 2020-10-07 16:15 20.8 21.9 8.3 79 ~ ~ 1070 0.00 0 2 108 0 173 0 ~ ~ ~ ~
1682. 2020-10-07 17:14 18.9 21.9 8.3 86 ~ ~ 1070 0.00 0 2 108 0 173 0 ~ ~ ~ ~
1683. 2020-10-07 18:14 17.6 21.9 8.3 87 ~ ~ 1070 0.00 0 2 108 0 173 0 ~ ~ ~ ~
1684. 2020-10-07 19:14 15.8 21.9 8.3 89 ~ ~ 1070 0.00 0 2 108 0 173 0 ~ ~ ~ ~
1685. 2020-10-07 20:14 14.2 21.9 8.3 91 ~ ~ 1070 0.00 0 2 108 0 173 0 ~ ~ ~ ~
1686. 2020-10-07 21:14 13.4 21.9 8.3 94 ~ ~ 1070 0.00 0 2 108 0 173 0 ~ ~ ~ ~
1687. 2020-10-07 22:14 12.7 21.9 8.3 93 ~ ~ 1070 0.00 0 2 108 0 173 0 ~ ~ ~ ~
1688. 2020-10-07 23:14 12.2 21.9 8.3 94 ~ ~ 1070 0.00 0 2 108 0 173 0 ~ ~ ~ ~
1689. 2020-10-08 00:14 12.1 21.9 8.3 94 ~ ~ 1070 0.00 0 2 108 0 173 0 ~ ~ ~ ~
1690. 2020-10-08 01:14 12.1 21.9 8.3 95 ~ ~ 1070 0.00 0 2 108 0 173 0 ~ ~ ~ ~
1691. 2020-10-08 02:14 11.9 21.9 8.3 95 ~ ~ 1070 0.00 0 2 108 0 173 0 ~ ~ ~ ~
1692. 2020-10-08 03:14 12.0 21.9 8.3 95 ~ ~ 1070 0.00 0 2 108 0 173 0 ~ ~ ~ ~
1693. 2020-10-08 04:14 12.2 21.9 8.3 96 ~ ~ 1070 0.00 0 2 108 0 173 2 ~ ~ ~ ~
1694. 2020-10-08 05:14 12.1 21.9 8.3 96 ~ ~ 1070 0.00 0 2 108 0 173 0 ~ ~ ~ ~
1695. 2020-10-08 06:14 12.2 21.9 8.3 96 ~ ~ 1071 0.25 0 3 108 0 173 0 ~ ~ ~ ~
1696. 2020-10-08 07:14 12.2 21.9 8.3 96 ~ ~ 1071 0.25 1 3 109 0 173 0 ~ ~ ~ ~
1697. 2020-10-08 08:14 12.2 12.2 12.2 96 ~ ~ 1071 0.00 1 3 109 0 173 0 ~ ~ ~ ~
1698. 2020-10-08 09:14 12.3 12.3 12.2 96 ~ ~ 1071 0.25 1 3 109 0 173 0 ~ ~ ~ ~
1699. 2020-10-08 10:14 12.3 12.3 12.2 96 ~ ~ 1071 0.25 1 3 109 0 173 0 ~ ~ ~ ~
1700. 2020-10-08 11:14 12.8 12.8 12.2 96 ~ ~ 1071 0.00 1 3 109 0 173 0 ~ ~ ~ ~
1701. 2020-10-08 12:14 13.1 13.1 12.2 96 ~ ~ 1073 1.78 3 5 111 0 173 2 ~ ~ ~ ~
1702. 2020-10-08 13:14 13.8 13.8 12.2 96 ~ ~ 1075 1.52 4 7 113 10 155 10 ~ ~ ~ ~
1703. 2020-10-08 14:14 14.0 14.0 12.2 96 ~ ~ 1076 1.27 6 8 114 0 191 2 ~ ~ ~ ~
1704. 2020-10-08 15:14 14.4 14.4 12.2 96 ~ ~ 1076 0.25 6 8 114 0 191 0 ~ ~ ~ ~
1705. 2020-10-08 16:14 14.4 14.4 12.2 96 ~ ~ 1076 0.25 6 8 114 0 191 0 ~ ~ ~ ~
1706. 2020-10-08 17:14 14.1 14.4 12.2 95 ~ ~ 1077 0.51 7 9 115 0 209 5 ~ ~ ~ ~
1707. 2020-10-08 18:14 13.7 14.4 12.2 95 ~ ~ 1078 0.76 7 10 116 0 153 2 ~ ~ ~ ~
1708. 2020-10-08 19:14 13.2 14.4 12.2 95 ~ ~ 1078 0.51 8 10 116 0 153 0 ~ ~ ~ ~
1709. 2020-10-08 20:14 12.8 14.4 12.2 95 ~ ~ 1079 1.02 9 11 117 0 153 0 ~ ~ ~ ~
1710. 2020-10-08 21:14 12.6 14.4 12.2 96 ~ ~ 1080 0.76 10 12 118 0 153 0 ~ ~ ~ ~
1711. 2020-10-08 22:14 12.6 14.4 12.2 96 ~ ~ 1081 0.51 10 12 118 0 153 0 ~ ~ ~ ~
1712. 2020-10-08 23:14 12.2 14.4 12.2 96 ~ ~ 1082 1.27 11 14 120 0 153 2 ~ ~ ~ ~
1713. 2020-10-09 00:14 12.0 14.4 12.0 96 ~ ~ 1083 0.76 12 14 120 0 153 0 ~ ~ ~ ~
1714. 2020-10-09 01:14 12.4 14.4 12.0 96 ~ ~ 1084 1.02 13 15 121 0 153 0 ~ ~ ~ ~
1715. 2020-10-09 02:14 12.8 14.4 12.0 96 ~ ~ 1085 1.52 15 17 123 2 165 14 ~ ~ ~ ~
1716. 2020-10-09 03:14 12.8 14.4 12.0 96 ~ ~ 1087 1.78 17 18 125 0 150 8 ~ ~ ~ ~
1717. 2020-10-09 04:14 12.6 14.4 12.0 96 ~ ~ 1088 1.02 18 19 126 0 150 0 ~ ~ ~ ~
1718. 2020-10-09 05:14 12.5 14.4 12.0 96 ~ ~ 1089 1.52 19 20 127 0 282 0 ~ ~ ~ ~
1719. 2020-10-09 06:14 12.3 14.4 12.0 96 ~ ~ 1091 1.52 20 21 129 0 282 0 ~ ~ ~ ~
1720. 2020-10-09 07:14 11.7 14.4 11.7 96 ~ ~ 1092 1.27 21 22 130 0 282 0 ~ ~ ~ ~
1721. 2020-10-09 08:14 11.4 11.7 11.4 96 ~ ~ 1093 0.76 22 23 131 0 282 0 ~ ~ ~ ~
1722. 2020-10-09 09:14 11.3 11.7 11.3 96 ~ ~ 1094 1.02 23 24 132 0 282 0 ~ ~ ~ ~
1723. 2020-10-09 10:14 11.5 11.7 11.3 96 ~ ~ 1096 2.29 25 26 134 0 282 0 ~ ~ ~ ~
1724. 2020-10-09 11:14 11.8 11.8 11.3 96 ~ ~ 1099 2.29 27 28 136 0 282 0 ~ ~ ~ ~
1725. 2020-10-09 12:14 12.0 12.0 11.3 96 ~ ~ 1101 2.79 28 31 139 0 282 0 ~ ~ ~ ~
1726. 2020-10-09 13:14 12.1 12.1 11.3 96 ~ ~ 1103 1.78 28 33 141 0 282 0 ~ ~ ~ ~
1727. 2020-10-09 14:14 11.8 12.1 11.3 96 ~ ~ 1104 1.27 28 34 142 0 282 0 ~ ~ ~ ~
1728. 2020-10-09 15:14 11.7 12.1 11.3 96 ~ ~ 1106 1.52 30 36 144 0 167 5 ~ ~ ~ ~
1729. 2020-10-09 16:14 11.4 12.1 11.3 96 ~ ~ 1108 2.29 32 38 146 0 167 0 ~ ~ ~ ~
1730. 2020-10-09 17:14 11.3 12.1 11.3 96 ~ ~ 1112 3.30 35 41 149 0 167 3 ~ ~ ~ ~
1731. 2020-10-09 18:14 10.9 12.1 10.9 96 ~ ~ 1115 3.56 37 45 153 0 167 0 ~ ~ ~ ~
1732. 2020-10-09 19:14 11.2 12.1 10.9 96 ~ ~ 1120 5.08 42 50 158 0 167 0 ~ ~ ~ ~
1733. 2020-10-09 20:14 11.1 12.1 10.9 96 ~ ~ 1124 4.06 45 54 162 0 167 5 ~ ~ ~ ~
1734. 2020-10-09 21:14 10.8 12.1 10.8 96 ~ ~ 1128 3.56 48 57 166 0 167 0 ~ ~ ~ ~
1735. 2020-10-09 22:14 10.6 12.1 10.6 96 ~ ~ 1129 1.52 49 59 167 0 167 0 ~ ~ ~ ~
1736. 2020-10-09 23:14 9.8 12.1 9.8 96 ~ ~ 1130 0.76 48 60 168 0 167 0 ~ ~ ~ ~
1737. 2020-10-10 00:14 9.6 12.1 9.6 96 ~ ~ 1131 0.51 48 60 168 0 167 0 ~ ~ ~ ~
1738. 2020-10-10 01:14 9.2 12.1 9.2 96 ~ ~ 1131 0.25 47 60 169 0 167 0 ~ ~ ~ ~
1739. 2020-10-10 02:14 8.9 12.1 8.9 96 ~ ~ 1131 0.00 46 60 169 0 167 0 ~ ~ ~ ~
1740. 2020-10-10 03:14 8.7 12.1 8.7 96 ~ ~ 1131 0.00 44 60 169 0 167 0 ~ ~ ~ ~
1741. 2020-10-10 04:14 8.7 12.1 8.7 96 ~ ~ 1131 0.00 43 60 169 0 167 0 ~ ~ ~ ~
1742. 2020-10-10 05:14 8.6 12.1 8.6 96 ~ ~ 1132 0.76 42 61 169 0 167 0 ~ ~ ~ ~
1743. 2020-10-10 06:14 8.7 12.1 8.6 96 ~ ~ 1134 2.79 43 64 172 0 167 0 ~ ~ ~ ~
1744. 2020-10-10 07:14 8.7 12.1 8.6 96 ~ ~ 1136 2.03 44 66 174 0 167 0 ~ ~ ~ ~
1745. 2020-10-10 08:14 9.2 9.2 8.7 96 ~ ~ 1140 3.81 47 70 178 0 166 18 ~ ~ ~ ~
1746. 2020-10-10 09:14 9.2 9.2 8.7 96 ~ ~ 1140 0.25 46 70 178 0 150 8 ~ ~ ~ ~
1747. 2020-10-10 10:14 9.7 9.7 8.7 96 ~ ~ 1140 0.00 44 70 178 0 260 5 ~ ~ ~ ~
1748. 2020-10-10 11:14 11.3 11.3 8.7 90 ~ ~ 1140 0.00 42 70 178 0 182 6 ~ ~ ~ ~
1749. 2020-10-10 12:13 12.2 12.2 8.7 86 ~ ~ 1140 0.00 39 70 178 2 225 5 ~ ~ ~ ~
1750. 2020-10-10 13:14 12.4 12.4 8.7 83 ~ ~ 1140 0.00 37 70 178 0 122 10 ~ ~ ~ ~
1751. 2020-10-10 14:14 13.6 13.6 8.7 73 ~ ~ 1140 0.00 36 70 178 16 155 18 ~ ~ ~ ~
1752. 2020-10-10 15:14 15.8 15.8 8.7 59 ~ ~ 1140 0.00 35 70 178 0 224 11 ~ ~ ~ ~
1753. 2020-10-10 16:14 14.8 15.8 8.7 57 ~ ~ 1140 0.00 32 70 178 0 234 18 ~ ~ ~ ~
1754. 2020-10-10 17:14 13.2 15.8 8.7 68 ~ ~ 1140 0.00 29 70 178 5 154 11 ~ ~ ~ ~
1755. 2020-10-10 18:14 12.3 15.8 8.7 72 ~ ~ 1140 0.00 25 70 178 0 119 11 ~ ~ ~ ~
1756. 2020-10-10 19:14 11.3 15.8 8.7 79 ~ ~ 1140 0.00 20 70 178 0 232 11 ~ ~ ~ ~
1757. 2020-10-10 20:15 10.9 15.8 8.7 78 ~ ~ 1140 0.00 16 70 178 2 144 11 ~ ~ ~ ~
1758. 2020-10-10 21:14 10.4 15.8 8.7 82 ~ ~ 1140 0.00 13 70 178 0 148 3 ~ ~ ~ ~
1759. 2020-10-10 22:14 9.4 15.8 8.7 89 ~ ~ 1140 0.00 11 70 178 0 148 0 ~ ~ ~ ~
1760. 2020-10-10 23:14 8.8 15.8 8.7 91 ~ ~ 1140 0.00 10 70 178 0 148 0 ~ ~ ~ ~
1761. 2020-10-11 00:14 8.5 15.8 8.5 93 ~ ~ 1140 0.00 10 70 178 0 148 0 ~ ~ ~ ~
1762. 2020-10-11 01:14 8.1 15.8 8.1 93 ~ ~ 1140 0.00 10 70 178 0 148 0 ~ ~ ~ ~
1763. 2020-10-11 02:14 7.8 15.8 7.8 94 ~ ~ 1140 0.00 10 70 178 0 148 0 ~ ~ ~ ~
1764. 2020-10-11 03:14 7.7 15.8 7.7 94 ~ ~ 1140 0.00 10 70 178 0 148 0 ~ ~ ~ ~
1765. 2020-10-11 04:14 7.4 15.8 7.4 94 ~ ~ 1140 0.00 10 70 178 0 148 0 ~ ~ ~ ~
1766. 2020-10-11 05:15 7.3 15.8 7.3 94 ~ ~ 1140 0.00 9 70 178 0 148 0 ~ ~ ~ ~
1767. 2020-10-11 06:14 7.2 15.8 7.2 95 ~ ~ 1140 0.00 6 70 178 0 148 0 ~ ~ ~ ~
1768. 2020-10-11 07:14 7.1 15.8 7.1 94 ~ ~ 1140 0.00 4 70 178 0 148 0 ~ ~ ~ ~
1769. 2020-10-11 08:14 7.0 7.1 7.0 95 ~ ~ 1140 0.00 0 70 178 0 148 0 ~ ~ ~ ~
1770. 2020-10-11 09:14 7.4 7.4 7.0 95 ~ ~ 1140 0.00 0 69 178 0 148 0 ~ ~ ~ ~
1771. 2020-10-11 10:14 8.5 8.5 7.0 95 ~ ~ 1140 0.00 0 69 178 0 148 0 ~ ~ ~ ~
1772. 2020-10-11 11:14 9.5 9.5 7.0 94 ~ ~ 1140 0.00 0 69 178 0 148 0 ~ ~ ~ ~
1773. 2020-10-11 12:14 10.3 10.3 7.0 90 ~ ~ 1140 0.00 0 67 178 0 148 0 ~ ~ ~ ~
1774. 2020-10-11 13:14 10.1 10.3 7.0 91 ~ ~ 1140 0.00 0 66 178 0 148 0 ~ ~ ~ ~
1775. 2020-10-11 14:14 9.7 10.3 7.0 93 ~ ~ 1141 0.76 1 65 179 0 148 0 ~ ~ ~ ~
1776. 2020-10-11 15:14 8.4 10.3 7.0 94 ~ ~ 1143 1.52 2 67 181 0 148 0 ~ ~ ~ ~
1777. 2020-10-11 16:15 7.9 10.3 7.0 94 ~ ~ 1143 0.51 3 67 181 0 148 0 ~ ~ ~ ~
1778. 2020-10-11 17:14 7.7 10.3 7.0 94 ~ ~ 1144 0.25 3 67 181 0 148 0 ~ ~ ~ ~
1779. 2020-10-11 18:14 7.4 10.3 7.0 94 ~ ~ 1144 0.00 3 66 181 0 148 2 ~ ~ ~ ~
1780. 2020-10-11 19:14 7.1 10.3 7.0 95 ~ ~ 1144 0.25 3 66 182 0 157 0 ~ ~ ~ ~
1781. 2020-10-11 20:14 6.9 10.3 6.9 95 ~ ~ 1144 0.25 4 65 182 0 157 0 ~ ~ ~ ~
1782. 2020-10-11 21:14 6.8 10.3 6.8 95 ~ ~ 1144 0.00 4 64 182 0 157 0 ~ ~ ~ ~
1783. 2020-10-11 22:14 6.7 10.3 6.7 95 ~ ~ 1144 0.00 4 64 182 0 157 0 ~ ~ ~ ~
1784. 2020-10-11 23:14 6.6 10.3 6.6 95 ~ ~ 1144 0.00 4 62 182 0 157 0 ~ ~ ~ ~
1785. 2020-10-12 00:14 6.3 10.3 6.3 95 ~ ~ 1144 0.00 4 61 182 0 157 3 ~ ~ ~ ~
1786. 2020-10-12 01:14 6.4 10.3 6.3 95 ~ ~ 1144 0.00 4 60 182 0 157 0 ~ ~ ~ ~
1787. 2020-10-12 02:14 6.2 10.3 6.2 95 ~ ~ 1144 0.00 4 59 182 0 157 0 ~ ~ ~ ~
1788. 2020-10-12 03:14 6.3 10.3 6.2 95 ~ ~ 1144 0.00 4 57 182 0 157 0 ~ ~ ~ ~
1789. 2020-10-12 04:14 6.3 10.3 6.2 95 ~ ~ 1144 0.00 4 56 182 0 157 0 ~ ~ ~ ~
1790. 2020-10-12 05:14 6.5 10.3 6.2 95 ~ ~ 1144 0.00 4 55 182 0 157 0 ~ ~ ~ ~
1791. 2020-10-12 06:14 6.5 10.3 6.2 95 ~ ~ 1144 0.00 4 53 182 0 157 0 ~ ~ ~ ~
1792. 2020-10-12 07:14 6.5 10.3 6.2 95 ~ ~ 1144 0.00 4 52 182 0 157 0 ~ ~ ~ ~
1793. 2020-10-12 08:14 6.5 6.5 6.5 95 ~ ~ 1144 0.00 4 51 182 0 157 2 ~ ~ ~ ~
1794. 2020-10-12 09:14 6.7 6.7 6.5 95 ~ ~ 1144 0.00 4 50 182 0 157 0 ~ ~ ~ ~
1795. 2020-10-12 10:14 7.4 7.4 6.5 95 ~ ~ 1144 0.00 4 48 182 0 157 0 ~ ~ ~ ~
1796. 2020-10-12 11:14 7.8 7.8 6.5 95 ~ ~ 1144 0.00 4 45 182 0 157 0 ~ ~ ~ ~
1797. 2020-10-12 12:14 9.9 9.9 6.5 93 ~ ~ 1144 0.00 4 43 182 0 282 0 ~ ~ ~ ~
1798. 2020-10-12 13:14 13.3 13.3 6.5 81 ~ ~ 1144 0.00 4 41 182 0 280 3 ~ ~ ~ ~
1799. 2020-10-12 14:14 14.8 14.8 6.5 63 ~ ~ 1144 0.00 3 40 182 0 185 3 ~ ~ ~ ~
1800. 2020-10-12 15:15 14.8 14.8 6.5 73 ~ ~ 1144 0.00 1 38 182 0 55 2 ~ ~ ~ ~
1801. 2020-10-12 16:15 13.3 14.8 6.5 83 ~ ~ 1144 0.00 1 36 182 0 55 0 ~ ~ ~ ~
1802. 2020-10-12 17:14 12.4 14.8 6.5 88 ~ ~ 1144 0.00 1 33 182 0 55 0 ~ ~ ~ ~
1803. 2020-10-12 18:14 11.0 14.8 6.5 89 ~ ~ 1144 0.00 1 29 182 0 55 0 ~ ~ ~ ~
1804. 2020-10-12 19:14 9.5 14.8 6.5 91 ~ ~ 1144 0.00 0 24 182 0 55 0 ~ ~ ~ ~
1805. 2020-10-12 20:14 8.4 14.8 6.5 93 ~ ~ 1144 0.00 0 20 182 0 56 0 ~ ~ ~ ~
1806. 2020-10-12 21:14 7.8 14.8 6.5 94 ~ ~ 1144 0.00 0 16 181 0 55 0 ~ ~ ~ ~
1807. 2020-10-12 22:14 7.4 14.8 6.5 94 ~ ~ 1144 0.00 0 15 180 0 56 0 ~ ~ ~ ~
1808. 2020-10-12 23:14 7.1 14.8 6.5 94 ~ ~ 1144 0.00 0 14 180 0 94 3 ~ ~ ~ ~
1809. 2020-10-13 00:14 7.1 14.8 6.5 94 ~ ~ 1144 0.00 0 13 180 0 94 0 ~ ~ ~ ~
1810. 2020-10-13 01:14 7.2 14.8 6.5 95 ~ ~ 1144 0.00 0 13 180 0 94 0 ~ ~ ~ ~
1811. 2020-10-13 02:14 7.1 14.8 6.5 95 ~ ~ 1144 0.00 0 13 180 0 103 0 ~ ~ ~ ~
1812. 2020-10-13 03:14 7.0 14.8 6.5 95 ~ ~ 1144 0.00 0 13 180 0 103 0 ~ ~ ~ ~
1813. 2020-10-13 04:14 6.9 14.8 6.5 95 ~ ~ 1145 1.27 1 14 181 0 103 0 ~ ~ ~ ~
1814. 2020-10-13 05:14 6.5 14.8 6.5 95 ~ ~ 1147 1.52 3 15 183 0 103 0 ~ ~ ~ ~
1815. 2020-10-13 06:14 5.9 14.8 5.9 95 ~ ~ 1150 3.30 6 16 186 0 230 0 ~ ~ ~ ~
1816. 2020-10-13 07:14 5.4 14.8 5.4 95 ~ ~ 1150 0.25 6 14 186 0 148 3 ~ ~ ~ ~
1817. 2020-10-13 08:14 5.3 5.4 5.3 95 ~ ~ 1152 1.27 8 11 188 0 174 3 ~ ~ ~ ~
1818. 2020-10-13 09:14 5.2 5.4 5.2 95 ~ ~ 1154 2.29 10 13 190 0 183 0 ~ ~ ~ ~
1819. 2020-10-13 10:14 5.2 5.4 5.2 95 ~ ~ 1155 0.76 11 14 191 0 183 0 ~ ~ ~ ~
1820. 2020-10-13 11:15 5.3 5.4 5.2 95 ~ ~ 1157 2.29 13 17 193 0 217 5 ~ ~ ~ ~
1821. 2020-10-13 12:14 5.2 5.4 5.2 95 ~ ~ 1162 4.57 18 21 198 0 213 0 ~ ~ ~ ~
1822. 2020-10-13 13:14 5.3 5.4 5.2 95 ~ ~ 1165 3.81 21 25 201 0 213 0 ~ ~ ~ ~
1823. 2020-10-13 14:14 5.3 5.4 5.2 95 ~ ~ 1168 3.05 24 28 204 0 171 8 ~ ~ ~ ~
1824. 2020-10-13 15:14 5.3 5.4 5.2 95 ~ ~ 1170 1.52 26 29 206 0 172 0 ~ ~ ~ ~
1825. 2020-10-13 16:14 5.7 5.7 5.2 95 ~ ~ 1170 0.00 26 29 206 0 172 0 ~ ~ ~ ~
1826. 2020-10-13 17:14 5.9 5.9 5.2 95 ~ ~ 1170 0.25 26 30 206 0 172 0 ~ ~ ~ ~
1827. 2020-10-13 18:14 6.1 6.1 5.2 95 ~ ~ 1170 0.00 26 30 206 0 172 0 ~ ~ ~ ~
1828. 2020-10-13 19:14 5.9 6.1 5.2 95 ~ ~ 1170 0.00 26 30 206 0 172 0 ~ ~ ~ ~
1829. 2020-10-13 20:14 5.9 6.1 5.2 95 ~ ~ 1170 0.00 26 30 206 0 172 0 ~ ~ ~ ~
1830. 2020-10-13 21:14 5.9 6.1 5.2 95 ~ ~ 1170 0.00 26 30 206 0 172 0 ~ ~ ~ ~
1831. 2020-10-13 22:14 6.0 6.1 5.2 95 ~ ~ 1170 0.00 26 30 206 0 172 0 ~ ~ ~ ~
1832. 2020-10-13 23:14 6.2 6.2 5.2 95 ~ ~ 1170 0.00 26 30 206 0 172 0 ~ ~ ~ ~
1833. 2020-10-14 00:14 6.2 6.2 5.2 95 ~ ~ 1170 0.00 26 30 206 0 172 0 ~ ~ ~ ~
1834. 2020-10-14 01:14 6.2 6.2 5.2 95 ~ ~ 1170 0.00 26 30 206 0 172 0 ~ ~ ~ ~
1835. 2020-10-14 02:14 6.3 6.3 5.2 95 ~ ~ 1170 0.00 26 30 206 0 172 0 ~ ~ ~ ~
1836. 2020-10-14 03:14 6.3 6.3 5.2 95 ~ ~ 1170 0.00 26 30 206 0 172 0 ~ ~ ~ ~
1837. 2020-10-14 04:14 6.3 6.3 5.2 95 ~ ~ 1170 0.00 25 30 206 0 172 0 ~ ~ ~ ~
1838. 2020-10-14 05:14 6.4 6.4 5.2 95 ~ ~ 1170 0.00 23 30 206 0 172 0 ~ ~ ~ ~
1839. 2020-10-14 06:14 6.4 6.4 5.2 95 ~ ~ 1170 0.00 20 30 206 0 172 0 ~ ~ ~ ~
1840. 2020-10-14 07:14 6.4 6.4 5.2 95 ~ ~ 1170 0.00 20 30 206 0 172 0 ~ ~ ~ ~
1841. 2020-10-14 08:14 6.5 6.5 6.4 95 ~ ~ 1170 0.00 19 30 206 0 172 0 ~ ~ ~ ~
1842. 2020-10-14 09:14 6.7 6.7 6.4 95 ~ ~ 1170 0.00 16 30 206 0 172 0 ~ ~ ~ ~
1843. 2020-10-14 10:14 7.3 7.3 6.4 95 ~ ~ 1170 0.00 15 30 206 0 172 0 ~ ~ ~ ~
1844. 2020-10-14 11:14 8.0 8.0 6.4 95 ~ ~ 1170 0.00 13 30 206 0 172 0 ~ ~ ~ ~
1845. 2020-10-14 12:14 9.1 9.1 6.4 95 ~ ~ 1170 0.00 9 30 206 0 172 3 ~ ~ ~ ~
1846. 2020-10-14 13:14 10.1 10.1 6.4 94 ~ ~ 1170 0.00 5 30 206 0 172 2 ~ ~ ~ ~
1847. 2020-10-14 14:14 11.8 11.8 6.4 91 ~ ~ 1170 0.00 2 29 206 0 172 0 ~ ~ ~ ~
1848. 2020-10-14 15:14 11.6 11.8 6.4 91 ~ ~ 1170 0.00 0 27 206 0 172 0 ~ ~ ~ ~
1849. 2020-10-14 16:14 11.3 11.8 6.4 93 ~ ~ 1170 0.00 0 27 206 0 172 2 ~ ~ ~ ~
1850. 2020-10-14 17:14 10.9 11.8 6.4 92 ~ ~ 1170 0.00 0 27 206 0 172 2 ~ ~ ~ ~
1851. 2020-10-14 18:14 10.3 11.8 6.4 93 ~ ~ 1170 0.00 0 27 206 0 172 0 ~ ~ ~ ~
1852. 2020-10-14 19:14 9.3 11.8 6.4 93 ~ ~ 1170 0.00 0 26 206 0 172 0 ~ ~ ~ ~
1853. 2020-10-14 20:14 8.6 11.8 6.4 94 ~ ~ 1170 0.00 0 26 206 0 172 0 ~ ~ ~ ~
1854. 2020-10-14 21:14 8.2 11.8 6.4 94 ~ ~ 1170 0.00 0 26 206 0 172 0 ~ ~ ~ ~
1855. 2020-10-14 22:14 7.9 11.8 6.4 94 ~ ~ 1170 0.00 0 26 206 0 172 0 ~ ~ ~ ~
1856. 2020-10-14 23:14 7.6 11.8 6.4 94 ~ ~ 1170 0.00 0 26 206 0 172 0 ~ ~ ~ ~
1857. 2020-10-15 00:14 7.6 11.8 6.4 95 ~ ~ 1170 0.00 0 26 206 0 172 0 ~ ~ ~ ~
1858. 2020-10-15 01:14 7.6 11.8 6.4 94 ~ ~ 1170 0.00 0 26 206 0 172 0 ~ ~ ~ ~
1859. 2020-10-15 02:14 7.4 11.8 6.4 94 ~ ~ 1170 0.00 0 26 206 0 172 0 ~ ~ ~ ~
1860. 2020-10-15 03:14 7.1 11.8 6.4 94 ~ ~ 1170 0.00 0 26 206 0 172 0 ~ ~ ~ ~
1861. 2020-10-15 04:14 6.4 11.8 6.4 94 ~ ~ 1170 0.00 0 26 206 0 172 0 ~ ~ ~ ~
1862. 2020-10-15 05:14 5.6 11.8 5.6 95 ~ ~ 1170 0.00 0 26 206 0 172 0 ~ ~ ~ ~
1863. 2020-10-15 06:14 5.0 11.8 5.0 95 ~ ~ 1170 0.00 0 26 206 0 172 0 ~ ~ ~ ~
1864. 2020-10-15 07:14 4.7 11.8 4.7 95 ~ ~ 1170 0.00 0 26 206 0 172 0 ~ ~ ~ ~
1865. 2020-10-15 08:14 4.7 4.7 4.7 95 ~ ~ 1170 0.00 0 26 206 0 172 0 ~ ~ ~ ~
1866. 2020-10-15 09:14 5.3 5.3 4.7 95 ~ ~ 1170 0.00 0 26 206 0 172 0 ~ ~ ~ ~
1867. 2020-10-15 10:14 6.5 6.5 4.7 95 ~ ~ 1170 0.00 0 26 206 0 172 0 ~ ~ ~ ~
1868. 2020-10-15 11:14 7.1 7.1 4.7 94 ~ ~ 1170 0.00 0 26 206 0 172 0 ~ ~ ~ ~
1869. 2020-10-15 12:14 8.6 8.6 4.7 94 ~ ~ 1170 0.00 0 26 206 0 172 0 ~ ~ ~ ~
1870. 2020-10-15 13:14 10.0 10.0 4.7 87 ~ ~ 1170 0.00 0 26 206 0 172 0 ~ ~ ~ ~
1871. 2020-10-15 14:14 10.1 10.1 4.7 92 ~ ~ 1170 0.00 0 26 206 0 172 0 ~ ~ ~ ~
1872. 2020-10-15 15:14 9.8 10.1 4.7 93 ~ ~ 1170 0.00 0 26 206 0 172 0 ~ ~ ~ ~
1873. 2020-10-15 16:14 9.6 10.1 4.7 93 ~ ~ 1170 0.00 0 26 206 0 172 0 ~ ~ ~ ~
1874. 2020-10-15 17:14 9.1 10.1 4.7 93 ~ ~ 1170 0.25 0 26 207 0 172 0 ~ ~ ~ ~
1875. 2020-10-15 18:14 8.0 10.1 4.7 94 ~ ~ 1171 1.02 1 27 208 0 149 8 ~ ~ ~ ~
1876. 2020-10-15 19:14 7.1 10.1 4.7 94 ~ ~ 1173 1.27 3 29 209 0 194 8 ~ ~ ~ ~
1877. 2020-10-15 20:14 6.8 10.1 4.7 94 ~ ~ 1173 0.25 3 29 209 0 168 0 ~ ~ ~ ~
1878. 2020-10-15 21:14 6.7 10.1 4.7 94 ~ ~ 1173 0.51 3 29 210 0 168 0 ~ ~ ~ ~
1879. 2020-10-15 22:14 6.5 10.1 4.7 95 ~ ~ 1174 1.02 4 30 211 0 168 0 ~ ~ ~ ~
1880. 2020-10-15 23:14 6.3 10.1 4.7 95 ~ ~ 1176 1.78 6 32 212 0 168 0 ~ ~ ~ ~
1881. 2020-10-16 00:14 5.8 10.1 4.7 95 ~ ~ 1178 1.52 8 34 214 0 168 0 ~ ~ ~ ~
1882. 2020-10-16 01:14 5.3 10.1 4.7 94 ~ ~ 1179 1.02 9 35 215 0 168 0 ~ ~ ~ ~
1883. 2020-10-16 02:14 5.1 10.1 4.7 95 ~ ~ 1179 0.51 9 35 215 0 168 0 ~ ~ ~ ~
1884. 2020-10-16 03:14 4.9 10.1 4.7 95 ~ ~ 1180 0.76 10 36 216 0 168 0 ~ ~ ~ ~
1885. 2020-10-16 04:14 4.9 10.1 4.7 95 ~ ~ 1181 0.76 11 36 217 0 168 0 ~ ~ ~ ~
1886. 2020-10-16 05:14 4.8 10.1 4.7 95 ~ ~ 1182 1.02 12 35 218 0 168 0 ~ ~ ~ ~
1887. 2020-10-16 06:14 4.8 10.1 4.7 95 ~ ~ 1183 1.27 13 33 219 0 168 0 ~ ~ ~ ~
1888. 2020-10-16 07:14 4.8 10.1 4.7 95 ~ ~ 1185 2.03 15 35 221 0 168 0 ~ ~ ~ ~
1889. 2020-10-16 08:14 4.8 4.8 4.8 95 ~ ~ 1187 2.29 17 36 224 0 168 0 ~ ~ ~ ~
1890. 2020-10-16 09:14 4.9 4.9 4.8 95 ~ ~ 1190 2.29 20 36 226 0 168 0 ~ ~ ~ ~
1891. 2020-10-16 10:14 5.3 5.3 4.8 95 ~ ~ 1190 0.25 20 35 226 0 168 0 ~ ~ ~ ~
1892. 2020-10-16 11:14 5.8 5.8 4.8 95 ~ ~ 1190 0.00 20 33 226 0 168 0 ~ ~ ~ ~
1893. 2020-10-16 12:14 6.6 6.6 4.8 95 ~ ~ 1190 0.00 20 28 226 0 168 2 ~ ~ ~ ~
1894. 2020-10-16 13:14 6.9 6.9 4.8 95 ~ ~ 1190 0.00 20 25 226 0 168 0 ~ ~ ~ ~
1895. 2020-10-16 14:14 7.7 7.7 4.8 94 ~ ~ 1190 0.00 20 22 226 0 168 0 ~ ~ ~ ~
1896. 2020-10-16 15:14 9.2 9.2 4.8 94 ~ ~ 1190 0.00 20 20 226 0 168 0 ~ ~ ~ ~
1897. 2020-10-16 16:14 9.9 9.9 4.8 94 ~ ~ 1190 0.00 20 20 226 0 168 0 ~ ~ ~ ~
1898. 2020-10-16 17:14 10.1 10.1 4.8 94 ~ ~ 1190 0.00 20 20 226 0 168 0 ~ ~ ~ ~
1899. 2020-10-16 18:14 9.7 10.1 4.8 94 ~ ~ 1190 0.00 19 20 226 0 168 0 ~ ~ ~ ~
1900. 2020-10-16 19:14 9.1 10.1 4.8 94 ~ ~ 1190 0.00 17 20 226 0 168 0 ~ ~ ~ ~
1901. 2020-10-16 20:14 8.7 10.1 4.8 94 ~ ~ 1190 0.00 17 20 226 0 168 0 ~ ~ ~ ~
1902. 2020-10-16 21:14 8.4 10.1 4.8 94 ~ ~ 1190 0.00 17 20 226 0 168 0 ~ ~ ~ ~
1903. 2020-10-16 22:14 8.2 10.1 4.8 95 ~ ~ 1190 0.00 15 20 226 0 168 0 ~ ~ ~ ~
1904. 2020-10-16 23:14 8.1 10.1 4.8 94 ~ ~ 1190 0.00 14 20 226 0 168 0 ~ ~ ~ ~
1905. 2020-10-17 00:14 8.1 10.1 4.8 94 ~ ~ 1190 0.00 12 20 226 0 168 0 ~ ~ ~ ~
1906. 2020-10-17 01:14 8.1 10.1 4.8 94 ~ ~ 1190 0.00 11 20 226 0 168 0 ~ ~ ~ ~
1907. 2020-10-17 02:14 8.0 10.1 4.8 95 ~ ~ 1190 0.00 11 20 226 0 168 0 ~ ~ ~ ~
1908. 2020-10-17 03:14 7.9 10.1 4.8 95 ~ ~ 1190 0.00 10 20 226 0 168 0 ~ ~ ~ ~
1909. 2020-10-17 04:14 7.9 10.1 4.8 95 ~ ~ 1190 0.51 10 20 227 0 168 0 ~ ~ ~ ~
1910. 2020-10-17 05:15 7.9 10.1 4.8 95 ~ ~ 1190 0.00 9 20 227 0 168 0 ~ ~ ~ ~
1911. 2020-10-17 06:14 7.9 10.1 4.8 94 ~ ~ 1190 0.00 7 20 227 0 168 0 ~ ~ ~ ~
1912. 2020-10-17 07:14 7.9 10.1 4.8 94 ~ ~ 1190 0.00 5 20 226 0 168 0 ~ ~ ~ ~
1913. 2020-10-17 08:14 7.9 7.9 7.9 94 ~ ~ 1190 0.00 3 20 221 0 168 0 ~ ~ ~ ~
1914. 2020-10-17 09:14 8.0 8.0 7.9 94 ~ ~ 1190 0.00 1 20 220 0 168 0 ~ ~ ~ ~
1915. 2020-10-17 10:14 8.3 8.3 7.9 94 ~ ~ 1190 0.00 1 20 220 0 168 0 ~ ~ ~ ~
1916. 2020-10-17 11:14 9.3 9.3 7.9 94 ~ ~ 1190 0.00 1 20 220 0 168 0 ~ ~ ~ ~
1917. 2020-10-17 12:14 9.9 9.9 7.9 94 ~ ~ 1190 0.00 1 20 220 3 168 3 ~ ~ ~ ~
1918. 2020-10-17 13:14 11.2 11.2 7.9 91 ~ ~ 1190 0.00 1 20 220 0 168 6 ~ ~ ~ ~
1919. 2020-10-17 14:14 11.8 11.8 7.9 93 ~ ~ 1190 0.00 1 20 220 0 168 0 ~ ~ ~ ~
1920. 2020-10-17 15:15 12.1 12.1 7.9 92 ~ ~ 1190 0.00 1 20 220 0 168 0 ~ ~ ~ ~
1921. 2020-10-17 16:14 12.0 12.1 7.9 92 ~ ~ 1190 0.00 1 20 220 0 168 0 ~ ~ ~ ~
1922. 2020-10-17 17:14 11.6 12.1 7.9 93 ~ ~ 1190 0.00 1 20 220 0 168 0 ~ ~ ~ ~
1923. 2020-10-17 18:14 10.8 12.1 7.9 93 ~ ~ 1190 0.00 1 20 220 0 168 0 ~ ~ ~ ~
1924. 2020-10-17 19:14 10.1 12.1 7.9 93 ~ ~ 1190 0.00 1 20 220 0 168 0 ~ ~ ~ ~
1925. 2020-10-17 20:14 9.4 12.1 7.9 94 ~ ~ 1190 0.00 1 20 220 0 168 0 ~ ~ ~ ~
1926. 2020-10-17 21:14 9.0 12.1 7.9 94 ~ ~ 1190 0.00 1 20 220 0 168 0 ~ ~ ~ ~
1927. 2020-10-17 22:14 8.8 12.1 7.9 94 ~ ~ 1191 0.25 1 21 221 0 168 0 ~ ~ ~ ~
1928. 2020-10-17 23:14 8.5 12.1 7.9 94 ~ ~ 1194 2.79 4 23 224 3 138 11 ~ ~ ~ ~
1929. 2020-10-18 00:14 7.6 12.1 7.6 94 ~ ~ 1195 1.78 5 25 225 0 148 6 ~ ~ ~ ~
1930. 2020-10-18 01:14 7.1 12.1 7.1 94 ~ ~ 1196 0.51 6 26 226 2 161 6 ~ ~ ~ ~
1931. 2020-10-18 02:14 6.8 12.1 6.8 94 ~ ~ 1196 0.51 6 26 226 0 149 0 ~ ~ ~ ~
1932. 2020-10-18 03:14 6.7 12.1 6.7 94 ~ ~ 1197 0.25 7 26 226 0 149 0 ~ ~ ~ ~
1933. 2020-10-18 04:14 6.7 12.1 6.7 94 ~ ~ 1197 0.51 7 27 227 0 149 0 ~ ~ ~ ~
1934. 2020-10-18 05:14 6.6 12.1 6.6 94 ~ ~ 1198 0.51 7 27 227 0 149 0 ~ ~ ~ ~
1935. 2020-10-18 06:15 6.5 12.1 6.5 94 ~ ~ 1198 0.51 8 28 228 0 149 0 ~ ~ ~ ~
1936. 2020-10-18 07:14 6.4 12.1 6.4 94 ~ ~ 1198 0.00 8 28 228 0 149 0 ~ ~ ~ ~
1937. 2020-10-18 08:14 6.2 6.4 6.2 94 ~ ~ 1198 0.00 8 28 228 0 149 0 ~ ~ ~ ~
1938. 2020-10-18 09:14 6.4 6.4 6.2 94 ~ ~ 1198 0.00 8 28 228 0 149 0 ~ ~ ~ ~
1939. 2020-10-18 10:14 6.8 6.8 6.2 94 ~ ~ 1198 0.00 8 28 228 0 149 0 ~ ~ ~ ~
1940. 2020-10-18 11:14 7.4 7.4 6.2 94 ~ ~ 1198 0.00 8 28 228 0 149 0 ~ ~ ~ ~
1941. 2020-10-18 12:14 7.6 7.6 6.2 94 ~ ~ 1198 0.00 8 28 228 0 149 0 ~ ~ ~ ~
1942. 2020-10-18 13:14 7.7 7.7 6.2 94 ~ ~ 1198 0.00 8 28 228 0 149 0 ~ ~ ~ ~
1943. 2020-10-18 14:14 7.7 7.7 6.2 94 ~ ~ 1198 0.00 8 28 228 0 149 0 ~ ~ ~ ~
1944. 2020-10-18 15:14 8.2 8.2 6.2 94 ~ ~ 1198 0.00 8 28 228 0 149 0 ~ ~ ~ ~
1945. 2020-10-18 16:14 8.4 8.4 6.2 94 ~ ~ 1198 0.00 8 28 228 0 149 0 ~ ~ ~ ~
1946. 2020-10-18 17:14 8.4 8.4 6.2 94 ~ ~ 1198 0.00 8 28 228 0 149 0 ~ ~ ~ ~
1947. 2020-10-18 18:14 7.9 8.4 6.2 94 ~ ~ 1198 0.00 8 27 228 0 149 0 ~ ~ ~ ~
1948. 2020-10-18 19:14 7.7 8.4 6.2 94 ~ ~ 1199 1.02 9 26 229 0 149 0 ~ ~ ~ ~
1949. 2020-10-18 20:14 7.4 8.4 6.2 94 ~ ~ 1200 0.76 9 27 229 0 149 0 ~ ~ ~ ~
1950. 2020-10-18 21:14 7.3 8.4 6.2 94 ~ ~ 1200 0.51 10 27 230 0 149 0 ~ ~ ~ ~
1951. 2020-10-18 22:14 7.2 8.4 6.2 94 ~ ~ 1200 0.00 10 26 230 0 149 0 ~ ~ ~ ~
1952. 2020-10-18 23:14 7.2 8.4 6.2 94 ~ ~ 1201 0.51 7 25 230 0 149 0 ~ ~ ~ ~
1953. 2020-10-19 00:14 7.2 8.4 6.2 94 ~ ~ 1201 0.25 6 23 231 0 149 0 ~ ~ ~ ~
1954. 2020-10-19 01:14 7.1 8.4 6.2 94 ~ ~ 1201 0.25 6 23 230 0 149 0 ~ ~ ~ ~
1955. 2020-10-19 02:14 7.1 8.4 6.2 94 ~ ~ 1202 0.25 5 22 229 0 149 0 ~ ~ ~ ~
1956. 2020-10-19 03:14 7.1 8.4 6.2 94 ~ ~ 1202 0.25 5 22 229 0 149 0 ~ ~ ~ ~
1957. 2020-10-19 04:14 7.2 8.4 6.2 94 ~ ~ 1202 0.25 5 21 229 0 149 0 ~ ~ ~ ~
1958. 2020-10-19 05:14 7.2 8.4 6.2 94 ~ ~ 1202 0.00 5 20 229 0 149 2 ~ ~ ~ ~
1959. 2020-10-19 06:14 7.3 8.4 6.2 94 ~ ~ 1202 0.00 4 19 229 0 149 0 ~ ~ ~ ~
1960. 2020-10-19 07:14 7.3 8.4 6.2 94 ~ ~ 1202 0.00 4 17 229 0 149 0 ~ ~ ~ ~
1961. 2020-10-19 08:14 7.4 7.4 7.3 94 ~ ~ 1202 0.00 4 15 229 0 149 0 ~ ~ ~ ~
1962. 2020-10-19 09:14 7.6 7.6 7.3 94 ~ ~ 1202 0.00 4 12 228 0 149 0 ~ ~ ~ ~
1963. 2020-10-19 10:14 8.0 8.0 7.3 94 ~ ~ 1202 0.00 4 12 227 0 149 0 ~ ~ ~ ~
1964. 2020-10-19 11:14 8.9 8.9 7.3 94 ~ ~ 1202 0.00 4 12 227 0 149 0 ~ ~ ~ ~
1965. 2020-10-19 12:14 9.8 9.8 7.3 94 ~ ~ 1202 0.00 4 12 227 0 149 0 ~ ~ ~ ~
1966. 2020-10-19 13:14 10.3 10.3 7.3 94 ~ ~ 1202 0.00 4 12 227 0 149 0 ~ ~ ~ ~
1967. 2020-10-19 14:14 11.7 11.7 7.3 92 ~ ~ 1202 0.00 4 12 227 0 193 11 ~ ~ ~ ~
1968. 2020-10-19 15:14 12.6 12.6 7.3 89 ~ ~ 1202 0.00 4 12 227 0 198 2 ~ ~ ~ ~
1969. 2020-10-19 16:14 12.3 12.6 7.3 92 ~ ~ 1202 0.00 4 12 227 0 198 0 ~ ~ ~ ~
1970. 2020-10-19 17:14 11.6 12.6 7.3 92 ~ ~ 1202 0.00 4 12 227 0 198 0 ~ ~ ~ ~
1971. 2020-10-19 18:14 10.5 12.6 7.3 93 ~ ~ 1202 0.00 4 12 227 0 198 2 ~ ~ ~ ~
1972. 2020-10-19 19:14 9.7 12.6 7.3 93 ~ ~ 1202 0.00 3 12 227 0 198 0 ~ ~ ~ ~
1973. 2020-10-19 20:14 9.1 12.6 7.3 94 ~ ~ 1202 0.00 2 12 227 0 198 0 ~ ~ ~ ~
1974. 2020-10-19 21:14 8.6 12.6 7.3 94 ~ ~ 1202 0.00 2 12 227 0 198 0 ~ ~ ~ ~
1975. 2020-10-19 22:14 8.2 12.6 7.3 94 ~ ~ 1202 0.00 2 12 227 0 198 0 ~ ~ ~ ~
1976. 2020-10-19 23:14 7.9 12.6 7.3 94 ~ ~ 1202 0.00 1 12 227 0 198 0 ~ ~ ~ ~
1977. 2020-10-20 00:14 7.8 12.6 7.3 94 ~ ~ 1202 0.00 1 12 227 0 198 0 ~ ~ ~ ~
1978. 2020-10-20 01:14 7.7 12.6 7.3 94 ~ ~ 1202 0.00 1 12 227 0 198 0 ~ ~ ~ ~
1979. 2020-10-20 02:14 7.7 12.6 7.3 94 ~ ~ 1202 0.00 1 12 227 0 198 0 ~ ~ ~ ~
1980. 2020-10-20 03:14 7.7 12.6 7.3 94 ~ ~ 1202 0.00 0 12 227 0 198 0 ~ ~ ~ ~
1981. 2020-10-20 04:15 7.7 12.6 7.3 94 ~ ~ 1202 0.00 0 12 227 0 198 0 ~ ~ ~ ~
1982. 2020-10-20 05:15 7.6 12.6 7.3 94 ~ ~ 1202 0.00 0 12 227 0 198 0 ~ ~ ~ ~
1983. 2020-10-20 06:14 7.5 12.6 7.3 94 ~ ~ 1202 0.00 0 12 227 2 285 6 ~ ~ ~ ~
1984. 2020-10-20 07:14 8.1 12.6 7.3 94 ~ ~ 1202 0.00 0 12 227 0 107 0 ~ ~ ~ ~
1985. 2020-10-20 08:14 7.7 8.1 7.7 94 ~ ~ 1202 0.00 0 12 227 2 107 2 ~ ~ ~ ~
1986. 2020-10-20 09:14 8.3 8.3 7.7 93 ~ ~ 1202 0.00 0 12 227 0 159 0 ~ ~ ~ ~
1987. 2020-10-20 10:14 8.5 8.5 7.7 94 ~ ~ 1202 0.00 0 12 227 0 159 2 ~ ~ ~ ~
1988. 2020-10-20 11:14 9.4 9.4 7.7 93 ~ ~ 1202 0.00 0 12 227 0 159 2 ~ ~ ~ ~
1989. 2020-10-20 12:14 10.6 10.6 7.7 87 ~ ~ 1202 0.00 0 12 227 0 159 0 ~ ~ ~ ~
1990. 2020-10-20 13:15 11.5 11.5 7.7 84 ~ ~ 1202 0.00 0 12 227 0 159 2 ~ ~ ~ ~
1991. 2020-10-20 14:14 13.2 13.2 7.7 78 ~ ~ 1202 0.00 0 12 227 0 159 3 ~ ~ ~ ~
1992. 2020-10-20 15:14 13.0 13.2 7.7 76 ~ ~ 1202 0.00 0 12 227 2 263 3 ~ ~ ~ ~
1993. 2020-10-20 16:14 12.1 13.2 7.7 85 ~ ~ 1202 0.00 0 12 227 0 263 0 ~ ~ ~ ~
1994. 2020-10-20 17:14 10.7 13.2 7.7 90 ~ ~ 1202 0.00 0 12 227 0 263 0 ~ ~ ~ ~
1995. 2020-10-20 18:14 9.4 13.2 7.7 92 ~ ~ 1202 0.00 0 12 227 0 130 0 ~ ~ ~ ~
1996. 2020-10-20 19:14 8.6 13.2 7.7 93 ~ ~ 1202 0.00 0 12 227 0 136 2 ~ ~ ~ ~
1997. 2020-10-20 20:14 7.7 13.2 7.7 93 ~ ~ 1202 0.00 0 12 227 0 136 0 ~ ~ ~ ~
1998. 2020-10-20 21:14 7.3 13.2 7.3 93 ~ ~ 1202 0.00 0 12 227 0 136 0 ~ ~ ~ ~
1999. 2020-10-20 22:14 7.2 13.2 7.2 93 ~ ~ 1202 0.00 0 11 227 0 136 0 ~ ~ ~ ~
2000. 2020-10-20 23:14 6.9 13.2 6.9 93 ~ ~ 1202 0.00 0 9 227 0 136 0 ~ ~ ~ ~
2001. 2020-10-21 00:14 6.8 13.2 6.8 94 ~ ~ 1202 0.00 0 7 227 0 136 0 ~ ~ ~ ~
2002. 2020-10-21 01:14 6.6 13.2 6.6 94 ~ ~ 1202 0.00 0 6 226 0 136 0 ~ ~ ~ ~
2003. 2020-10-21 02:14 6.3 13.2 6.3 94 ~ ~ 1202 0.00 0 6 226 0 136 0 ~ ~ ~ ~
2004. 2020-10-21 03:15 6.1 13.2 6.1 94 ~ ~ 1202 0.00 0 6 225 0 136 0 ~ ~ ~ ~
2005. 2020-10-21 04:14 5.8 13.2 5.8 94 ~ ~ 1202 0.00 0 5 224 0 136 0 ~ ~ ~ ~
2006. 2020-10-21 05:14 5.8 13.2 5.8 94 ~ ~ 1202 0.00 0 5 220 0 136 0 ~ ~ ~ ~
2007. 2020-10-21 06:14 5.8 13.2 5.8 94 ~ ~ 1202 0.00 0 4 220 0 136 0 ~ ~ ~ ~
2008. 2020-10-21 07:14 5.6 13.2 5.6 94 ~ ~ 1202 0.00 0 4 220 0 136 2 ~ ~ ~ ~
2009. 2020-10-21 08:14 4.9 5.6 4.9 94 ~ ~ 1202 0.00 0 4 220 0 136 0 ~ ~ ~ ~
2010. 2020-10-21 09:14 4.9 5.6 4.9 94 ~ ~ 1202 0.25 0 4 220 0 136 0 ~ ~ ~ ~
2011. 2020-10-21 10:14 5.5 5.6 4.9 94 ~ ~ 1202 0.00 0 4 220 0 136 0 ~ ~ ~ ~
2012. 2020-10-21 11:14 5.3 5.6 4.9 94 ~ ~ 1202 0.00 0 4 220 0 136 0 ~ ~ ~ ~
2013. 2020-10-21 12:14 6.3 6.3 4.9 94 ~ ~ 1202 0.00 0 4 220 0 263 3 ~ ~ ~ ~
2014. 2020-10-21 13:14 10.4 10.4 4.9 85 ~ ~ 1202 0.00 0 4 220 0 263 3 ~ ~ ~ ~
2015. 2020-10-21 14:14 12.9 12.9 4.9 68 ~ ~ 1202 0.00 0 4 220 0 271 3 ~ ~ ~ ~
2016. 2020-10-21 15:14 13.3 13.3 4.9 55 ~ ~ 1202 0.00 0 4 220 2 273 5 ~ ~ ~ ~
2017. 2020-10-21 16:14 12.6 13.3 4.9 62 ~ ~ 1202 0.00 0 4 219 0 173 2 ~ ~ ~ ~
2018. 2020-10-21 17:14 8.8 13.3 4.9 80 ~ ~ 1202 0.00 0 4 217 0 251 0 ~ ~ ~ ~
2019. 2020-10-21 18:14 6.6 13.3 4.9 87 ~ ~ 1202 0.00 0 4 217 0 155 0 ~ ~ ~ ~
2020. 2020-10-21 19:14 5.0 13.3 4.9 89 ~ ~ 1202 0.00 0 3 212 0 155 0 ~ ~ ~ ~
2021. 2020-10-21 20:14 4.0 13.3 4.0 91 ~ ~ 1202 0.00 0 3 205 0 155 0 ~ ~ ~ ~
2022. 2020-10-21 21:14 3.3 13.3 3.3 92 ~ ~ 1202 0.00 0 2 205 0 155 0 ~ ~ ~ ~
2023. 2020-10-21 22:14 2.6 13.3 2.6 92 ~ ~ 1202 0.00 0 2 203 0 155 0 ~ ~ ~ ~
2024. 2020-10-21 23:14 2.1 13.3 2.1 93 ~ ~ 1202 0.00 0 2 203 0 155 0 ~ ~ ~ ~
2025. 2020-10-22 00:14 1.7 13.3 1.7 93 ~ ~ 1202 0.00 0 1 203 0 155 2 ~ ~ ~ ~
2026. 2020-10-22 01:14 1.3 13.3 1.3 93 ~ ~ 1202 0.00 0 1 202 0 155 0 ~ ~ ~ ~
2027. 2020-10-22 02:14 1.1 13.3 1.1 93 ~ ~ 1202 0.00 0 1 199 0 155 0 ~ ~ ~ ~
2028. 2020-10-22 03:14 0.7 13.3 0.7 93 ~ ~ 1202 0.00 0 1 196 0 155 0 ~ ~ ~ ~
2029. 2020-10-22 04:14 0.4 13.3 0.4 93 ~ ~ 1202 0.00 0 0 196 0 155 0 ~ ~ ~ ~
2030. 2020-10-22 05:15 0.2 13.3 0.2 93 ~ ~ 1202 0.00 0 0 195 0 155 2 ~ ~ ~ ~
2031. 2020-10-22 06:14 -0.3 13.3 -0.3 93 ~ ~ 1202 0.00 0 0 193 0 155 0 ~ ~ ~ ~
2032. 2020-10-22 07:14 -0.6 13.3 -0.6 93 ~ ~ 1202 0.00 0 0 192 0 155 0 ~ ~ ~ ~
2033. 2020-10-22 08:14 -0.6 -0.6 -0.6 94 ~ ~ 1202 0.00 0 0 192 0 155 0 ~ ~ ~ ~
2034. 2020-10-22 09:14 -0.2 -0.2 -0.6 93 ~ ~ 1202 0.00 0 0 192 0 155 0 ~ ~ ~ ~
2035. 2020-10-22 10:14 0.9 0.9 -0.6 94 ~ ~ 1202 0.00 0 0 190 0 155 0 ~ ~ ~ ~
2036. 2020-10-22 11:14 1.7 1.7 -0.6 94 ~ ~ 1202 0.00 0 0 189 0 155 0 ~ ~ ~ ~
2037. 2020-10-22 12:14 2.4 2.4 -0.6 94 ~ ~ 1202 0.00 0 0 189 0 155 0 ~ ~ ~ ~
2038. 2020-10-22 13:14 5.7 5.7 -0.6 90 ~ ~ 1202 0.00 0 0 189 0 155 2 ~ ~ ~ ~
2039. 2020-10-22 14:14 9.2 9.2 -0.6 76 ~ ~ 1202 0.00 0 0 189 0 280 0 ~ ~ ~ ~
2040. 2020-10-22 15:14 9.2 9.2 -0.6 77 ~ ~ 1202 0.00 0 0 189 0 280 0 ~ ~ ~ ~
2041. 2020-10-22 16:14 8.2 9.2 -0.6 83 ~ ~ 1202 0.00 0 0 188 0 280 0 ~ ~ ~ ~
2042. 2020-10-22 17:14 7.3 9.2 -0.6 87 ~ ~ 1202 0.00 0 0 188 0 280 0 ~ ~ ~ ~
2043. 2020-10-22 18:14 6.3 9.2 -0.6 86 ~ ~ 1202 0.00 0 0 187 0 280 0 ~ ~ ~ ~
2044. 2020-10-22 19:14 5.1 9.2 -0.6 89 ~ ~ 1202 0.00 0 0 185 0 280 0 ~ ~ ~ ~
2045. 2020-10-22 20:14 4.4 9.2 -0.6 91 ~ ~ 1202 0.00 0 0 185 0 280 0 ~ ~ ~ ~
2046. 2020-10-22 21:14 4.2 9.2 -0.6 92 ~ ~ 1202 0.00 0 0 184 0 280 0 ~ ~ ~ ~
2047. 2020-10-22 22:14 4.0 9.2 -0.6 92 ~ ~ 1202 0.00 0 0 183 0 280 0 ~ ~ ~ ~
2048. 2020-10-22 23:14 3.9 9.2 -0.6 93 ~ ~ 1202 0.00 0 0 181 0 280 0 ~ ~ ~ ~
2049. 2020-10-23 00:14 4.0 9.2 -0.6 93 ~ ~ 1202 0.00 0 0 180 0 280 0 ~ ~ ~ ~
2050. 2020-10-23 01:14 4.0 9.2 -0.6 93 ~ ~ 1202 0.00 0 0 180 0 280 0 ~ ~ ~ ~
2051. 2020-10-23 02:14 4.0 9.2 -0.6 93 ~ ~ 1202 0.00 0 0 179 0 280 0 ~ ~ ~ ~
2052. 2020-10-23 03:14 3.8 9.2 -0.6 93 ~ ~ 1203 0.25 0 1 178 0 280 0 ~ ~ ~ ~
2053. 2020-10-23 04:14 3.7 9.2 -0.6 93 ~ ~ 1203 0.25 1 1 177 0 280 0 ~ ~ ~ ~
2054. 2020-10-23 05:14 3.6 9.2 -0.6 94 ~ ~ 1204 1.02 2 2 175 0 280 0 ~ ~ ~ ~
2055. 2020-10-23 06:14 3.3 9.2 -0.6 94 ~ ~ 1205 0.76 2 3 173 0 280 0 ~ ~ ~ ~
2056. 2020-10-23 07:14 3.0 9.2 -0.6 93 ~ ~ 1206 1.02 3 4 170 0 280 0 ~ ~ ~ ~
2057. 2020-10-23 08:14 2.6 3.0 2.6 94 ~ ~ 1207 0.76 4 4 164 0 280 0 ~ ~